Time,TemperatureF,DewpointF,PressureIn,WindDirection,WindDirectionDegrees,WindSpeedMPH,WindSpeedGustMPH,Humidity,HourlyPrecipIn,Conditions,Clouds,dailyrainin,SoftwareType,DateUTC
2013-01-25 00:00:00,65.0,63.2,30.11,SSW,196,9.0,13.0,94,0.00,,---,0.00,VWS V14.00,2013-01-25 06:00:00,
2013-01-25 00:01:00,64.9,63.1,30.11,South,183,11.0,12.0,94,0.00,,---,0.00,VWS V14.00,2013-01-25 06:01:00,
2013-01-25 00:02:00,64.9,63.1,30.11,South,184,6.0,7.0,94,0.00,,---,0.00,VWS V14.00,2013-01-25 06:02:00,
2013-01-25 00:03:00,64.9,63.1,30.11,SSW,204,9.0,14.0,94,0.00,,---,0.00,VWS V14.00,2013-01-25 06:03:00,
2013-01-25 00:04:00,64.9,63.1,30.11,SSW,200,6.0,10.0,94,0.00,,---,0.00,VWS V14.00,2013-01-25 06:04:00,
2013-01-25 00:05:00,64.8,63.0,30.11,SSW,209,9.0,12.0,94,0.00,,---,0.00,VWS V14.00,2013-01-25 06:05:00,
2013-01-25 00:06:00,64.8,63.0,30.11,South,189,8.0,11.0,94,0.00,,---,0.00,VWS V14.00,2013-01-25 06:06:00,
2013-01-25 00:07:00,64.7,62.9,30.11,South,187,10.0,10.0,94,0.00,,---,0.00,VWS V14.00,2013-01-25 06:07:00,
2013-01-25 00:08:00,64.7,62.9,30.11,South,191,8.0,11.0,94,0.00,,---,0.00,VWS V14.00,2013-01-25 06:08:00,
2013-01-25 00:09:00,64.7,62.9,30.11,SSW,197,8.0,12.0,94,0.00,,---,0.00,VWS V14.00,2013-01-25 06:09:00,
2013-01-25 00:10:00,64.7,62.9,30.11,SSW,192,7.0,10.0,94,0.00,,---,0.00,VWS V14.00,2013-01-25 06:10:00,
2013-01-25 00:11:00,64.7,62.9,30.11,SSW,194,6.0,11.0,94,0.00,,---,0.00,VWS V14.00,2013-01-25 06:11:00,
2013-01-25 00:12:00,64.5,62.7,30.11,SSW,198,11.0,11.0,94,0.00,,---,0.00,VWS V14.00,2013-01-25 06:12:00,
2013-01-25 00:13:00,64.6,62.8,30.11,SSW,202,7.0,10.0,94,0.00,,---,0.00,VWS V14.00,2013-01-25 06:13:00,
2013-01-25 00:14:00,64.6,62.8,30.11,SSW,196,7.0,10.0,94,0.00,,---,0.00,VWS V14.00,2013-01-25 06:14:00,
2013-01-25 00:15:00,64.6,62.8,30.11,SSW,196,6.0,11.0,94,0.00,,---,0.00,VWS V14.00,2013-01-25 06:15:00,
2013-01-25 00:16:00,64.6,62.8,30.11,SSW,198,9.0,10.0,94,0.00,,---,0.00,VWS V14.00,2013-01-25 06:16:00,
2013-01-25 00:17:00,64.5,62.7,30.11,SSW,200,8.0,8.0,94,0.00,,---,0.00,VWS V14.00,2013-01-25 06:17:00,
2013-01-25 00:18:00,64.6,62.8,30.11,South,188,9.0,10.0,94,0.00,,---,0.00,VWS V14.00,2013-01-25 06:18:00,
2013-01-25 00:19:00,64.5,62.7,30.11,SSW,199,8.0,10.0,94,0.00,,---,0.00,VWS V14.00,2013-01-25 06:19:00,
2013-01-25 00:20:00,64.5,62.7,30.11,South,190,7.0,10.0,94,0.00,,---,0.00,VWS V14.00,2013-01-25 06:20:00,
2013-01-25 00:21:00,64.5,62.7,30.11,SSW,200,9.0,10.0,94,0.00,,---,0.00,VWS V14.00,2013-01-25 06:21:00,
2013-01-25 00:22:00,64.4,62.6,30.11,SSW,192,6.0,7.0,94,0.00,,---,0.00,VWS V14.00,2013-01-25 06:22:00,
2013-01-25 00:23:00,64.4,62.6,30.11,SSW,194,8.0,9.0,94,0.00,,---,0.00,VWS V14.00,2013-01-25 06:23:00,
2013-01-25 00:24:00,64.4,62.6,30.11,SSW,192,7.0,8.0,94,0.00,,---,0.00,VWS V14.00,2013-01-25 06:24:00,
2013-01-25 00:25:00,64.4,62.6,30.11,South,188,5.0,9.0,94,0.00,,---,0.00,VWS V14.00,2013-01-25 06:25:00,
2013-01-25 00:26:00,64.3,62.5,30.11,South,188,8.0,10.0,94,0.00,,---,0.00,VWS V14.00,2013-01-25 06:26:00,
2013-01-25 00:27:00,64.4,62.6,30.11,South,186,8.0,11.0,94,0.00,,---,0.00,VWS V14.00,2013-01-25 06:27:00,
2013-01-25 00:28:00,64.4,62.6,30.11,SSW,192,7.0,11.0,94,0.00,,---,0.00,VWS V14.00,2013-01-25 06:28:00,
2013-01-25 00:29:00,64.3,62.5,30.11,South,183,7.0,9.0,94,0.00,,---,0.00,VWS V14.00,2013-01-25 06:29:00,
2013-01-25 00:30:00,64.3,62.5,30.11,South,182,7.0,10.0,94,0.00,,---,0.00,VWS V14.00,2013-01-25 06:30:00,
2013-01-25 00:31:00,64.3,62.5,30.10,South,189,10.0,10.0,94,0.00,,---,0.00,VWS V14.00,2013-01-25 06:31:00,
2013-01-25 00:32:00,64.3,62.5,30.10,South,186,7.0,9.0,94,0.00,,---,0.00,VWS V14.00,2013-01-25 06:32:00,
2013-01-25 00:33:00,64.3,62.5,30.10,South,178,9.0,12.0,94,0.00,,---,0.00,VWS V14.00,2013-01-25 06:33:00,
2013-01-25 00:34:00,64.3,62.5,30.10,South,185,8.0,11.0,94,0.00,,---,0.00,VWS V14.00,2013-01-25 06:34:00,
2013-01-25 00:35:00,64.3,62.5,30.10,South,185,9.0,11.0,94,0.00,,---,0.00,VWS V14.00,2013-01-25 06:35:00,
2013-01-25 00:36:00,64.3,62.5,30.10,South,185,9.0,9.0,94,0.00,,---,0.00,VWS V14.00,2013-01-25 06:36:00,
2013-01-25 00:37:00,64.3,62.5,30.10,South,184,9.0,12.0,94,0.00,,---,0.00,VWS V14.00,2013-01-25 06:37:00,
2013-01-25 00:39:00,64.3,62.5,30.10,South,188,7.0,11.0,94,0.00,,---,0.00,VWS V14.00,2013-01-25 06:39:00,
2013-01-25 00:40:00,64.3,62.5,30.10,South,186,11.0,13.0,94,0.00,,---,0.00,VWS V14.00,2013-01-25 06:40:00,
2013-01-25 00:41:00,64.3,62.5,30.10,SSW,196,10.0,10.0,94,0.00,,---,0.00,VWS V14.00,2013-01-25 06:41:00,
2013-01-25 00:42:00,64.3,62.8,30.10,South,184,7.0,10.0,95,0.00,,---,0.00,VWS V14.00,2013-01-25 06:42:00,
2013-01-25 00:43:00,64.3,62.5,30.10,South,189,8.0,12.0,94,0.00,,---,0.00,VWS V14.00,2013-01-25 06:43:00,
2013-01-25 00:44:00,64.3,62.5,30.10,South,184,9.0,11.0,94,0.00,,---,0.00,VWS V14.00,2013-01-25 06:44:00,
2013-01-25 00:45:00,64.3,62.8,30.10,South,188,9.0,11.0,95,0.00,,---,0.00,VWS V14.00,2013-01-25 06:45:00,
2013-01-25 00:46:00,64.2,62.7,30.10,SSW,195,10.0,10.0,95,0.00,,---,0.00,VWS V14.00,2013-01-25 06:46:00,
2013-01-25 00:47:00,64.2,62.7,30.10,South,188,7.0,11.0,95,0.00,,---,0.00,VWS V14.00,2013-01-25 06:47:00,
2013-01-25 00:48:00,64.2,62.7,30.10,South,190,7.0,10.0,95,0.00,,---,0.00,VWS V14.00,2013-01-25 06:48:00,
2013-01-25 00:49:00,64.2,62.7,30.10,South,186,8.0,12.0,95,0.00,,---,0.00,VWS V14.00,2013-01-25 06:49:00,
2013-01-25 00:50:00,64.2,62.7,30.10,South,188,7.0,10.0,95,0.00,,---,0.00,VWS V14.00,2013-01-25 06:50:00,
2013-01-25 00:51:00,64.1,62.6,30.10,South,188,7.0,8.0,95,0.00,,---,0.00,VWS V14.00,2013-01-25 06:51:00,
2013-01-25 00:52:00,64.2,62.7,30.10,SSW,194,5.0,13.0,95,0.00,,---,0.00,VWS V14.00,2013-01-25 06:52:00,
2013-01-25 00:53:00,64.2,62.7,30.10,South,189,7.0,9.0,95,0.00,,---,0.00,VWS V14.00,2013-01-25 06:53:00,
2013-01-25 00:54:00,64.1,62.6,30.10,SSW,192,8.0,11.0,95,0.00,,---,0.00,VWS V14.00,2013-01-25 06:54:00,
2013-01-25 00:55:00,64.1,62.6,30.10,SSW,194,10.0,12.0,95,0.00,,---,0.00,VWS V14.00,2013-01-25 06:55:00,
2013-01-25 00:56:00,64.1,62.6,30.10,SSW,192,7.0,8.0,95,0.00,,---,0.00,VWS V14.00,2013-01-25 06:56:00,
2013-01-25 00:57:00,64.1,62.6,30.10,SSW,199,8.0,12.0,95,0.00,,---,0.00,VWS V14.00,2013-01-25 06:57:00,
2013-01-25 00:59:00,64.1,62.6,30.10,South,191,8.0,10.0,95,0.00,,---,0.00,VWS V14.00,2013-01-25 06:59:00,
2013-01-25 01:00:00,64.1,62.6,30.10,South,185,11.0,11.0,95,0.00,,---,0.00,VWS V14.00,2013-01-25 07:00:00,
2013-01-25 01:01:00,64.1,62.6,30.10,South,188,5.0,7.0,95,0.00,,---,0.00,VWS V14.00,2013-01-25 07:01:00,
2013-01-25 01:02:00,64.2,62.7,30.10,SSW,192,9.0,13.0,95,0.00,,---,0.00,VWS V14.00,2013-01-25 07:02:00,
2013-01-25 01:03:00,64.2,62.7,30.10,SSW,192,6.0,10.0,95,0.00,,---,0.00,VWS V14.00,2013-01-25 07:03:00,
2013-01-25 01:04:00,64.2,62.7,30.10,South,188,9.0,11.0,95,0.00,,---,0.00,VWS V14.00,2013-01-25 07:04:00,
2013-01-25 01:05:00,64.1,62.6,30.10,SSW,199,10.0,10.0,95,0.00,,---,0.00,VWS V14.00,2013-01-25 07:05:00,
2013-01-25 01:06:00,64.1,62.6,30.10,SSW,196,6.0,8.0,95,0.00,,---,0.00,VWS V14.00,2013-01-25 07:06:00,
2013-01-25 01:07:00,64.1,62.6,30.10,SSW,195,6.0,9.0,95,0.00,,---,0.00,VWS V14.00,2013-01-25 07:07:00,
2013-01-25 01:08:00,64.1,62.6,30.10,SSW,194,6.0,9.0,95,0.00,,---,0.00,VWS V14.00,2013-01-25 07:08:00,
2013-01-25 01:09:00,64.1,62.6,30.10,SSW,194,8.0,11.0,95,0.00,,---,0.00,VWS V14.00,2013-01-25 07:09:00,
2013-01-25 01:10:00,64.1,62.6,30.10,SSW,197,9.0,9.0,95,0.00,,---,0.00,VWS V14.00,2013-01-25 07:10:00,
2013-01-25 01:11:00,64.1,62.6,30.10,SSW,198,6.0,10.0,95,0.00,,---,0.00,VWS V14.00,2013-01-25 07:11:00,
2013-01-25 01:12:00,64.0,62.5,30.10,SSW,193,5.0,6.0,95,0.00,,---,0.00,VWS V14.00,2013-01-25 07:12:00,
2013-01-25 01:13:00,64.0,62.5,30.10,SSW,199,6.0,8.0,95,0.00,,---,0.00,VWS V14.00,2013-01-25 07:13:00,
2013-01-25 01:14:00,64.0,62.5,30.10,SSW,193,6.0,9.0,95,0.00,,---,0.00,VWS V14.00,2013-01-25 07:14:00,
2013-01-25 01:15:00,64.0,62.5,30.10,South,190,8.0,11.0,95,0.00,,---,0.00,VWS V14.00,2013-01-25 07:15:00,
2013-01-25 01:16:00,64.0,62.5,30.10,South,190,8.0,10.0,95,0.00,,---,0.00,VWS V14.00,2013-01-25 07:16:00,
2013-01-25 01:17:00,64.0,62.5,30.10,South,189,7.0,10.0,95,0.00,,---,0.00,VWS V14.00,2013-01-25 07:17:00,
2013-01-25 01:18:00,64.0,62.5,30.10,SSW,192,6.0,11.0,95,0.00,,---,0.00,VWS V14.00,2013-01-25 07:18:00,
2013-01-25 01:19:00,64.0,62.5,30.10,South,186,10.0,11.0,95,0.00,,---,0.00,VWS V14.00,2013-01-25 07:19:00,
2013-01-25 01:20:00,64.0,62.5,30.10,South,189,7.0,10.0,95,0.00,,---,0.00,VWS V14.00,2013-01-25 07:20:00,
2013-01-25 01:21:00,64.0,62.5,30.10,South,190,8.0,10.0,95,0.00,,---,0.00,VWS V14.00,2013-01-25 07:21:00,
2013-01-25 01:22:00,63.9,62.4,30.10,South,188,5.0,6.0,95,0.00,,---,0.00,VWS V14.00,2013-01-25 07:22:00,
2013-01-25 01:23:00,63.9,62.4,30.10,South,184,6.0,9.0,95,0.00,,---,0.00,VWS V14.00,2013-01-25 07:23:00,
2013-01-25 01:25:00,63.9,62.4,30.10,South,189,8.0,9.0,95,0.00,,---,0.00,VWS V14.00,2013-01-25 07:25:00,
2013-01-25 01:26:00,63.9,62.4,30.10,South,188,7.0,9.0,95,0.00,,---,0.00,VWS V14.00,2013-01-25 07:26:00,
2013-01-25 01:27:00,63.9,62.4,30.10,SSW,192,10.0,11.0,95,0.00,,---,0.00,VWS V14.00,2013-01-25 07:27:00,
2013-01-25 01:28:00,63.8,62.3,30.10,SSW,194,5.0,9.0,95,0.00,,---,0.00,VWS V14.00,2013-01-25 07:28:00,
2013-01-25 01:29:00,63.9,62.4,30.10,SSW,194,8.0,11.0,95,0.00,,---,0.00,VWS V14.00,2013-01-25 07:29:00,
2013-01-25 01:30:00,63.9,62.4,30.10,South,189,7.0,11.0,95,0.00,,---,0.00,VWS V14.00,2013-01-25 07:30:00,
2013-01-25 01:31:00,63.9,62.4,30.10,South,191,6.0,8.0,95,0.00,,---,0.00,VWS V14.00,2013-01-25 07:31:00,
2013-01-25 01:32:00,63.8,62.3,30.10,SSW,196,8.0,9.0,95,0.00,,---,0.00,VWS V14.00,2013-01-25 07:32:00,
2013-01-25 01:33:00,63.8,62.3,30.10,SSW,192,8.0,9.0,95,0.00,,---,0.00,VWS V14.00,2013-01-25 07:33:00,
2013-01-25 01:34:00,63.8,62.3,30.10,SSW,195,8.0,10.0,95,0.00,,---,0.00,VWS V14.00,2013-01-25 07:34:00,
2013-01-25 01:35:00,63.8,62.3,30.10,SSW,194,7.0,9.0,95,0.00,,---,0.00,VWS V14.00,2013-01-25 07:35:00,
2013-01-25 01:36:00,63.7,62.2,30.10,SSW,192,10.0,10.0,95,0.00,,---,0.00,VWS V14.00,2013-01-25 07:36:00,
2013-01-25 01:37:00,63.7,62.2,30.09,South,190,7.0,9.0,95,0.00,,---,0.00,VWS V14.00,2013-01-25 07:37:00,
2013-01-25 01:38:00,63.8,62.3,30.09,South,190,7.0,9.0,95,0.00,,---,0.00,VWS V14.00,2013-01-25 07:38:00,
2013-01-25 01:39:00,63.7,62.2,30.09,South,190,8.0,9.0,95,0.00,,---,0.00,VWS V14.00,2013-01-25 07:39:00,
2013-01-25 01:42:00,63.6,62.2,30.09,South,188,10.0,10.0,95,0.00,,---,0.00,VWS V14.00,2013-01-25 07:42:00,
2013-01-25 01:43:00,63.6,62.2,30.09,South,191,7.0,8.0,95,0.00,,---,0.00,VWS V14.00,2013-01-25 07:43:00,
2013-01-25 01:44:00,63.6,62.2,30.09,SSW,192,7.0,10.0,95,0.00,,---,0.00,VWS V14.00,2013-01-25 07:44:00,
2013-01-25 01:45:00,63.6,62.2,30.09,South,188,7.0,10.0,95,0.00,,---,0.00,VWS V14.00,2013-01-25 07:45:00,
2013-01-25 01:46:00,63.5,62.0,30.09,South,191,6.0,9.0,95,0.00,,---,0.00,VWS V14.00,2013-01-25 07:46:00,
2013-01-25 01:47:00,63.6,62.2,30.09,South,187,7.0,10.0,95,0.00,,---,0.00,VWS V14.00,2013-01-25 07:47:00,
2013-01-25 01:48:00,63.5,62.0,30.09,South,190,7.0,9.0,95,0.00,,---,0.00,VWS V14.00,2013-01-25 07:48:00,
2013-01-25 01:49:00,63.5,62.0,30.09,South,185,9.0,10.0,95,0.00,,---,0.00,VWS V14.00,2013-01-25 07:49:00,
2013-01-25 01:50:00,63.6,62.2,30.09,South,188,9.0,10.0,95,0.00,,---,0.00,VWS V14.00,2013-01-25 07:50:00,
2013-01-25 01:51:00,63.6,62.2,30.09,South,184,7.0,11.0,95,0.00,,---,0.00,VWS V14.00,2013-01-25 07:51:00,
2013-01-25 01:52:00,63.4,62.0,30.09,South,182,6.0,7.0,95,0.00,,---,0.00,VWS V14.00,2013-01-25 07:52:00,
2013-01-25 01:53:00,63.5,62.0,30.09,South,180,7.0,11.0,95,0.00,,---,0.00,VWS V14.00,2013-01-25 07:53:00,
2013-01-25 01:54:00,63.4,62.0,30.09,South,180,5.0,9.0,95,0.00,,---,0.00,VWS V14.00,2013-01-25 07:54:00,
2013-01-25 01:56:00,63.4,62.0,30.09,South,183,9.0,9.0,95,0.00,,---,0.00,VWS V14.00,2013-01-25 07:56:00,
2013-01-25 01:57:00,63.3,61.8,30.09,South,188,8.0,8.0,95,0.00,,---,0.00,VWS V14.00,2013-01-25 07:57:00,
2013-01-25 01:58:00,63.3,61.8,30.09,South,186,8.0,8.0,95,0.00,,---,0.00,VWS V14.00,2013-01-25 07:58:00,
2013-01-25 01:59:00,63.3,61.8,30.09,South,189,8.0,9.0,95,0.00,,---,0.00,VWS V14.00,2013-01-25 07:59:00,
2013-01-25 02:00:00,63.3,61.8,30.09,South,187,7.0,8.0,95,0.00,,---,0.00,VWS V14.00,2013-01-25 08:00:00,
2013-01-25 02:01:00,63.3,61.8,30.09,South,187,5.0,9.0,95,0.00,,---,0.00,VWS V14.00,2013-01-25 08:01:00,
2013-01-25 02:02:00,63.2,61.8,30.08,South,188,9.0,9.0,95,0.00,,---,0.00,VWS V14.00,2013-01-25 08:02:00,
2013-01-25 02:03:00,63.2,61.8,30.08,South,187,7.0,9.0,95,0.00,,---,0.00,VWS V14.00,2013-01-25 08:03:00,
2013-01-25 02:04:00,63.2,61.8,30.08,South,188,7.0,8.0,95,0.00,,---,0.00,VWS V14.00,2013-01-25 08:04:00,
2013-01-25 02:05:00,63.2,61.8,30.08,South,189,6.0,9.0,95,0.00,,---,0.00,VWS V14.00,2013-01-25 08:05:00,
2013-01-25 02:06:00,63.2,61.8,30.08,South,188,7.0,9.0,95,0.00,,---,0.00,VWS V14.00,2013-01-25 08:06:00,
2013-01-25 02:07:00,63.1,61.7,30.08,South,191,5.0,6.0,95,0.00,,---,0.00,VWS V14.00,2013-01-25 08:07:00,
2013-01-25 02:09:00,63.1,61.7,30.08,South,191,2.0,7.0,95,0.00,,---,0.00,VWS V14.00,2013-01-25 08:09:00,
2013-01-25 02:11:00,63.1,61.7,30.08,South,191,7.0,9.0,95,0.00,,---,0.00,VWS V14.00,2013-01-25 08:11:00,
2013-01-25 02:12:00,63.1,61.7,30.08,South,189,6.0,7.0,95,0.00,,---,0.00,VWS V14.00,2013-01-25 08:12:00,
2013-01-25 02:13:00,63.1,61.7,30.08,South,189,4.0,7.0,95,0.00,,---,0.00,VWS V14.00,2013-01-25 08:13:00,
2013-01-25 02:15:00,63.1,61.7,30.08,South,190,7.0,10.0,95,0.00,,---,0.00,VWS V14.00,2013-01-25 08:15:00,
2013-01-25 02:16:00,63.1,61.9,30.08,South,188,8.0,8.0,96,0.00,,---,0.00,VWS V14.00,2013-01-25 08:16:00,
2013-01-25 02:17:00,63.2,62.0,30.08,South,186,5.0,9.0,96,0.00,,---,0.00,VWS V14.00,2013-01-25 08:17:00,
2013-01-25 02:19:00,63.1,61.9,30.08,South,185,7.0,9.0,96,0.00,,---,0.00,VWS V14.00,2013-01-25 08:19:00,
2013-01-25 02:20:00,63.2,62.0,30.08,South,185,6.0,9.0,96,0.00,,---,0.00,VWS V14.00,2013-01-25 08:20:00,
2013-01-25 02:21:00,63.2,62.0,30.08,South,180,9.0,9.0,96,0.00,,---,0.00,VWS V14.00,2013-01-25 08:21:00,
2013-01-25 02:22:00,63.2,62.0,30.08,South,184,10.0,10.0,96,0.00,,---,0.00,VWS V14.00,2013-01-25 08:22:00,
2013-01-25 02:23:00,63.2,62.0,30.08,South,183,7.0,10.0,96,0.00,,---,0.00,VWS V14.00,2013-01-25 08:23:00,
2013-01-25 02:26:00,63.3,62.1,30.08,South,179,9.0,10.0,96,0.00,,---,0.00,VWS V14.00,2013-01-25 08:26:00,
2013-01-25 02:27:00,63.4,62.0,30.07,South,190,8.0,9.0,95,0.00,,---,0.00,VWS V14.00,2013-01-25 08:27:00,
2013-01-25 02:28:00,63.4,62.2,30.08,South,181,6.0,10.0,96,0.00,,---,0.00,VWS V14.00,2013-01-25 08:28:00,
2013-01-25 02:30:00,63.4,62.2,30.07,South,189,7.0,10.0,96,0.00,,---,0.00,VWS V14.00,2013-01-25 08:30:00,
2013-01-25 02:31:00,63.4,62.2,30.08,South,190,7.0,10.0,96,0.00,,---,0.00,VWS V14.00,2013-01-25 08:31:00,
2013-01-25 02:32:00,63.4,62.2,30.07,SSW,194,8.0,9.0,96,0.00,,---,0.00,VWS V14.00,2013-01-25 08:32:00,
2013-01-25 02:33:00,63.4,62.2,30.07,SSW,201,5.0,11.0,96,0.00,,---,0.00,VWS V14.00,2013-01-25 08:33:00,
2013-01-25 02:34:00,63.4,62.2,30.07,SSW,195,8.0,10.0,96,0.00,,---,0.00,VWS V14.00,2013-01-25 08:34:00,
2013-01-25 02:35:00,63.5,62.3,30.07,SSW,192,8.0,12.0,96,0.00,,---,0.00,VWS V14.00,2013-01-25 08:35:00,
2013-01-25 02:36:00,63.5,62.3,30.07,South,189,7.0,9.0,96,0.00,,---,0.00,VWS V14.00,2013-01-25 08:36:00,
2013-01-25 02:37:00,63.6,62.4,30.07,South,190,7.0,9.0,96,0.00,,---,0.00,VWS V14.00,2013-01-25 08:37:00,
2013-01-25 02:39:00,63.6,62.4,30.07,South,190,9.0,11.0,96,0.00,,---,0.00,VWS V14.00,2013-01-25 08:39:00,
2013-01-25 02:42:00,63.6,62.4,30.07,South,188,8.0,8.0,96,0.00,,---,0.00,VWS V14.00,2013-01-25 08:42:00,
2013-01-25 02:43:00,63.7,62.5,30.07,South,190,6.0,8.0,96,0.00,,---,0.00,VWS V14.00,2013-01-25 08:43:00,
2013-01-25 02:44:00,63.7,62.5,30.07,South,188,7.0,9.0,96,0.00,,---,0.00,VWS V14.00,2013-01-25 08:44:00,
2013-01-25 02:45:00,63.7,62.5,30.07,South,186,9.0,12.0,96,0.00,,---,0.00,VWS V14.00,2013-01-25 08:45:00,
2013-01-25 02:46:00,63.7,62.5,30.07,South,188,8.0,11.0,96,0.00,,---,0.00,VWS V14.00,2013-01-25 08:46:00,
2013-01-25 02:47:00,63.8,62.6,30.07,South,189,5.0,10.0,96,0.00,,---,0.00,VWS V14.00,2013-01-25 08:47:00,
2013-01-25 02:49:00,63.8,62.6,30.07,South,189,5.0,9.0,96,0.00,,---,0.00,VWS V14.00,2013-01-25 08:49:00,
2013-01-25 02:51:00,63.7,62.5,30.07,South,187,8.0,8.0,96,0.00,,---,0.00,VWS V14.00,2013-01-25 08:51:00,
2013-01-25 02:52:00,63.8,62.6,30.07,South,191,6.0,8.0,96,0.00,,---,0.00,VWS V14.00,2013-01-25 08:52:00,
2013-01-25 02:53:00,63.7,62.5,30.07,South,190,9.0,9.0,96,0.00,,---,0.00,VWS V14.00,2013-01-25 08:53:00,
2013-01-25 02:54:00,63.7,62.5,30.07,South,191,8.0,12.0,96,0.00,,---,0.00,VWS V14.00,2013-01-25 08:54:00,
2013-01-25 02:56:00,63.8,62.6,30.07,South,191,9.0,10.0,96,0.00,,---,0.00,VWS V14.00,2013-01-25 08:56:00,
2013-01-25 02:57:00,64.0,62.8,30.07,South,186,5.0,7.0,96,0.00,,---,0.00,VWS V14.00,2013-01-25 08:57:00,
2013-01-25 02:59:00,64.0,62.8,30.07,South,186,6.0,12.0,96,0.00,,---,0.00,VWS V14.00,2013-01-25 08:59:00,
2013-01-25 03:00:00,64.0,62.8,30.07,SSW,193,11.0,12.0,96,0.00,,---,0.00,VWS V14.00,2013-01-25 09:00:00,
2013-01-25 03:01:00,63.9,62.7,30.07,South,184,10.0,14.0,96,0.00,,---,0.00,VWS V14.00,2013-01-25 09:01:00,
2013-01-25 03:02:00,63.8,62.6,30.07,South,182,10.0,10.0,96,0.00,,---,0.00,VWS V14.00,2013-01-25 09:02:00,
2013-01-25 03:03:00,63.9,62.7,30.07,South,180,6.0,9.0,96,0.00,,---,0.00,VWS V14.00,2013-01-25 09:03:00,
2013-01-25 03:04:00,63.8,62.6,30.07,South,181,10.0,10.0,96,0.00,,---,0.00,VWS V14.00,2013-01-25 09:04:00,
2013-01-25 03:06:00,63.8,62.6,30.06,South,185,9.0,11.0,96,0.00,,---,0.00,VWS V14.00,2013-01-25 09:06:00,
2013-01-25 03:07:00,63.9,62.7,30.06,SSW,193,9.0,9.0,96,0.00,,---,0.00,VWS V14.00,2013-01-25 09:07:00,
2013-01-25 03:08:00,63.9,62.7,30.06,South,188,9.0,11.0,96,0.00,,---,0.00,VWS V14.00,2013-01-25 09:08:00,
2013-01-25 03:09:00,63.9,62.7,30.06,SSW,194,9.0,14.0,96,0.00,,---,0.00,VWS V14.00,2013-01-25 09:09:00,
2013-01-25 03:10:00,63.9,62.7,30.06,SSW,192,6.0,9.0,96,0.00,,---,0.00,VWS V14.00,2013-01-25 09:10:00,
2013-01-25 03:11:00,63.8,62.6,30.06,South,190,8.0,12.0,96,0.00,,---,0.00,VWS V14.00,2013-01-25 09:11:00,
2013-01-25 03:12:00,63.8,62.6,30.06,SSW,192,7.0,11.0,96,0.00,,---,0.00,VWS V14.00,2013-01-25 09:12:00,
2013-01-25 03:13:00,63.8,62.6,30.06,South,190,7.0,15.0,96,0.00,,---,0.00,VWS V14.00,2013-01-25 09:13:00,
2013-01-25 03:14:00,63.8,62.6,30.06,South,191,8.0,15.0,96,0.00,,---,0.00,VWS V14.00,2013-01-25 09:14:00,
2013-01-25 03:15:00,63.8,62.6,30.06,South,189,8.0,11.0,96,0.00,,---,0.00,VWS V14.00,2013-01-25 09:15:00,
2013-01-25 03:16:00,63.8,62.6,30.06,SSW,197,8.0,10.0,96,0.00,,---,0.00,VWS V14.00,2013-01-25 09:16:00,
2013-01-25 03:17:00,63.8,62.6,30.06,SSW,192,8.0,9.0,96,0.00,,---,0.00,VWS V14.00,2013-01-25 09:17:00,
2013-01-25 03:18:00,63.8,62.6,30.06,SSW,192,10.0,10.0,96,0.00,,---,0.00,VWS V14.00,2013-01-25 09:18:00,
2013-01-25 03:19:00,63.8,62.6,30.06,SSW,192,9.0,11.0,96,0.00,,---,0.00,VWS V14.00,2013-01-25 09:19:00,
2013-01-25 03:22:00,63.8,62.6,30.06,SSW,196,8.0,12.0,96,0.00,,---,0.00,VWS V14.00,2013-01-25 09:22:00,
2013-01-25 03:23:00,63.8,62.6,30.06,SSW,195,6.0,11.0,96,0.00,,---,0.00,VWS V14.00,2013-01-25 09:23:00,
2013-01-25 03:24:00,63.8,62.6,30.06,SSW,198,11.0,12.0,96,0.00,,---,0.00,VWS V14.00,2013-01-25 09:24:00,
2013-01-25 03:25:00,63.8,62.6,30.06,SSW,196,8.0,12.0,96,0.00,,---,0.00,VWS V14.00,2013-01-25 09:25:00,
2013-01-25 03:26:00,63.8,62.6,30.06,SSW,196,9.0,11.0,96,0.00,,---,0.00,VWS V14.00,2013-01-25 09:26:00,
2013-01-25 03:27:00,63.7,62.5,30.06,SSW,199,9.0,9.0,96,0.00,,---,0.00,VWS V14.00,2013-01-25 09:27:00,
2013-01-25 03:28:00,63.8,62.6,30.06,SSW,194,8.0,10.0,96,0.00,,---,0.00,VWS V14.00,2013-01-25 09:28:00,
2013-01-25 03:29:00,63.7,62.5,30.06,SSW,194,6.0,10.0,96,0.00,,---,0.00,VWS V14.00,2013-01-25 09:29:00,
2013-01-25 03:30:00,63.7,62.5,30.06,SSW,195,4.0,10.0,96,0.00,,---,0.00,VWS V14.00,2013-01-25 09:30:00,
2013-01-25 03:31:00,63.7,62.2,30.06,SSW,194,6.0,10.0,95,0.00,,---,0.00,VWS V14.00,2013-01-25 09:31:00,
2013-01-25 03:32:00,63.6,62.4,30.06,South,191,6.0,8.0,96,0.00,,---,0.00,VWS V14.00,2013-01-25 09:32:00,
2013-01-25 03:33:00,63.7,62.5,30.06,South,190,7.0,11.0,96,0.00,,---,0.00,VWS V14.00,2013-01-25 09:33:00,
2013-01-25 03:34:00,63.6,62.4,30.06,South,190,7.0,9.0,96,0.00,,---,0.00,VWS V14.00,2013-01-25 09:34:00,
2013-01-25 03:35:00,63.6,62.4,30.06,SSW,192,6.0,9.0,96,0.00,,---,0.00,VWS V14.00,2013-01-25 09:35:00,
2013-01-25 03:36:00,63.6,62.2,30.06,SSW,202,10.0,12.0,95,0.00,,---,0.00,VWS V14.00,2013-01-25 09:36:00,
2013-01-25 03:37:00,63.6,62.4,30.06,SSW,199,4.0,6.0,96,0.00,,---,0.00,VWS V14.00,2013-01-25 09:37:00,
2013-01-25 03:38:00,63.6,62.4,30.06,SSW,202,7.0,9.0,96,0.00,,---,0.00,VWS V14.00,2013-01-25 09:38:00,
2013-01-25 03:39:00,63.6,62.4,30.06,SSW,199,5.0,9.0,96,0.00,,---,0.00,VWS V14.00,2013-01-25 09:39:00,
2013-01-25 03:40:00,63.6,62.2,30.06,SSW,199,7.0,7.0,95,0.00,,---,0.00,VWS V14.00,2013-01-25 09:40:00,
2013-01-25 03:41:00,63.6,62.2,30.06,SSW,199,7.0,8.0,95,0.00,,---,0.00,VWS V14.00,2013-01-25 09:41:00,
2013-01-25 03:42:00,63.5,62.0,30.06,SSW,200,6.0,7.0,95,0.00,,---,0.00,VWS V14.00,2013-01-25 09:42:00,
2013-01-25 03:43:00,63.5,62.0,30.06,SSW,198,7.0,9.0,95,0.00,,---,0.00,VWS V14.00,2013-01-25 09:43:00,
2013-01-25 03:44:00,63.5,62.0,30.06,SSW,200,5.0,9.0,95,0.00,,---,0.00,VWS V14.00,2013-01-25 09:44:00,
2013-01-25 03:45:00,63.4,62.0,30.06,SSW,200,6.0,7.0,95,0.00,,---,0.00,VWS V14.00,2013-01-25 09:45:00,
2013-01-25 03:46:00,63.3,61.8,30.06,SSW,200,8.0,8.0,95,0.00,,---,0.00,VWS V14.00,2013-01-25 09:46:00,
2013-01-25 03:47:00,63.2,61.8,30.06,SSW,199,6.0,6.0,95,0.00,,---,0.00,VWS V14.00,2013-01-25 09:47:00,
2013-01-25 03:48:00,63.2,61.8,30.06,SSW,199,5.0,8.0,95,0.00,,---,0.00,VWS V14.00,2013-01-25 09:48:00,
2013-01-25 03:49:00,63.2,61.8,30.06,SSW,199,5.0,9.0,95,0.00,,---,0.00,VWS V14.00,2013-01-25 09:49:00,
2013-01-25 03:50:00,63.1,61.7,30.06,SSW,199,4.0,6.0,95,0.00,,---,0.00,VWS V14.00,2013-01-25 09:50:00,
2013-01-25 03:51:00,63.1,61.7,30.06,SSW,199,5.0,8.0,95,0.00,,---,0.00,VWS V14.00,2013-01-25 09:51:00,
2013-01-25 03:52:00,63.0,61.5,30.06,SSW,199,5.0,5.0,95,0.00,,---,0.00,VWS V14.00,2013-01-25 09:52:00,
2013-01-25 03:53:00,63.1,61.7,30.06,SSW,199,7.0,9.0,95,0.00,,---,0.00,VWS V14.00,2013-01-25 09:53:00,
2013-01-25 03:54:00,63.0,61.5,30.06,SSW,199,2.0,8.0,95,0.00,,---,0.00,VWS V14.00,2013-01-25 09:54:00,
2013-01-25 03:55:00,63.0,61.5,30.06,SSW,199,3.0,7.0,95,0.00,,---,0.00,VWS V14.00,2013-01-25 09:55:00,
2013-01-25 03:56:00,62.9,61.5,30.06,SSW,199,7.0,9.0,95,0.00,,---,0.00,VWS V14.00,2013-01-25 09:56:00,
2013-01-25 03:57:00,62.9,61.5,30.06,SSW,198,4.0,5.0,95,0.00,,---,0.00,VWS V14.00,2013-01-25 09:57:00,
2013-01-25 03:58:00,62.9,61.5,30.06,SSW,198,7.0,8.0,95,0.00,,---,0.00,VWS V14.00,2013-01-25 09:58:00,
2013-01-25 03:59:00,62.9,61.8,30.06,SSW,198,5.0,7.0,96,0.00,,---,0.00,VWS V14.00,2013-01-25 09:59:00,
2013-01-25 04:01:00,62.7,61.2,30.06,SSW,196,5.0,8.0,95,0.00,,---,0.00,VWS V14.00,2013-01-25 10:01:00,
2013-01-25 04:02:00,62.6,61.2,30.06,SSW,196,5.0,7.0,95,0.00,,---,0.00,VWS V14.00,2013-01-25 10:02:00,
2013-01-25 04:03:00,62.6,61.2,30.06,SSW,196,7.0,7.0,95,0.00,,---,0.00,VWS V14.00,2013-01-25 10:03:00,
2013-01-25 04:04:00,62.6,61.2,30.06,SSW,196,5.0,8.0,95,0.00,,---,0.00,VWS V14.00,2013-01-25 10:04:00,
2013-01-25 04:05:00,62.6,61.2,30.06,SSW,196,7.0,8.0,95,0.00,,---,0.00,VWS V14.00,2013-01-25 10:05:00,
2013-01-25 04:06:00,62.6,61.2,30.06,SSW,196,3.0,8.0,95,0.00,,---,0.00,VWS V14.00,2013-01-25 10:06:00,
2013-01-25 04:07:00,62.5,61.0,30.05,SSW,196,5.0,8.0,95,0.00,,---,0.00,VWS V14.00,2013-01-25 10:07:00,
2013-01-25 04:08:00,62.5,61.0,30.06,SSW,196,7.0,7.0,95,0.00,,---,0.00,VWS V14.00,2013-01-25 10:08:00,
2013-01-25 04:09:00,62.4,61.0,30.06,SSW,196,7.0,8.0,95,0.00,,---,0.00,VWS V14.00,2013-01-25 10:09:00,
2013-01-25 04:10:00,62.4,61.2,30.05,SSW,196,5.0,8.0,96,0.00,,---,0.00,VWS V14.00,2013-01-25 10:10:00,
2013-01-25 04:11:00,62.4,61.0,30.05,SSW,196,5.0,7.0,95,0.00,,---,0.00,VWS V14.00,2013-01-25 10:11:00,
2013-01-25 04:12:00,62.3,60.8,30.05,SSW,196,6.0,7.0,95,0.00,,---,0.00,VWS V14.00,2013-01-25 10:12:00,
2013-01-25 04:13:00,62.3,60.8,30.05,SSW,196,5.0,6.0,95,0.00,,---,0.00,VWS V14.00,2013-01-25 10:13:00,
2013-01-25 04:14:00,62.3,60.8,30.05,SSW,196,6.0,6.0,95,0.00,,---,0.00,VWS V14.00,2013-01-25 10:14:00,
2013-01-25 04:15:00,62.3,60.8,30.05,SSW,196,6.0,7.0,95,0.00,,---,0.00,VWS V14.00,2013-01-25 10:15:00,
2013-01-25 04:16:00,62.3,61.2,30.05,SSW,196,5.0,7.0,96,0.00,,---,0.00,VWS V14.00,2013-01-25 10:16:00,
2013-01-25 04:17:00,62.3,61.2,30.05,SSW,196,6.0,6.0,96,0.00,,---,0.00,VWS V14.00,2013-01-25 10:17:00,
2013-01-25 04:18:00,62.2,60.8,30.05,SSW,196,7.0,7.0,95,0.00,,---,0.00,VWS V14.00,2013-01-25 10:18:00,
2013-01-25 04:19:00,62.3,61.2,30.05,SSW,197,6.0,7.0,96,0.00,,---,0.00,VWS V14.00,2013-01-25 10:19:00,
2013-01-25 04:20:00,62.3,61.2,30.05,SSW,196,4.0,6.0,96,0.00,,---,0.00,VWS V14.00,2013-01-25 10:20:00,
2013-01-25 04:21:00,62.3,61.2,30.05,SSW,196,4.0,8.0,96,0.00,,---,0.00,VWS V14.00,2013-01-25 10:21:00,
2013-01-25 04:22:00,62.3,61.2,30.05,SSW,196,4.0,6.0,96,0.00,,---,0.00,VWS V14.00,2013-01-25 10:22:00,
2013-01-25 04:23:00,62.3,61.2,30.05,SSW,196,6.0,6.0,96,0.00,,---,0.00,VWS V14.00,2013-01-25 10:23:00,
2013-01-25 04:24:00,62.3,61.2,30.05,SSW,196,3.0,7.0,96,0.00,,---,0.00,VWS V14.00,2013-01-25 10:24:00,
2013-01-25 04:25:00,62.2,60.8,30.05,SSW,196,3.0,6.0,95,0.00,,---,0.00,VWS V14.00,2013-01-25 10:25:00,
2013-01-25 04:26:00,62.2,60.8,30.05,SSW,196,3.0,7.0,95,0.00,,---,0.00,VWS V14.00,2013-01-25 10:26:00,
2013-01-25 04:27:00,62.1,60.7,30.06,SSW,196,7.0,7.0,95,0.00,,---,0.00,VWS V14.00,2013-01-25 10:27:00,
2013-01-25 04:28:00,62.2,60.8,30.05,SSW,196,4.0,6.0,95,0.00,,---,0.00,VWS V14.00,2013-01-25 10:28:00,
2013-01-25 04:29:00,62.2,61.0,30.05,SSW,196,3.0,5.0,96,0.00,,---,0.00,VWS V14.00,2013-01-25 10:29:00,
2013-01-25 04:30:00,62.1,60.7,30.06,SSW,196,5.0,7.0,95,0.00,,---,0.00,VWS V14.00,2013-01-25 10:30:00,
2013-01-25 04:31:00,62.2,61.0,30.05,SSW,196,5.0,7.0,96,0.00,,---,0.00,VWS V14.00,2013-01-25 10:31:00,
2013-01-25 04:32:00,62.2,61.0,30.05,SSW,196,6.0,6.0,96,0.00,,---,0.00,VWS V14.00,2013-01-25 10:32:00,
2013-01-25 04:33:00,62.2,61.0,30.06,SSW,196,5.0,7.0,96,0.00,,---,0.00,VWS V14.00,2013-01-25 10:33:00,
2013-01-25 04:34:00,62.1,61.0,30.05,SSW,196,5.0,6.0,96,0.00,,---,0.00,VWS V14.00,2013-01-25 10:34:00,
2013-01-25 04:35:00,62.2,61.0,30.05,SSW,196,4.0,6.0,96,0.00,,---,0.00,VWS V14.00,2013-01-25 10:35:00,
2013-01-25 04:36:00,62.2,61.0,30.05,SSW,196,3.0,6.0,96,0.00,,---,0.00,VWS V14.00,2013-01-25 10:36:00,
2013-01-25 04:37:00,62.2,61.0,30.05,SSW,196,6.0,8.0,96,0.00,,---,0.00,VWS V14.00,2013-01-25 10:37:00,
2013-01-25 04:38:00,62.1,61.0,30.05,SSW,196,6.0,7.0,96,0.00,,---,0.00,VWS V14.00,2013-01-25 10:38:00,
2013-01-25 04:39:00,62.1,61.0,30.05,SSW,196,7.0,10.0,96,0.00,,---,0.00,VWS V14.00,2013-01-25 10:39:00,
2013-01-25 04:40:00,62.3,61.2,30.05,SSW,196,6.0,8.0,96,0.00,,---,0.00,VWS V14.00,2013-01-25 10:40:00,
2013-01-25 04:41:00,62.3,61.2,30.05,SSW,196,5.0,8.0,96,0.00,,---,0.00,VWS V14.00,2013-01-25 10:41:00,
2013-01-25 04:42:00,62.2,61.0,30.05,SSW,196,0.0,3.0,96,0.00,,---,0.00,VWS V14.00,2013-01-25 10:42:00,
2013-01-25 04:43:00,62.2,61.0,30.05,SSW,196,5.0,8.0,96,0.00,,---,0.00,VWS V14.00,2013-01-25 10:43:00,
2013-01-25 04:44:00,62.2,61.0,30.05,SSW,196,3.0,7.0,96,0.00,,---,0.00,VWS V14.00,2013-01-25 10:44:00,
2013-01-25 04:45:00,62.1,61.0,30.05,SSW,196,2.0,3.0,96,0.00,,---,0.00,VWS V14.00,2013-01-25 10:45:00,
2013-01-25 04:46:00,62.1,60.7,30.05,SSW,196,3.0,7.0,95,0.00,,---,0.00,VWS V14.00,2013-01-25 10:46:00,
2013-01-25 04:47:00,62.0,60.8,30.05,SSW,196,4.0,6.0,96,0.00,,---,0.00,VWS V14.00,2013-01-25 10:47:00,
2013-01-25 04:48:00,62.1,61.0,30.05,SSW,196,4.0,6.0,96,0.00,,---,0.00,VWS V14.00,2013-01-25 10:48:00,
2013-01-25 04:49:00,62.0,60.8,30.05,SSW,196,6.0,6.0,96,0.00,,---,0.00,VWS V14.00,2013-01-25 10:49:00,
2013-01-25 04:50:00,62.0,60.8,30.05,SSW,196,6.0,6.0,96,0.00,,---,0.00,VWS V14.00,2013-01-25 10:50:00,
2013-01-25 04:51:00,62.0,60.8,30.05,SSW,197,4.0,6.0,96,0.00,,---,0.00,VWS V14.00,2013-01-25 10:51:00,
2013-01-25 04:52:00,61.8,60.7,30.05,SSW,196,5.0,5.0,96,0.00,,---,0.00,VWS V14.00,2013-01-25 10:52:00,
2013-01-25 04:53:00,61.9,60.8,30.05,SSW,196,4.0,5.0,96,0.00,,---,0.00,VWS V14.00,2013-01-25 10:53:00,
2013-01-25 04:54:00,61.8,60.7,30.05,SSW,196,5.0,5.0,96,0.00,,---,0.00,VWS V14.00,2013-01-25 10:54:00,
2013-01-25 04:55:00,61.8,60.7,30.05,SSW,196,3.0,5.0,96,0.00,,---,0.00,VWS V14.00,2013-01-25 10:55:00,
2013-01-25 04:56:00,61.8,60.7,30.05,SSW,196,4.0,5.0,96,0.00,,---,0.00,VWS V14.00,2013-01-25 10:56:00,
2013-01-25 04:57:00,61.7,60.5,30.05,SSW,196,3.0,5.0,96,0.00,,---,0.00,VWS V14.00,2013-01-25 10:57:00,
2013-01-25 04:58:00,61.7,60.5,30.05,SSW,196,4.0,6.0,96,0.00,,---,0.00,VWS V14.00,2013-01-25 10:58:00,
2013-01-25 04:59:00,61.7,60.5,30.05,SSW,196,3.0,5.0,96,0.00,,---,0.00,VWS V14.00,2013-01-25 10:59:00,
2013-01-25 05:00:00,61.7,60.5,30.05,SSW,196,5.0,5.0,96,0.00,,---,0.00,VWS V14.00,2013-01-25 11:00:00,
2013-01-25 05:01:00,61.6,60.5,30.05,SSW,196,3.0,5.0,96,0.00,,---,0.00,VWS V14.00,2013-01-25 11:01:00,
2013-01-25 05:02:00,61.6,60.5,30.05,SSW,196,4.0,5.0,96,0.00,,---,0.00,VWS V14.00,2013-01-25 11:02:00,
2013-01-25 05:03:00,61.6,60.5,30.05,SSW,196,4.0,6.0,96,0.00,,---,0.00,VWS V14.00,2013-01-25 11:03:00,
2013-01-25 05:04:00,61.6,60.5,30.05,SSW,196,4.0,7.0,96,0.00,,---,0.00,VWS V14.00,2013-01-25 11:04:00,
2013-01-25 05:05:00,61.6,60.5,30.05,SSW,196,6.0,6.0,96,0.00,,---,0.00,VWS V14.00,2013-01-25 11:05:00,
2013-01-25 05:06:00,61.6,60.5,30.05,SSW,196,7.0,7.0,96,0.00,,---,0.00,VWS V14.00,2013-01-25 11:06:00,
2013-01-25 05:07:00,61.6,60.5,30.05,SSW,196,5.0,6.0,96,0.00,,---,0.00,VWS V14.00,2013-01-25 11:07:00,
2013-01-25 05:08:00,61.6,60.5,30.05,SSW,196,5.0,6.0,96,0.00,,---,0.00,VWS V14.00,2013-01-25 11:08:00,
2013-01-25 05:09:00,61.6,60.5,30.05,SSW,196,4.0,6.0,96,0.00,,---,0.00,VWS V14.00,2013-01-25 11:09:00,
2013-01-25 05:10:00,61.6,60.5,30.05,SSW,196,5.0,6.0,96,0.00,,---,0.00,VWS V14.00,2013-01-25 11:10:00,
2013-01-25 05:11:00,61.5,60.3,30.05,SSW,196,3.0,6.0,96,0.00,,---,0.00,VWS V14.00,2013-01-25 11:11:00,
2013-01-25 05:12:00,61.4,60.2,30.05,SSW,196,3.0,7.0,96,0.00,,---,0.00,VWS V14.00,2013-01-25 11:12:00,
2013-01-25 05:13:00,61.4,60.2,30.05,SSW,196,3.0,5.0,96,0.00,,---,0.00,VWS V14.00,2013-01-25 11:13:00,
2013-01-25 05:14:00,61.4,60.2,30.05,SSW,196,7.0,7.0,96,0.00,,---,0.00,VWS V14.00,2013-01-25 11:14:00,
2013-01-25 05:15:00,61.4,60.2,30.05,SSW,196,4.0,7.0,96,0.00,,---,0.00,VWS V14.00,2013-01-25 11:15:00,
2013-01-25 05:16:00,61.3,60.2,30.05,SSW,196,6.0,6.0,96,0.00,,---,0.00,VWS V14.00,2013-01-25 11:16:00,
2013-01-25 05:17:00,61.4,60.2,30.04,SSW,196,4.0,7.0,96,0.00,,---,0.00,VWS V14.00,2013-01-25 11:17:00,
2013-01-25 05:18:00,61.4,60.2,30.04,SSW,196,6.0,6.0,96,0.00,,---,0.00,VWS V14.00,2013-01-25 11:18:00,
2013-01-25 05:19:00,61.4,60.2,30.05,SSW,196,6.0,6.0,96,0.00,,---,0.00,VWS V14.00,2013-01-25 11:19:00,
2013-01-25 05:20:00,61.4,60.2,30.04,SSW,196,4.0,7.0,96,0.00,,---,0.00,VWS V14.00,2013-01-25 11:20:00,
2013-01-25 05:21:00,61.4,60.2,30.05,SSW,196,7.0,7.0,96,0.00,,---,0.00,VWS V14.00,2013-01-25 11:21:00,
2013-01-25 05:22:00,61.4,60.2,30.05,SSW,196,5.0,6.0,96,0.00,,---,0.00,VWS V14.00,2013-01-25 11:22:00,
2013-01-25 05:23:00,61.4,60.2,30.05,SSW,196,3.0,5.0,96,0.00,,---,0.00,VWS V14.00,2013-01-25 11:23:00,
2013-01-25 05:24:00,61.4,60.2,30.05,SSW,196,6.0,6.0,96,0.00,,---,0.00,VWS V14.00,2013-01-25 11:24:00,
2013-01-25 05:25:00,61.4,60.2,30.05,SSW,196,3.0,6.0,96,0.00,,---,0.00,VWS V14.00,2013-01-25 11:25:00,
2013-01-25 05:26:00,61.3,60.2,30.05,SSW,196,4.0,6.0,96,0.00,,---,0.00,VWS V14.00,2013-01-25 11:26:00,
2013-01-25 05:27:00,61.4,60.2,30.05,SSW,196,6.0,6.0,96,0.00,,---,0.00,VWS V14.00,2013-01-25 11:27:00,
2013-01-25 05:28:00,61.3,60.2,30.05,SSW,196,4.0,6.0,96,0.00,,---,0.00,VWS V14.00,2013-01-25 11:28:00,
2013-01-25 05:29:00,61.3,60.2,30.04,SSW,196,5.0,6.0,96,0.00,,---,0.00,VWS V14.00,2013-01-25 11:29:00,
2013-01-25 05:30:00,61.4,60.2,30.05,SSW,197,5.0,6.0,96,0.00,,---,0.00,VWS V14.00,2013-01-25 11:30:00,
2013-01-25 05:31:00,61.4,60.2,30.05,SSW,196,4.0,5.0,96,0.00,,---,0.00,VWS V14.00,2013-01-25 11:31:00,
2013-01-25 05:32:00,61.4,60.2,30.05,SSW,196,4.0,5.0,96,0.00,,---,0.00,VWS V14.00,2013-01-25 11:32:00,
2013-01-25 05:33:00,61.4,60.2,30.05,SSW,196,5.0,7.0,96,0.00,,---,0.00,VWS V14.00,2013-01-25 11:33:00,
2013-01-25 05:34:00,61.4,60.2,30.05,SSW,196,4.0,6.0,96,0.00,,---,0.00,VWS V14.00,2013-01-25 11:34:00,
2013-01-25 05:35:00,61.4,60.2,30.05,SSW,196,3.0,5.0,96,0.00,,---,0.00,VWS V14.00,2013-01-25 11:35:00,
2013-01-25 05:36:00,61.4,60.2,30.05,SSW,196,3.0,7.0,96,0.00,,---,0.00,VWS V14.00,2013-01-25 11:36:00,
2013-01-25 05:37:00,61.5,60.3,30.05,SSW,196,6.0,6.0,96,0.00,,---,0.00,VWS V14.00,2013-01-25 11:37:00,
2013-01-25 05:38:00,61.5,60.3,30.05,SSW,196,5.0,7.0,96,0.00,,---,0.00,VWS V14.00,2013-01-25 11:38:00,
2013-01-25 05:39:00,61.5,60.3,30.05,SSW,196,4.0,6.0,96,0.00,,---,0.00,VWS V14.00,2013-01-25 11:39:00,
2013-01-25 05:40:00,61.5,60.3,30.05,SSW,196,5.0,6.0,96,0.00,,---,0.00,VWS V14.00,2013-01-25 11:40:00,
2013-01-25 05:41:00,61.5,60.3,30.05,SSW,196,4.0,5.0,96,0.00,,---,0.00,VWS V14.00,2013-01-25 11:41:00,
2013-01-25 05:42:00,61.6,60.5,30.05,SSW,196,4.0,5.0,96,0.00,,---,0.00,VWS V14.00,2013-01-25 11:42:00,
2013-01-25 05:43:00,61.6,60.5,30.05,SSW,196,3.0,7.0,96,0.00,,---,0.00,VWS V14.00,2013-01-25 11:43:00,
2013-01-25 05:44:00,61.6,60.5,30.05,SSW,196,4.0,6.0,96,0.00,,---,0.00,VWS V14.00,2013-01-25 11:44:00,
2013-01-25 05:45:00,61.6,60.5,30.05,SSW,196,4.0,7.0,96,0.00,,---,0.00,VWS V14.00,2013-01-25 11:45:00,
2013-01-25 05:46:00,61.7,60.5,30.05,SSW,195,7.0,8.0,96,0.00,,---,0.00,VWS V14.00,2013-01-25 11:46:00,
2013-01-25 05:47:00,61.8,60.7,30.05,SSW,195,7.0,7.0,96,0.00,,---,0.00,VWS V14.00,2013-01-25 11:47:00,
2013-01-25 05:48:00,61.8,60.7,30.05,SSW,195,4.0,8.0,96,0.00,,---,0.00,VWS V14.00,2013-01-25 11:48:00,
2013-01-25 05:49:00,61.8,60.7,30.05,SSW,195,6.0,8.0,96,0.00,,---,0.00,VWS V14.00,2013-01-25 11:49:00,
2013-01-25 05:50:00,61.8,60.7,30.05,SSW,195,5.0,7.0,96,0.00,,---,0.00,VWS V14.00,2013-01-25 11:50:00,
2013-01-25 05:51:00,61.8,60.7,30.05,SSW,195,6.0,8.0,96,0.00,,---,0.00,VWS V14.00,2013-01-25 11:51:00,
2013-01-25 05:52:00,62.0,60.8,30.05,SSW,193,6.0,8.0,96,0.00,,---,0.00,VWS V14.00,2013-01-25 11:52:00,
2013-01-25 05:53:00,61.9,60.8,30.05,SSW,194,8.0,9.0,96,0.00,,---,0.00,VWS V14.00,2013-01-25 11:53:00,
2013-01-25 05:54:00,62.0,60.8,30.05,SSW,193,8.0,8.0,96,0.00,,---,0.00,VWS V14.00,2013-01-25 11:54:00,
2013-01-25 05:55:00,62.0,60.8,30.05,SSW,193,4.0,8.0,96,0.00,,---,0.00,VWS V14.00,2013-01-25 11:55:00,
2013-01-25 05:56:00,61.9,60.8,30.05,SSW,193,7.0,8.0,96,0.00,,---,0.00,VWS V14.00,2013-01-25 11:56:00,
2013-01-25 05:57:00,61.9,60.8,30.05,South,190,8.0,8.0,96,0.00,,---,0.00,VWS V14.00,2013-01-25 11:57:00,
2013-01-25 05:58:00,61.8,60.7,30.05,South,190,10.0,10.0,96,0.00,,---,0.00,VWS V14.00,2013-01-25 11:58:00,
2013-01-25 05:59:00,61.9,60.8,30.05,South,190,5.0,11.0,96,0.00,,---,0.00,VWS V14.00,2013-01-25 11:59:00,
2013-01-25 06:00:00,62.0,60.8,30.05,South,190,6.0,8.0,96,0.00,,---,0.00,VWS V14.00,2013-01-25 12:00:00,
2013-01-25 06:01:00,62.0,60.8,30.05,South,190,6.0,8.0,96,0.00,,---,0.00,VWS V14.00,2013-01-25 12:01:00,
2013-01-25 06:02:00,61.9,60.8,30.05,South,188,7.0,9.0,96,0.00,,---,0.00,VWS V14.00,2013-01-25 12:02:00,
2013-01-25 06:03:00,61.9,60.8,30.05,South,189,5.0,9.0,96,0.00,,---,0.00,VWS V14.00,2013-01-25 12:03:00,
2013-01-25 06:04:00,61.9,60.8,30.05,South,189,6.0,8.0,96,0.00,,---,0.00,VWS V14.00,2013-01-25 12:04:00,
2013-01-25 06:05:00,61.9,60.8,30.05,South,188,5.0,9.0,96,0.00,,---,0.00,VWS V14.00,2013-01-25 12:05:00,
2013-01-25 06:06:00,61.9,60.8,30.05,South,188,7.0,8.0,96,0.00,,---,0.00,VWS V14.00,2013-01-25 12:06:00,
2013-01-25 06:07:00,62.0,60.8,30.05,South,188,7.0,9.0,96,0.00,,---,0.00,VWS V14.00,2013-01-25 12:07:00,
2013-01-25 06:08:00,62.0,60.8,30.05,South,188,6.0,11.0,96,0.00,,---,0.00,VWS V14.00,2013-01-25 12:08:00,
2013-01-25 06:09:00,62.0,60.8,30.05,South,188,7.0,9.0,96,0.00,,---,0.00,VWS V14.00,2013-01-25 12:09:00,
2013-01-25 06:10:00,62.0,60.8,30.05,South,188,5.0,9.0,96,0.00,,---,0.00,VWS V14.00,2013-01-25 12:10:00,
2013-01-25 06:11:00,62.0,60.8,30.05,South,188,6.0,10.0,96,0.00,,---,0.00,VWS V14.00,2013-01-25 12:11:00,
2013-01-25 06:12:00,62.2,61.0,30.04,South,188,8.0,10.0,96,0.00,,---,0.00,VWS V14.00,2013-01-25 12:12:00,
2013-01-25 06:13:00,62.1,61.0,30.04,South,186,8.0,10.0,96,0.00,,---,0.00,VWS V14.00,2013-01-25 12:13:00,
2013-01-25 06:14:00,62.2,61.0,30.04,South,188,10.0,13.0,96,0.00,,---,0.00,VWS V14.00,2013-01-25 12:14:00,
2013-01-25 06:15:00,62.2,61.0,30.04,South,188,8.0,11.0,96,0.00,,---,0.00,VWS V14.00,2013-01-25 12:15:00,
2013-01-25 06:16:00,62.2,61.0,30.04,South,188,8.0,11.0,96,0.00,,---,0.00,VWS V14.00,2013-01-25 12:16:00,
2013-01-25 06:17:00,62.2,61.0,30.05,South,190,8.0,10.0,96,0.00,,---,0.00,VWS V14.00,2013-01-25 12:17:00,
2013-01-25 06:18:00,62.2,61.0,30.04,South,189,8.0,9.0,96,0.00,,---,0.00,VWS V14.00,2013-01-25 12:18:00,
2013-01-25 06:19:00,62.2,61.0,30.05,South,189,7.0,10.0,96,0.00,,---,0.00,VWS V14.00,2013-01-25 12:19:00,
2013-01-25 06:20:00,62.3,61.2,30.05,South,191,7.0,10.0,96,0.00,,---,0.00,VWS V14.00,2013-01-25 12:20:00,
2013-01-25 06:21:00,62.2,61.0,30.05,South,191,7.0,8.0,96,0.00,,---,0.00,VWS V14.00,2013-01-25 12:21:00,
2013-01-25 06:22:00,62.2,61.0,30.05,SSW,192,8.0,10.0,96,0.00,,---,0.00,VWS V14.00,2013-01-25 12:22:00,
2013-01-25 06:23:00,62.2,61.0,30.05,SSW,192,8.0,10.0,96,0.00,,---,0.00,VWS V14.00,2013-01-25 12:23:00,
2013-01-25 06:24:00,62.2,61.0,30.05,SSW,192,7.0,9.0,96,0.00,,---,0.00,VWS V14.00,2013-01-25 12:24:00,
2013-01-25 06:25:00,62.2,61.0,30.05,South,188,9.0,10.0,96,0.00,,---,0.00,VWS V14.00,2013-01-25 12:25:00,
2013-01-25 06:26:00,62.3,61.2,30.05,South,188,11.0,11.0,96,0.00,,---,0.00,VWS V14.00,2013-01-25 12:26:00,
2013-01-25 06:27:00,62.4,61.2,30.05,SSW,192,10.0,11.0,96,0.00,,---,0.00,VWS V14.00,2013-01-25 12:27:00,
2013-01-25 06:28:00,62.3,61.2,30.05,SSW,192,10.0,11.0,96,0.00,,---,0.00,VWS V14.00,2013-01-25 12:28:00,
2013-01-25 06:29:00,62.4,61.2,30.05,SSW,192,9.0,11.0,96,0.00,,---,0.00,VWS V14.00,2013-01-25 12:29:00,
2013-01-25 06:30:00,62.4,61.2,30.05,SSW,195,11.0,11.0,96,0.00,,---,0.00,VWS V14.00,2013-01-25 12:30:00,
2013-01-25 06:31:00,62.4,61.2,30.05,SSW,195,7.0,10.0,96,0.00,,---,0.00,VWS V14.00,2013-01-25 12:31:00,
2013-01-25 06:32:00,62.4,61.2,30.05,South,188,11.0,12.0,96,0.00,,---,0.00,VWS V14.00,2013-01-25 12:32:00,
2013-01-25 06:33:00,62.4,61.2,30.05,South,190,7.0,11.0,96,0.00,,---,0.00,VWS V14.00,2013-01-25 12:33:00,
2013-01-25 06:34:00,62.4,61.2,30.05,South,190,7.0,11.0,96,0.00,,---,0.00,VWS V14.00,2013-01-25 12:34:00,
2013-01-25 06:35:00,62.4,61.2,30.05,South,189,7.0,12.0,96,0.00,,---,0.00,VWS V14.00,2013-01-25 12:35:00,
2013-01-25 06:36:00,62.4,61.2,30.05,SSW,193,10.0,11.0,96,0.00,,---,0.00,VWS V14.00,2013-01-25 12:36:00,
2013-01-25 06:37:00,62.4,61.2,30.05,South,190,8.0,10.0,96,0.00,,---,0.00,VWS V14.00,2013-01-25 12:37:00,
2013-01-25 06:38:00,62.5,61.3,30.05,South,191,7.0,11.0,96,0.00,,---,0.00,VWS V14.00,2013-01-25 12:38:00,
2013-01-25 06:39:00,62.5,61.3,30.05,South,190,10.0,10.0,96,0.00,,---,0.00,VWS V14.00,2013-01-25 12:39:00,
2013-01-25 06:40:00,62.4,61.2,30.05,South,190,6.0,11.0,96,0.00,,---,0.00,VWS V14.00,2013-01-25 12:40:00,
2013-01-25 06:41:00,62.4,61.2,30.05,South,190,4.0,9.0,96,0.00,,---,0.00,VWS V14.00,2013-01-25 12:41:00,
2013-01-25 06:42:00,62.4,61.2,30.06,SSW,196,5.0,10.0,96,0.00,,---,0.00,VWS V14.00,2013-01-25 12:42:00,
2013-01-25 06:43:00,62.4,61.2,30.05,SSW,193,8.0,10.0,96,0.00,,---,0.00,VWS V14.00,2013-01-25 12:43:00,
2013-01-25 06:44:00,62.4,61.2,30.06,SSW,196,8.0,10.0,96,0.00,,---,0.00,VWS V14.00,2013-01-25 12:44:00,
2013-01-25 06:45:00,62.4,61.2,30.06,SSW,196,10.0,11.0,96,0.00,,---,0.00,VWS V14.00,2013-01-25 12:45:00,
2013-01-25 06:46:00,62.4,61.2,30.06,SSW,194,11.0,11.0,96,0.00,,---,0.00,VWS V14.00,2013-01-25 12:46:00,
2013-01-25 06:47:00,62.3,61.2,30.06,SSW,192,7.0,9.0,96,0.00,,---,0.00,VWS V14.00,2013-01-25 12:47:00,
2013-01-25 06:48:00,62.4,61.2,30.06,SSW,193,7.0,9.0,96,0.00,,---,0.00,VWS V14.00,2013-01-25 12:48:00,
2013-01-25 06:49:00,62.3,61.2,30.06,SSW,193,9.0,9.0,96,0.00,,---,0.00,VWS V14.00,2013-01-25 12:49:00,
2013-01-25 06:50:00,62.3,61.2,30.06,South,190,8.0,10.0,96,0.00,,---,0.00,VWS V14.00,2013-01-25 12:50:00,
2013-01-25 06:51:00,62.3,61.2,30.06,South,185,7.0,11.0,96,0.00,,---,0.00,VWS V14.00,2013-01-25 12:51:00,
2013-01-25 06:52:00,62.3,61.2,30.06,South,186,6.0,8.0,96,0.00,,---,0.00,VWS V14.00,2013-01-25 12:52:00,
2013-01-25 06:53:00,62.3,61.2,30.06,South,186,8.0,9.0,96,0.00,,---,0.00,VWS V14.00,2013-01-25 12:53:00,
2013-01-25 06:54:00,62.3,61.2,30.06,South,186,8.0,10.0,96,0.00,,---,0.00,VWS V14.00,2013-01-25 12:54:00,
2013-01-25 06:55:00,62.3,61.2,30.06,South,187,7.0,10.0,96,0.00,,---,0.00,VWS V14.00,2013-01-25 12:55:00,
2013-01-25 06:56:00,62.2,61.0,30.06,South,188,8.0,9.0,96,0.00,,---,0.00,VWS V14.00,2013-01-25 12:56:00,
2013-01-25 06:57:00,62.2,61.0,30.06,South,188,8.0,10.0,96,0.00,,---,0.00,VWS V14.00,2013-01-25 12:57:00,
2013-01-25 06:58:00,62.2,61.0,30.06,South,188,6.0,10.0,96,0.00,,---,0.00,VWS V14.00,2013-01-25 12:58:00,
2013-01-25 06:59:00,62.2,61.0,30.06,South,187,9.0,10.0,96,0.00,,---,0.00,VWS V14.00,2013-01-25 12:59:00,
2013-01-25 07:00:00,62.2,61.0,30.06,South,188,7.0,10.0,96,0.00,,---,0.00,VWS V14.00,2013-01-25 13:00:00,
2013-01-25 07:01:00,62.2,61.0,30.06,South,186,7.0,9.0,96,0.00,,---,0.00,VWS V14.00,2013-01-25 13:01:00,
2013-01-25 07:02:00,62.1,61.0,30.06,South,187,9.0,9.0,96,0.00,,---,0.00,VWS V14.00,2013-01-25 13:02:00,
2013-01-25 07:03:00,62.1,61.0,30.06,South,186,5.0,8.0,96,0.00,,---,0.00,VWS V14.00,2013-01-25 13:03:00,
2013-01-25 07:04:00,62.1,61.0,30.06,South,186,7.0,7.0,96,0.00,,---,0.00,VWS V14.00,2013-01-25 13:04:00,
2013-01-25 07:05:00,62.1,61.0,30.06,South,187,5.0,9.0,96,0.00,,---,0.00,VWS V14.00,2013-01-25 13:05:00,
2013-01-25 07:06:00,62.1,61.0,30.06,South,186,6.0,8.0,96,0.00,,---,0.00,VWS V14.00,2013-01-25 13:06:00,
2013-01-25 07:07:00,62.0,60.8,30.06,South,185,6.0,7.0,96,0.00,,---,0.00,VWS V14.00,2013-01-25 13:07:00,
2013-01-25 07:08:00,62.1,61.0,30.06,South,186,8.0,8.0,96,0.00,,---,0.00,VWS V14.00,2013-01-25 13:08:00,
2013-01-25 07:09:00,62.0,60.8,30.06,South,186,5.0,8.0,96,0.00,,---,0.00,VWS V14.00,2013-01-25 13:09:00,
2013-01-25 07:10:00,62.0,60.8,30.06,South,185,6.0,8.0,96,0.00,,---,0.00,VWS V14.00,2013-01-25 13:10:00,
2013-01-25 07:11:00,62.0,60.8,30.06,South,185,4.0,8.0,96,0.00,,---,0.00,VWS V14.00,2013-01-25 13:11:00,
2013-01-25 07:12:00,62.0,60.8,30.06,South,185,4.0,10.0,96,0.00,,---,0.00,VWS V14.00,2013-01-25 13:12:00,
2013-01-25 07:13:00,62.0,60.8,30.06,SSW,196,6.0,7.0,96,0.00,,---,0.00,VWS V14.00,2013-01-25 13:13:00,
2013-01-25 07:14:00,62.0,60.8,30.06,South,186,10.0,10.0,96,0.00,,---,0.00,VWS V14.00,2013-01-25 13:14:00,
2013-01-25 07:15:00,62.0,60.8,30.06,South,185,5.0,10.0,96,0.00,,---,0.00,VWS V14.00,2013-01-25 13:15:00,
2013-01-25 07:16:00,62.0,60.8,30.06,South,185,6.0,6.0,96,0.00,,---,0.00,VWS V14.00,2013-01-25 13:16:00,
2013-01-25 07:17:00,62.0,60.8,30.06,South,185,6.0,7.0,96,0.00,,---,0.00,VWS V14.00,2013-01-25 13:17:00,
2013-01-25 07:18:00,62.0,60.8,30.06,South,185,3.0,8.0,96,0.00,,---,0.00,VWS V14.00,2013-01-25 13:18:00,
2013-01-25 07:19:00,62.0,60.8,30.06,South,185,6.0,7.0,96,0.00,,---,0.00,VWS V14.00,2013-01-25 13:19:00,
2013-01-25 07:20:00,62.0,60.8,30.06,South,185,6.0,7.0,96,0.00,,---,0.00,VWS V14.00,2013-01-25 13:20:00,
2013-01-25 07:21:00,61.9,60.8,30.06,South,185,6.0,6.0,96,0.00,,---,0.00,VWS V14.00,2013-01-25 13:21:00,
2013-01-25 07:22:00,61.9,60.8,30.06,SW,219,4.0,7.0,96,0.00,,---,0.00,VWS V14.00,2013-01-25 13:22:00,
2013-01-25 07:23:00,61.9,60.8,30.06,SW,219,3.0,7.0,96,0.00,,---,0.00,VWS V14.00,2013-01-25 13:23:00,
2013-01-25 07:24:00,61.9,60.8,30.06,SW,219,7.0,9.0,96,0.00,,---,0.00,VWS V14.00,2013-01-25 13:24:00,
2013-01-25 07:25:00,61.9,60.8,30.06,SW,219,7.0,9.0,96,0.00,,---,0.00,VWS V14.00,2013-01-25 13:25:00,
2013-01-25 07:26:00,62.0,60.8,30.06,SSW,208,3.0,6.0,96,0.00,,---,0.00,VWS V14.00,2013-01-25 13:26:00,
2013-01-25 07:27:00,62.0,60.8,30.07,SSW,195,5.0,6.0,96,0.00,,---,0.00,VWS V14.00,2013-01-25 13:27:00,
2013-01-25 07:28:00,62.0,60.8,30.07,SSW,195,3.0,8.0,96,0.00,,---,0.00,VWS V14.00,2013-01-25 13:28:00,
2013-01-25 07:29:00,62.0,60.8,30.07,SSW,195,4.0,7.0,96,0.00,,---,0.00,VWS V14.00,2013-01-25 13:29:00,
2013-01-25 07:30:00,62.1,61.0,30.07,SSW,195,3.0,6.0,96,0.00,,---,0.00,VWS V14.00,2013-01-25 13:30:00,
2013-01-25 07:31:00,62.1,61.0,30.07,SSW,195,4.0,5.0,96,0.00,,---,0.00,VWS V14.00,2013-01-25 13:31:00,
2013-01-25 07:32:00,62.1,61.0,30.07,SSW,192,4.0,5.0,96,0.00,,---,0.00,VWS V14.00,2013-01-25 13:32:00,
2013-01-25 07:33:00,62.1,61.0,30.07,SSW,192,5.0,7.0,96,0.00,,---,0.00,VWS V14.00,2013-01-25 13:33:00,
2013-01-25 07:34:00,62.1,61.0,30.07,SSW,192,3.0,6.0,96,0.00,,---,0.00,VWS V14.00,2013-01-25 13:34:00,
2013-01-25 07:35:00,62.1,61.0,30.07,SSW,192,6.0,6.0,96,0.00,,---,0.00,VWS V14.00,2013-01-25 13:35:00,
2013-01-25 07:36:00,62.1,61.0,30.07,SSW,192,6.0,7.0,96,0.00,,---,0.00,VWS V14.00,2013-01-25 13:36:00,
2013-01-25 07:37:00,62.2,61.0,30.07,South,189,3.0,8.0,96,0.00,,---,0.00,VWS V14.00,2013-01-25 13:37:00,
2013-01-25 07:38:00,62.1,61.0,30.07,SSW,192,5.0,9.0,96,0.00,,---,0.00,VWS V14.00,2013-01-25 13:38:00,
2013-01-25 07:39:00,62.2,61.0,30.07,South,190,6.0,8.0,96,0.00,,---,0.00,VWS V14.00,2013-01-25 13:39:00,
2013-01-25 07:40:00,62.2,61.0,30.07,South,189,5.0,8.0,96,0.00,,---,0.00,VWS V14.00,2013-01-25 13:40:00,
2013-01-25 07:41:00,62.2,61.0,30.07,South,190,5.0,7.0,96,0.00,,---,0.00,VWS V14.00,2013-01-25 13:41:00,
2013-01-25 07:42:00,62.2,61.0,30.06,South,190,5.0,6.0,96,0.00,,---,0.00,VWS V14.00,2013-01-25 13:42:00,
2013-01-25 07:43:00,62.2,61.0,30.06,South,189,6.0,7.0,96,0.00,,---,0.00,VWS V14.00,2013-01-25 13:43:00,
2013-01-25 07:44:00,62.2,61.0,30.07,South,189,3.0,7.0,96,0.00,,---,0.00,VWS V14.00,2013-01-25 13:44:00,
2013-01-25 07:45:00,62.2,61.0,30.06,South,189,5.0,7.0,96,0.00,,---,0.00,VWS V14.00,2013-01-25 13:45:00,
2013-01-25 07:46:00,62.2,61.0,30.06,South,190,7.0,8.0,96,0.00,,---,0.00,VWS V14.00,2013-01-25 13:46:00,
2013-01-25 07:47:00,62.4,61.2,30.06,South,190,5.0,7.0,96,0.00,,---,0.00,VWS V14.00,2013-01-25 13:47:00,
2013-01-25 07:48:00,62.4,61.2,30.07,South,190,4.0,7.0,96,0.00,,---,0.00,VWS V14.00,2013-01-25 13:48:00,
2013-01-25 07:49:00,62.4,61.2,30.07,South,190,5.0,9.0,96,0.00,,---,0.00,VWS V14.00,2013-01-25 13:49:00,
2013-01-25 07:50:00,62.4,61.2,30.06,South,190,3.0,8.0,96,0.00,,---,0.00,VWS V14.00,2013-01-25 13:50:00,
2013-01-25 07:51:00,62.5,61.3,30.06,South,190,9.0,9.0,96,0.00,,---,0.00,VWS V14.00,2013-01-25 13:51:00,
2013-01-25 07:52:00,62.6,61.5,30.06,South,181,5.0,6.0,96,0.00,,---,0.00,VWS V14.00,2013-01-25 13:52:00,
2013-01-25 07:53:00,62.5,61.3,30.06,South,179,6.0,7.0,96,0.00,,---,0.00,VWS V14.00,2013-01-25 13:53:00,
2013-01-25 07:54:00,62.6,61.5,30.06,South,181,5.0,7.0,96,0.00,,---,0.00,VWS V14.00,2013-01-25 13:54:00,
2013-01-25 07:55:00,62.6,61.5,30.06,South,182,5.0,7.0,96,0.00,,---,0.00,VWS V14.00,2013-01-25 13:55:00,
2013-01-25 07:56:00,62.7,61.5,30.06,South,182,6.0,9.0,96,0.00,,---,0.00,VWS V14.00,2013-01-25 13:56:00,
2013-01-25 07:57:00,62.8,61.7,30.06,South,186,6.0,8.0,96,0.00,,---,0.00,VWS V14.00,2013-01-25 13:57:00,
2013-01-25 07:58:00,62.7,61.5,30.06,South,185,8.0,9.0,96,0.00,,---,0.00,VWS V14.00,2013-01-25 13:58:00,
2013-01-25 07:59:00,62.8,61.7,30.06,South,186,2.0,9.0,96,0.00,,---,0.00,VWS V14.00,2013-01-25 13:59:00,
2013-01-25 08:00:00,62.9,61.8,30.06,South,187,11.0,11.0,96,0.00,,---,0.00,VWS V14.00,2013-01-25 14:00:00,
2013-01-25 08:01:00,62.9,61.8,30.06,South,188,6.0,9.0,96,0.00,,---,0.00,VWS V14.00,2013-01-25 14:01:00,
2013-01-25 08:02:00,63.1,61.9,30.06,South,188,6.0,8.0,96,0.00,,---,0.00,VWS V14.00,2013-01-25 14:02:00,
2013-01-25 08:03:00,63.0,61.8,30.06,South,188,8.0,9.0,96,0.00,,---,0.00,VWS V14.00,2013-01-25 14:03:00,
2013-01-25 08:04:00,63.1,61.9,30.06,South,188,7.0,9.0,96,0.00,,---,0.00,VWS V14.00,2013-01-25 14:04:00,
2013-01-25 08:05:00,63.1,61.9,30.06,South,188,5.0,8.0,96,0.00,,---,0.00,VWS V14.00,2013-01-25 14:05:00,
2013-01-25 08:06:00,63.2,62.0,30.06,South,188,5.0,8.0,96,0.00,,---,0.00,VWS V14.00,2013-01-25 14:06:00,
2013-01-25 08:07:00,63.4,62.2,30.06,South,190,8.0,11.0,96,0.00,,---,0.00,VWS V14.00,2013-01-25 14:07:00,
2013-01-25 08:08:00,63.3,62.1,30.06,South,188,6.0,9.0,96,0.00,,---,0.00,VWS V14.00,2013-01-25 14:08:00,
2013-01-25 08:09:00,63.4,62.2,30.06,South,188,8.0,10.0,96,0.00,,---,0.00,VWS V14.00,2013-01-25 14:09:00,
2013-01-25 08:10:00,63.4,62.2,30.06,South,188,7.0,11.0,96,0.00,,---,0.00,VWS V14.00,2013-01-25 14:10:00,
2013-01-25 08:12:00,63.7,62.5,30.07,South,190,9.0,9.0,96,0.00,,---,0.00,VWS V14.00,2013-01-25 14:12:00,
2013-01-25 08:13:00,63.6,62.4,30.07,South,189,9.0,9.0,96,0.00,,---,0.00,VWS V14.00,2013-01-25 14:13:00,
2013-01-25 08:14:00,63.7,62.5,30.07,South,190,9.0,11.0,96,0.00,,---,0.00,VWS V14.00,2013-01-25 14:14:00,
2013-01-25 08:15:00,63.8,62.6,30.07,SSW,192,9.0,10.0,96,0.00,,---,0.00,VWS V14.00,2013-01-25 14:15:00,
2013-01-25 08:16:00,63.8,62.6,30.07,SSW,192,8.0,9.0,96,0.00,,---,0.00,VWS V14.00,2013-01-25 14:16:00,
2013-01-25 08:17:00,64.0,62.8,30.07,SSW,212,6.0,7.0,96,0.00,,---,0.00,VWS V14.00,2013-01-25 14:17:00,
2013-01-25 08:19:00,64.0,62.8,30.07,SW,215,5.0,9.0,96,0.00,,---,0.00,VWS V14.00,2013-01-25 14:19:00,
2013-01-25 08:21:00,64.0,62.8,30.07,SSW,203,5.0,10.0,96,0.00,,---,0.00,VWS V14.00,2013-01-25 14:21:00,
2013-01-25 08:22:00,64.2,63.0,30.07,SW,219,6.0,7.0,96,0.00,,---,0.00,VWS V14.00,2013-01-25 14:22:00,
2013-01-25 08:24:00,64.2,63.0,30.07,SW,219,6.0,8.0,96,0.00,,---,0.00,VWS V14.00,2013-01-25 14:24:00,
2013-01-25 08:25:00,64.2,63.0,30.07,SW,219,7.0,7.0,96,0.00,,---,0.00,VWS V14.00,2013-01-25 14:25:00,
2013-01-25 08:26:00,64.3,63.1,30.07,SW,217,5.0,9.0,96,0.00,,---,0.00,VWS V14.00,2013-01-25 14:26:00,
2013-01-25 08:27:00,64.5,63.3,30.07,SW,217,4.0,8.0,96,0.00,,---,0.00,VWS V14.00,2013-01-25 14:27:00,
2013-01-25 08:28:00,64.5,63.3,30.07,SW,217,8.0,8.0,96,0.00,,---,0.00,VWS V14.00,2013-01-25 14:28:00,
2013-01-25 08:29:00,64.5,63.3,30.07,SW,217,5.0,8.0,96,0.00,,---,0.00,VWS V14.00,2013-01-25 14:29:00,
2013-01-25 08:30:00,64.6,63.4,30.07,SW,217,7.0,8.0,96,0.00,,---,0.00,VWS V14.00,2013-01-25 14:30:00,
2013-01-25 08:31:00,64.6,63.4,30.07,SW,217,6.0,7.0,96,0.00,,---,0.00,VWS V14.00,2013-01-25 14:31:00,
2013-01-25 08:32:00,64.9,63.7,30.07,SW,216,5.0,8.0,96,0.00,,---,0.00,VWS V14.00,2013-01-25 14:32:00,
2013-01-25 08:33:00,64.8,63.6,30.08,SW,216,5.0,8.0,96,0.00,,---,0.00,VWS V14.00,2013-01-25 14:33:00,
2013-01-25 08:34:00,64.9,63.7,30.08,SW,216,7.0,7.0,96,0.00,,---,0.00,VWS V14.00,2013-01-25 14:34:00,
2013-01-25 08:35:00,64.9,63.7,30.07,SW,214,4.0,8.0,96,0.00,,---,0.00,VWS V14.00,2013-01-25 14:35:00,
2013-01-25 08:36:00,65.1,63.9,30.08,SW,214,5.0,6.0,96,0.00,,---,0.00,VWS V14.00,2013-01-25 14:36:00,
2013-01-25 08:37:00,65.3,64.1,30.08,SW,214,4.0,6.0,96,0.00,,---,0.00,VWS V14.00,2013-01-25 14:37:00,
2013-01-25 08:38:00,65.2,64.0,30.08,SW,214,8.0,8.0,96,0.00,,---,0.00,VWS V14.00,2013-01-25 14:38:00,
2013-01-25 08:39:00,65.3,64.1,30.08,SW,214,6.0,8.0,96,0.00,,---,0.00,VWS V14.00,2013-01-25 14:39:00,
2013-01-25 08:40:00,65.3,64.1,30.08,SW,214,4.0,7.0,96,0.00,,---,0.00,VWS V14.00,2013-01-25 14:40:00,
2013-01-25 08:41:00,65.4,64.2,30.08,SW,214,6.0,7.0,96,0.00,,---,0.00,VWS V14.00,2013-01-25 14:41:00,
2013-01-25 08:42:00,65.7,64.5,30.08,SW,214,6.0,7.0,96,0.00,,---,0.00,VWS V14.00,2013-01-25 14:42:00,
2013-01-25 08:43:00,65.6,64.4,30.08,SW,214,5.0,8.0,96,0.00,,---,0.00,VWS V14.00,2013-01-25 14:43:00,
2013-01-25 08:44:00,65.7,64.5,30.08,SW,214,5.0,6.0,96,0.00,,---,0.00,VWS V14.00,2013-01-25 14:44:00,
2013-01-25 08:45:00,65.8,64.6,30.08,SW,214,5.0,8.0,96,0.00,,---,0.00,VWS V14.00,2013-01-25 14:45:00,
2013-01-25 08:46:00,65.9,64.7,30.08,SW,214,4.0,8.0,96,0.00,,---,0.00,VWS V14.00,2013-01-25 14:46:00,
2013-01-25 08:47:00,66.3,65.1,30.08,SW,214,3.0,3.0,96,0.00,,---,0.00,VWS V14.00,2013-01-25 14:47:00,
2013-01-25 08:48:00,66.1,64.9,30.08,SW,214,5.0,7.0,96,0.00,,---,0.00,VWS V14.00,2013-01-25 14:48:00,
2013-01-25 08:49:00,66.2,65.0,30.08,SW,214,2.0,6.0,96,0.00,,---,0.00,VWS V14.00,2013-01-25 14:49:00,
2013-01-25 08:50:00,66.4,65.2,30.08,SW,214,2.0,5.0,96,0.00,,---,0.00,VWS V14.00,2013-01-25 14:50:00,
2013-01-25 08:51:00,66.5,65.3,30.08,SW,214,5.0,6.0,96,0.00,,---,0.00,VWS V14.00,2013-01-25 14:51:00,
2013-01-25 08:52:00,66.8,65.3,30.08,SW,220,4.0,8.0,95,0.00,,---,0.00,VWS V14.00,2013-01-25 14:52:00,
2013-01-25 08:53:00,66.7,65.5,30.08,SW,214,6.0,8.0,96,0.00,,---,0.00,VWS V14.00,2013-01-25 14:53:00,
2013-01-25 08:54:00,66.8,65.6,30.08,SW,220,7.0,11.0,96,0.00,,---,0.00,VWS V14.00,2013-01-25 14:54:00,
2013-01-25 08:55:00,66.8,65.3,30.08,SW,220,7.0,8.0,95,0.00,,---,0.00,VWS V14.00,2013-01-25 14:55:00,
2013-01-25 08:56:00,66.8,65.3,30.08,SW,220,9.0,9.0,95,0.00,,---,0.00,VWS V14.00,2013-01-25 14:56:00,
2013-01-25 08:57:00,66.8,65.3,30.08,South,187,6.0,9.0,95,0.00,,---,0.00,VWS V14.00,2013-01-25 14:57:00,
2013-01-25 08:58:00,66.8,65.3,30.08,South,173,8.0,11.0,95,0.00,,---,0.00,VWS V14.00,2013-01-25 14:58:00,
2013-01-25 08:59:00,66.8,65.3,30.08,South,187,7.0,11.0,95,0.00,,---,0.00,VWS V14.00,2013-01-25 14:59:00,
2013-01-25 09:00:00,66.8,65.3,30.08,South,188,6.0,9.0,95,0.00,,---,0.00,VWS V14.00,2013-01-25 15:00:00,
2013-01-25 09:01:00,66.9,65.4,30.08,South,188,7.0,12.0,95,0.00,,---,0.00,VWS V14.00,2013-01-25 15:01:00,
2013-01-25 09:02:00,67.1,65.6,30.08,SW,217,10.0,12.0,95,0.00,,---,0.00,VWS V14.00,2013-01-25 15:02:00,
2013-01-25 09:03:00,67.0,65.5,30.08,SSW,210,8.0,11.0,95,0.00,,---,0.00,VWS V14.00,2013-01-25 15:03:00,
2013-01-25 09:04:00,67.0,65.5,30.08,SSW,211,10.0,11.0,95,0.00,,---,0.00,VWS V14.00,2013-01-25 15:04:00,
2013-01-25 09:05:00,67.1,65.6,30.08,SSW,208,10.0,14.0,95,0.00,,---,0.00,VWS V14.00,2013-01-25 15:05:00,
2013-01-25 09:06:00,67.2,65.4,30.08,SSW,210,12.0,12.0,94,0.00,,---,0.00,VWS V14.00,2013-01-25 15:06:00,
2013-01-25 09:07:00,67.4,65.6,30.08,SW,215,9.0,10.0,94,0.00,,---,0.00,VWS V14.00,2013-01-25 15:07:00,
2013-01-25 09:08:00,67.3,65.5,30.08,SW,215,11.0,13.0,94,0.00,,---,0.00,VWS V14.00,2013-01-25 15:08:00,
2013-01-25 09:09:00,67.4,65.6,30.07,SW,215,10.0,12.0,94,0.00,,---,0.00,VWS V14.00,2013-01-25 15:09:00,
2013-01-25 09:10:00,67.6,65.8,30.08,SW,215,10.0,10.0,94,0.00,,---,0.00,VWS V14.00,2013-01-25 15:10:00,
2013-01-25 09:11:00,67.7,65.9,30.08,SSW,211,9.0,11.0,94,0.00,,---,0.00,VWS V14.00,2013-01-25 15:11:00,
2013-01-25 09:12:00,68.1,66.3,30.08,SSW,205,8.0,12.0,94,0.00,,---,0.00,VWS V14.00,2013-01-25 15:12:00,
2013-01-25 09:13:00,67.9,66.1,30.07,SSW,202,6.0,11.0,94,0.00,,---,0.00,VWS V14.00,2013-01-25 15:13:00,
2013-01-25 09:14:00,68.1,66.3,30.08,SSW,202,10.0,13.0,94,0.00,,---,0.00,VWS V14.00,2013-01-25 15:14:00,
2013-01-25 09:15:00,68.2,66.4,30.08,SSW,211,7.0,12.0,94,0.00,,---,0.00,VWS V14.00,2013-01-25 15:15:00,
2013-01-25 09:16:00,68.3,66.5,30.08,SSW,203,8.0,12.0,94,0.00,,---,0.00,VWS V14.00,2013-01-25 15:16:00,
2013-01-25 09:17:00,68.7,66.6,30.08,SSW,212,11.0,11.0,93,0.00,,---,0.00,VWS V14.00,2013-01-25 15:17:00,
2013-01-25 09:18:00,68.5,66.4,30.08,SSW,209,13.0,13.0,93,0.00,,---,0.00,VWS V14.00,2013-01-25 15:18:00,
2013-01-25 09:19:00,68.6,66.5,30.08,SSW,205,9.0,13.0,93,0.00,,---,0.00,VWS V14.00,2013-01-25 15:19:00,
2013-01-25 09:20:00,68.7,66.6,30.08,SW,218,12.0,13.0,93,0.00,,---,0.00,VWS V14.00,2013-01-25 15:20:00,
2013-01-25 09:21:00,68.8,66.7,30.08,SSW,211,8.0,13.0,93,0.00,,---,0.00,VWS V14.00,2013-01-25 15:21:00,
2013-01-25 09:22:00,69.3,66.9,30.08,SW,214,10.0,11.0,92,0.00,,---,0.00,VWS V14.00,2013-01-25 15:22:00,
2013-01-25 09:23:00,69.2,67.1,30.08,SSW,208,8.0,13.0,93,0.00,,---,0.00,VWS V14.00,2013-01-25 15:23:00,
2013-01-25 09:24:00,69.3,66.9,30.08,SSW,213,9.0,12.0,92,0.00,,---,0.00,VWS V14.00,2013-01-25 15:24:00,
2013-01-25 09:25:00,69.3,66.9,30.08,SSW,210,7.0,14.0,92,0.00,,---,0.00,VWS V14.00,2013-01-25 15:25:00,
2013-01-25 09:26:00,69.4,67.0,30.08,SW,218,10.0,13.0,92,0.00,,---,0.00,VWS V14.00,2013-01-25 15:26:00,
2013-01-25 09:27:00,69.8,67.4,30.08,SSW,211,7.0,12.0,92,0.00,,---,0.00,VWS V14.00,2013-01-25 15:27:00,
2013-01-25 09:28:00,69.5,66.8,30.08,SSW,209,9.0,10.0,91,0.00,,---,0.00,VWS V14.00,2013-01-25 15:28:00,
2013-01-25 09:29:00,69.7,67.3,30.08,SW,219,10.0,11.0,92,0.00,,---,0.00,VWS V14.00,2013-01-25 15:29:00,
2013-01-25 09:30:00,69.9,67.2,30.08,SSW,205,12.0,13.0,91,0.00,,---,0.00,VWS V14.00,2013-01-25 15:30:00,
2013-01-25 09:31:00,69.9,67.2,30.08,SSW,212,12.0,15.0,91,0.00,,---,0.00,VWS V14.00,2013-01-25 15:31:00,
2013-01-25 09:32:00,69.9,66.5,30.08,SSW,207,10.0,16.0,89,0.00,,---,0.00,VWS V14.00,2013-01-25 15:32:00,
2013-01-25 09:33:00,69.9,66.8,30.08,SSW,194,10.0,16.0,90,0.00,,---,0.00,VWS V14.00,2013-01-25 15:33:00,
2013-01-25 09:34:00,69.9,66.8,30.09,SSW,211,14.0,17.0,90,0.00,,---,0.00,VWS V14.00,2013-01-25 15:34:00,
2013-01-25 09:35:00,70.0,66.9,30.08,SW,216,13.0,16.0,90,0.00,,---,0.00,VWS V14.00,2013-01-25 15:35:00,
2013-01-25 09:36:00,70.1,67.0,30.08,SW,221,13.0,15.0,90,0.00,,---,0.00,VWS V14.00,2013-01-25 15:36:00,
2013-01-25 09:37:00,70.5,67.1,30.09,South,178,13.0,13.0,89,0.00,,---,0.00,VWS V14.00,2013-01-25 15:37:00,
2013-01-25 09:38:00,70.4,67.3,30.09,SSW,204,11.0,12.0,90,0.00,,---,0.00,VWS V14.00,2013-01-25 15:38:00,
2013-01-25 09:39:00,70.5,67.4,30.09,South,185,10.0,12.0,90,0.00,,---,0.00,VWS V14.00,2013-01-25 15:39:00,
2013-01-25 09:41:00,70.6,67.2,30.09,South,182,11.0,11.0,89,0.00,,---,0.00,VWS V14.00,2013-01-25 15:41:00,
2013-01-25 09:42:00,70.9,67.2,30.09,South,190,10.0,12.0,88,0.00,,---,0.00,VWS V14.00,2013-01-25 15:42:00,
2013-01-25 09:43:00,70.9,67.5,30.09,SSW,193,10.0,13.0,89,0.00,,---,0.00,VWS V14.00,2013-01-25 15:43:00,
2013-01-25 09:44:00,70.9,67.2,30.09,SSW,195,10.0,12.0,88,0.00,,---,0.00,VWS V14.00,2013-01-25 15:44:00,
2013-01-25 09:45:00,70.9,67.2,30.09,SSW,198,11.0,14.0,88,0.00,,---,0.00,VWS V14.00,2013-01-25 15:45:00,
2013-01-25 09:46:00,71.0,66.9,30.09,SSW,195,11.0,15.0,87,0.00,,---,0.00,VWS V14.00,2013-01-25 15:46:00,
2013-01-25 09:47:00,71.0,66.9,30.09,SSW,196,14.0,14.0,87,0.00,,---,0.00,VWS V14.00,2013-01-25 15:47:00,
2013-01-25 09:48:00,71.1,67.0,30.09,South,178,12.0,15.0,87,0.00,,---,0.00,VWS V14.00,2013-01-25 15:48:00,
2013-01-25 09:49:00,71.0,66.9,30.09,South,183,13.0,15.0,87,0.00,,---,0.00,VWS V14.00,2013-01-25 15:49:00,
2013-01-25 09:50:00,71.0,66.9,30.09,SSW,200,10.0,14.0,87,0.00,,---,0.00,VWS V14.00,2013-01-25 15:50:00,
2013-01-25 09:51:00,71.0,66.9,30.09,South,185,13.0,14.0,87,0.00,,---,0.00,VWS V14.00,2013-01-25 15:51:00,
2013-01-25 09:52:00,71.3,67.2,30.09,SSW,199,14.0,14.0,87,0.00,,---,0.00,VWS V14.00,2013-01-25 15:52:00,
2013-01-25 09:53:00,71.1,67.0,30.09,SSW,196,10.0,15.0,87,0.00,,---,0.00,VWS V14.00,2013-01-25 15:53:00,
2013-01-25 09:54:00,71.2,67.1,30.09,SSW,197,9.0,12.0,87,0.00,,---,0.00,VWS V14.00,2013-01-25 15:54:00,
2013-01-25 09:55:00,71.3,66.9,30.09,South,191,13.0,14.0,86,0.00,,---,0.00,VWS V14.00,2013-01-25 15:55:00,
2013-01-25 09:56:00,71.3,66.9,30.09,South,189,9.0,13.0,86,0.00,,---,0.00,VWS V14.00,2013-01-25 15:56:00,
2013-01-25 09:57:00,71.6,67.2,30.09,South,189,10.0,14.0,86,0.00,,---,0.00,VWS V14.00,2013-01-25 15:57:00,
2013-01-25 09:58:00,71.5,67.1,30.09,SSW,200,12.0,16.0,86,0.00,,---,0.00,VWS V14.00,2013-01-25 15:58:00,
2013-01-25 09:59:00,71.6,67.2,30.09,South,178,14.0,14.0,86,0.00,,---,0.00,VWS V14.00,2013-01-25 15:59:00,
2013-01-25 10:00:00,71.7,67.3,30.09,South,184,10.0,14.0,86,0.00,,---,0.00,VWS V14.00,2013-01-25 16:00:00,
2013-01-25 10:01:00,71.7,67.3,30.09,SSW,195,12.0,14.0,86,0.00,,---,0.00,VWS V14.00,2013-01-25 16:01:00,
2013-01-25 10:02:00,72.0,67.2,30.09,SSW,210,18.0,18.0,85,0.00,,---,0.00,VWS V14.00,2013-01-25 16:02:00,
2013-01-25 10:03:00,71.9,67.2,30.09,South,188,9.0,12.0,85,0.00,,---,0.00,VWS V14.00,2013-01-25 16:03:00,
2013-01-25 10:04:00,72.0,67.2,30.09,SSW,205,12.0,13.0,85,0.00,,---,0.00,VWS V14.00,2013-01-25 16:04:00,
2013-01-25 10:05:00,72.1,67.3,30.09,SSW,204,10.0,18.0,85,0.00,,---,0.00,VWS V14.00,2013-01-25 16:05:00,
2013-01-25 10:06:00,72.3,67.5,30.09,SSW,205,15.0,17.0,85,0.00,,---,0.00,VWS V14.00,2013-01-25 16:06:00,
2013-01-25 10:07:00,72.8,67.7,30.09,South,177,15.0,15.0,84,0.00,,---,0.00,VWS V14.00,2013-01-25 16:07:00,
2013-01-25 10:08:00,72.8,68.0,30.09,South,186,14.0,14.0,85,0.00,,---,0.00,VWS V14.00,2013-01-25 16:08:00,
2013-01-25 10:09:00,72.8,67.7,30.09,South,181,12.0,15.0,84,0.00,,---,0.00,VWS V14.00,2013-01-25 16:09:00,
2013-01-25 10:10:00,72.8,67.7,30.09,SSW,200,10.0,15.0,84,0.00,,---,0.00,VWS V14.00,2013-01-25 16:10:00,
2013-01-25 10:11:00,72.8,67.3,30.09,SSW,194,11.0,14.0,83,0.00,,---,0.00,VWS V14.00,2013-01-25 16:11:00,
2013-01-25 10:12:00,73.0,67.5,30.09,SSW,194,13.0,13.0,83,0.00,,---,0.00,VWS V14.00,2013-01-25 16:12:00,
2013-01-25 10:13:00,72.8,67.3,30.09,South,184,10.0,16.0,83,0.00,,---,0.00,VWS V14.00,2013-01-25 16:13:00,
2013-01-25 10:14:00,72.9,67.4,30.09,SSW,207,9.0,13.0,83,0.00,,---,0.00,VWS V14.00,2013-01-25 16:14:00,
2013-01-25 10:15:00,73.1,67.6,30.09,South,182,18.0,18.0,83,0.00,,---,0.00,VWS V14.00,2013-01-25 16:15:00,
2013-01-25 10:16:00,73.1,67.6,30.09,South,181,18.0,18.0,83,0.00,,---,0.00,VWS V14.00,2013-01-25 16:16:00,
2013-01-25 10:17:00,73.3,67.5,30.10,SSW,207,10.0,15.0,82,0.00,,---,0.00,VWS V14.00,2013-01-25 16:17:00,
2013-01-25 10:18:00,73.2,67.4,30.10,South,188,13.0,15.0,82,0.00,,---,0.00,VWS V14.00,2013-01-25 16:18:00,
2013-01-25 10:19:00,73.3,67.5,30.10,SSW,194,10.0,17.0,82,0.00,,---,0.00,VWS V14.00,2013-01-25 16:19:00,
2013-01-25 10:20:00,73.4,67.6,30.10,SSW,199,11.0,15.0,82,0.00,,---,0.00,VWS V14.00,2013-01-25 16:20:00,
2013-01-25 10:22:00,73.7,67.2,30.10,SSW,201,17.0,17.0,80,0.00,,---,0.00,VWS V14.00,2013-01-25 16:22:00,
2013-01-25 10:23:00,73.7,67.5,30.10,South,184,15.0,19.0,81,0.00,,---,0.00,VWS V14.00,2013-01-25 16:23:00,
2013-01-25 10:24:00,73.7,67.2,30.10,South,191,11.0,17.0,80,0.00,,---,0.00,VWS V14.00,2013-01-25 16:24:00,
2013-01-25 10:25:00,73.7,67.5,30.10,SSW,194,15.0,17.0,81,0.00,,---,0.00,VWS V14.00,2013-01-25 16:25:00,
2013-01-25 10:26:00,73.9,67.7,30.10,SW,216,14.0,19.0,81,0.00,,---,0.00,VWS V14.00,2013-01-25 16:26:00,
2013-01-25 10:27:00,74.6,68.4,30.10,SSW,202,11.0,13.0,81,0.00,,---,0.00,VWS V14.00,2013-01-25 16:27:00,
2013-01-25 10:28:00,74.1,67.5,30.10,SW,215,13.0,14.0,80,0.00,,---,0.00,VWS V14.00,2013-01-25 16:28:00,
2013-01-25 10:29:00,74.4,68.2,30.10,SSW,212,9.0,15.0,81,0.00,,---,0.00,VWS V14.00,2013-01-25 16:29:00,
2013-01-25 10:30:00,74.7,68.1,30.10,South,191,14.0,14.0,80,0.00,,---,0.00,VWS V14.00,2013-01-25 16:30:00,
2013-01-25 10:31:00,74.8,67.9,30.10,SSW,192,13.0,16.0,79,0.00,,---,0.00,VWS V14.00,2013-01-25 16:31:00,
2013-01-25 10:32:00,75.1,67.8,30.10,SSW,205,13.0,14.0,78,0.00,,---,0.00,VWS V14.00,2013-01-25 16:32:00,
2013-01-25 10:33:00,74.8,67.5,30.10,SSW,202,10.0,13.0,78,0.00,,---,0.00,VWS V14.00,2013-01-25 16:33:00,
2013-01-25 10:34:00,75.0,67.7,30.10,SSW,213,13.0,14.0,78,0.00,,---,0.00,VWS V14.00,2013-01-25 16:34:00,
2013-01-25 10:35:00,75.1,67.4,30.10,SSW,207,15.0,15.0,77,0.00,,---,0.00,VWS V14.00,2013-01-25 16:35:00,
2013-01-25 10:36:00,75.3,68.0,30.10,SSW,206,10.0,16.0,78,0.00,,---,0.00,VWS V14.00,2013-01-25 16:36:00,
2013-01-25 10:37:00,75.3,67.2,30.10,SSW,207,16.0,16.0,76,0.00,,---,0.00,VWS V14.00,2013-01-25 16:37:00,
2013-01-25 10:38:00,75.3,67.6,30.10,SSW,210,14.0,18.0,77,0.00,,---,0.00,VWS V14.00,2013-01-25 16:38:00,
2013-01-25 10:39:00,75.3,67.6,30.10,SSW,212,12.0,16.0,77,0.00,,---,0.00,VWS V14.00,2013-01-25 16:39:00,
2013-01-25 10:40:00,75.3,67.2,30.10,SSW,206,11.0,18.0,76,0.00,,---,0.00,VWS V14.00,2013-01-25 16:40:00,
2013-01-25 10:41:00,75.2,67.1,30.10,SSW,209,11.0,18.0,76,0.00,,---,0.00,VWS V14.00,2013-01-25 16:41:00,
2013-01-25 10:42:00,75.4,67.3,30.10,SSW,200,15.0,15.0,76,0.00,,---,0.00,VWS V14.00,2013-01-25 16:42:00,
2013-01-25 10:43:00,75.3,67.6,30.10,SSW,206,13.0,13.0,77,0.00,,---,0.00,VWS V14.00,2013-01-25 16:43:00,
2013-01-25 10:44:00,75.4,67.7,30.10,SSW,205,13.0,18.0,77,0.00,,---,0.00,VWS V14.00,2013-01-25 16:44:00,
2013-01-25 10:45:00,75.4,67.3,30.10,SW,225,15.0,17.0,76,0.00,,---,0.00,VWS V14.00,2013-01-25 16:45:00,
2013-01-25 10:47:00,75.7,67.2,30.10,SW,218,13.0,17.0,75,0.00,,---,0.00,VWS V14.00,2013-01-25 16:47:00,
2013-01-25 10:48:00,75.5,67.4,30.10,SSW,206,10.0,15.0,76,0.00,,---,0.00,VWS V14.00,2013-01-25 16:48:00,
2013-01-25 10:49:00,75.7,67.6,30.10,SSW,211,13.0,16.0,76,0.00,,---,0.00,VWS V14.00,2013-01-25 16:49:00,
2013-01-25 10:50:00,75.7,67.2,30.10,SSW,211,14.0,17.0,75,0.00,,---,0.00,VWS V14.00,2013-01-25 16:50:00,
2013-01-25 10:51:00,75.8,67.3,30.10,SSW,207,14.0,17.0,75,0.00,,---,0.00,VWS V14.00,2013-01-25 16:51:00,
2013-01-25 10:52:00,76.1,67.2,30.10,SSW,209,12.0,15.0,74,0.00,,---,0.00,VWS V14.00,2013-01-25 16:52:00,
2013-01-25 10:53:00,75.9,67.0,30.10,SW,230,14.0,15.0,74,0.00,,---,0.00,VWS V14.00,2013-01-25 16:53:00,
2013-01-25 10:54:00,76.0,67.1,30.10,SW,229,11.0,15.0,74,0.00,,---,0.00,VWS V14.00,2013-01-25 16:54:00,
2013-01-25 10:55:00,76.2,67.3,30.10,SSW,193,15.0,15.0,74,0.00,,---,0.00,VWS V14.00,2013-01-25 16:55:00,
2013-01-25 10:56:00,76.2,67.3,30.10,SSW,211,13.0,17.0,74,0.00,,---,0.00,VWS V14.00,2013-01-25 16:56:00,
2013-01-25 10:57:00,76.1,67.2,30.10,SSW,192,11.0,14.0,74,0.00,,---,0.00,VWS V14.00,2013-01-25 16:57:00,
2013-01-25 10:58:00,76.0,67.1,30.10,SSW,207,11.0,16.0,74,0.00,,---,0.00,VWS V14.00,2013-01-25 16:58:00,
2013-01-25 10:59:00,76.1,67.2,30.10,SSW,198,13.0,15.0,74,0.00,,---,0.00,VWS V14.00,2013-01-25 16:59:00,
2013-01-25 11:00:00,76.1,66.8,30.10,South,185,14.0,16.0,73,0.00,,---,0.00,VWS V14.00,2013-01-25 17:00:00,
2013-01-25 11:01:00,76.2,67.3,30.10,SSW,196,7.0,15.0,74,0.00,,---,0.00,VWS V14.00,2013-01-25 17:01:00,
2013-01-25 11:02:00,76.7,67.4,30.10,SSW,211,13.0,17.0,73,0.00,,---,0.00,VWS V14.00,2013-01-25 17:02:00,
2013-01-25 11:03:00,76.6,67.3,30.10,SSW,208,10.0,15.0,73,0.00,,---,0.00,VWS V14.00,2013-01-25 17:03:00,
2013-01-25 11:04:00,76.7,67.4,30.10,SSW,200,13.0,15.0,73,0.00,,---,0.00,VWS V14.00,2013-01-25 17:04:00,
2013-01-25 11:05:00,76.8,67.1,30.10,SW,217,11.0,17.0,72,0.00,,---,0.00,VWS V14.00,2013-01-25 17:05:00,
2013-01-25 11:06:00,76.8,67.5,30.10,SW,226,13.0,16.0,73,0.00,,---,0.00,VWS V14.00,2013-01-25 17:06:00,
2013-01-25 11:07:00,77.2,67.5,30.10,SSW,205,13.0,16.0,72,0.00,,---,0.00,VWS V14.00,2013-01-25 17:07:00,
2013-01-25 11:08:00,77.0,67.7,30.10,SSW,198,10.0,11.0,73,0.00,,---,0.00,VWS V14.00,2013-01-25 17:08:00,
2013-01-25 11:09:00,77.1,67.4,30.10,SSW,193,15.0,15.0,72,0.00,,---,0.00,VWS V14.00,2013-01-25 17:09:00,
2013-01-25 11:10:00,77.2,67.1,30.10,SW,215,13.0,16.0,71,0.00,,---,0.00,VWS V14.00,2013-01-25 17:10:00,
2013-01-25 11:11:00,77.3,67.2,30.10,SSW,209,12.0,17.0,71,0.00,,---,0.00,VWS V14.00,2013-01-25 17:11:00,
2013-01-25 11:12:00,77.3,66.8,30.10,SW,222,9.0,11.0,70,0.00,,---,0.00,VWS V14.00,2013-01-25 17:12:00,
2013-01-25 11:14:00,77.3,66.8,30.10,SW,222,11.0,14.0,70,0.00,,---,0.00,VWS V14.00,2013-01-25 17:14:00,
2013-01-25 11:15:00,77.4,67.3,30.10,South,181,11.0,14.0,71,0.00,,---,0.00,VWS V14.00,2013-01-25 17:15:00,
2013-01-25 11:16:00,77.6,67.5,30.10,South,185,10.0,16.0,71,0.00,,---,0.00,VWS V14.00,2013-01-25 17:16:00,
2013-01-25 11:17:00,77.6,67.5,30.09,SSW,198,12.0,13.0,71,0.00,,---,0.00,VWS V14.00,2013-01-25 17:17:00,
2013-01-25 11:18:00,77.6,67.1,30.10,SSW,209,6.0,15.0,70,0.00,,---,0.00,VWS V14.00,2013-01-25 17:18:00,
2013-01-25 11:19:00,77.6,67.1,30.10,SSW,192,10.0,15.0,70,0.00,,---,0.00,VWS V14.00,2013-01-25 17:19:00,
2013-01-25 11:20:00,77.6,67.5,30.09,SSW,213,10.0,13.0,71,0.00,,---,0.00,VWS V14.00,2013-01-25 17:20:00,
2013-01-25 11:21:00,77.7,67.1,30.09,SW,217,9.0,13.0,70,0.00,,---,0.00,VWS V14.00,2013-01-25 17:21:00,
2013-01-25 11:22:00,77.9,66.9,30.09,SW,215,12.0,13.0,69,0.00,,---,0.00,VWS V14.00,2013-01-25 17:22:00,
2013-01-25 11:23:00,77.9,67.3,30.09,SSW,198,10.0,13.0,70,0.00,,---,0.00,VWS V14.00,2013-01-25 17:23:00,
2013-01-25 11:24:00,77.9,66.9,30.09,SSW,194,10.0,16.0,69,0.00,,---,0.00,VWS V14.00,2013-01-25 17:24:00,
2013-01-25 11:25:00,77.8,66.8,30.09,SSW,199,8.0,13.0,69,0.00,,---,0.00,VWS V14.00,2013-01-25 17:25:00,
2013-01-25 11:26:00,77.8,66.8,30.09,SSW,198,11.0,13.0,69,0.00,,---,0.00,VWS V14.00,2013-01-25 17:26:00,
2013-01-25 11:27:00,77.8,66.8,30.09,SW,226,9.0,13.0,69,0.00,,---,0.00,VWS V14.00,2013-01-25 17:27:00,
2013-01-25 11:28:00,77.8,66.8,30.09,SSW,209,14.0,15.0,69,0.00,,---,0.00,VWS V14.00,2013-01-25 17:28:00,
2013-01-25 11:29:00,77.8,66.8,30.09,SSW,198,13.0,17.0,69,0.00,,---,0.00,VWS V14.00,2013-01-25 17:29:00,
2013-01-25 11:30:00,77.8,66.8,30.09,SSW,201,10.0,13.0,69,0.00,,---,0.00,VWS V14.00,2013-01-25 17:30:00,
2013-01-25 11:31:00,77.8,66.8,30.09,South,174,13.0,14.0,69,0.00,,---,0.00,VWS V14.00,2013-01-25 17:31:00,
2013-01-25 11:32:00,77.9,66.5,30.09,SSW,208,12.0,13.0,68,0.00,,---,0.00,VWS V14.00,2013-01-25 17:32:00,
2013-01-25 11:33:00,77.9,66.9,30.09,South,191,13.0,17.0,69,0.00,,---,0.00,VWS V14.00,2013-01-25 17:33:00,
2013-01-25 11:35:00,77.9,66.9,30.09,South,184,10.0,14.0,69,0.00,,---,0.00,VWS V14.00,2013-01-25 17:35:00,
2013-01-25 11:36:00,78.0,67.0,30.09,South,180,10.0,13.0,69,0.00,,---,0.00,VWS V14.00,2013-01-25 17:36:00,
2013-01-25 11:37:00,78.1,67.1,30.09,South,184,12.0,19.0,69,0.00,,---,0.00,VWS V14.00,2013-01-25 17:37:00,
2013-01-25 11:40:00,78.1,67.1,30.09,South,185,17.0,19.0,69,0.00,,---,0.00,VWS V14.00,2013-01-25 17:40:00,
2013-01-25 11:41:00,78.0,66.6,30.09,South,175,13.0,19.0,68,0.00,,---,0.00,VWS V14.00,2013-01-25 17:41:00,
2013-01-25 11:42:00,78.1,67.1,30.08,South,187,13.0,16.0,69,0.00,,---,0.00,VWS V14.00,2013-01-25 17:42:00,
2013-01-25 11:43:00,78.0,67.0,30.09,South,176,14.0,15.0,69,0.00,,---,0.00,VWS V14.00,2013-01-25 17:43:00,
2013-01-25 11:44:00,78.1,67.1,30.08,South,172,15.0,17.0,69,0.00,,---,0.00,VWS V14.00,2013-01-25 17:44:00,
2013-01-25 11:45:00,78.2,67.2,30.08,South,174,14.0,19.0,69,0.00,,---,0.00,VWS V14.00,2013-01-25 17:45:00,
2013-01-25 11:47:00,78.1,66.7,30.08,SSW,194,10.0,18.0,68,0.00,,---,0.00,VWS V14.00,2013-01-25 17:47:00,
2013-01-25 11:48:00,78.2,67.2,30.08,South,183,14.0,14.0,69,0.00,,---,0.00,VWS V14.00,2013-01-25 17:48:00,
2013-01-25 11:49:00,78.2,66.8,30.08,South,173,18.0,19.0,68,0.00,,---,0.00,VWS V14.00,2013-01-25 17:49:00,
2013-01-25 11:50:00,78.2,67.2,30.08,SSW,199,9.0,18.0,69,0.00,,---,0.00,VWS V14.00,2013-01-25 17:50:00,
2013-01-25 11:51:00,78.6,67.2,30.08,SSW,203,13.0,15.0,68,0.00,,---,0.00,VWS V14.00,2013-01-25 17:51:00,
2013-01-25 11:52:00,78.5,67.1,30.08,South,180,16.0,18.0,68,0.00,,---,0.00,VWS V14.00,2013-01-25 17:52:00,
2013-01-25 11:53:00,78.3,66.9,30.08,South,184,11.0,16.0,68,0.00,,---,0.00,VWS V14.00,2013-01-25 17:53:00,
2013-01-25 11:54:00,78.4,67.4,30.08,South,186,15.0,17.0,69,0.00,,---,0.00,VWS V14.00,2013-01-25 17:54:00,
2013-01-25 11:55:00,78.6,67.2,30.08,South,190,12.0,18.0,68,0.00,,---,0.00,VWS V14.00,2013-01-25 17:55:00,
2013-01-25 11:56:00,78.7,67.3,30.08,South,184,13.0,15.0,68,0.00,,---,0.00,VWS V14.00,2013-01-25 17:56:00,
2013-01-25 11:57:00,78.8,66.9,30.07,South,172,15.0,17.0,67,0.00,,---,0.00,VWS V14.00,2013-01-25 17:57:00,
2013-01-25 11:58:00,78.5,67.1,30.08,South,180,18.0,18.0,68,0.00,,---,0.00,VWS V14.00,2013-01-25 17:58:00,
2013-01-25 11:59:00,78.8,67.4,30.07,SSE,165,13.0,18.0,68,0.00,,---,0.00,VWS V14.00,2013-01-25 17:59:00,
2013-01-25 12:00:00,78.8,66.9,30.07,SSE,166,17.0,17.0,67,0.00,,---,0.00,VWS V14.00,2013-01-25 18:00:00,
2013-01-25 12:01:00,78.7,66.8,30.07,South,180,9.0,17.0,67,0.00,,---,0.00,VWS V14.00,2013-01-25 18:01:00,
2013-01-25 12:02:00,79.3,68.3,30.07,South,182,10.0,12.0,69,0.00,,---,0.00,VWS V14.00,2013-01-25 18:02:00,
2013-01-25 12:03:00,78.7,67.3,30.07,South,184,13.0,15.0,68,0.00,,---,0.00,VWS V14.00,2013-01-25 18:03:00,
2013-01-25 12:04:00,79.2,68.2,30.07,SSW,197,10.0,14.0,69,0.00,,---,0.00,VWS V14.00,2013-01-25 18:04:00,
2013-01-25 12:05:00,79.4,67.9,30.07,SSE,167,15.0,15.0,68,0.00,,---,0.00,VWS V14.00,2013-01-25 18:05:00,
2013-01-25 12:06:00,79.2,66.9,30.07,SSE,165,13.0,18.0,66,0.00,,---,0.00,VWS V14.00,2013-01-25 18:06:00,
2013-01-25 12:07:00,78.9,66.6,30.07,South,182,9.0,18.0,66,0.00,,---,0.00,VWS V14.00,2013-01-25 18:07:00,
2013-01-25 12:08:00,79.0,66.7,30.07,SSW,198,15.0,17.0,66,0.00,,---,0.00,VWS V14.00,2013-01-25 18:08:00,
2013-01-25 12:09:00,78.9,66.6,30.07,South,186,17.0,17.0,66,0.00,,---,0.00,VWS V14.00,2013-01-25 18:09:00,
2013-01-25 12:10:00,78.8,66.5,30.07,South,174,13.0,18.0,66,0.00,,---,0.00,VWS V14.00,2013-01-25 18:10:00,
2013-01-25 12:11:00,78.8,66.5,30.07,SSW,196,7.0,13.0,66,0.00,,---,0.00,VWS V14.00,2013-01-25 18:11:00,
2013-01-25 12:12:00,79.0,66.7,30.06,South,189,12.0,13.0,66,0.00,,---,0.00,VWS V14.00,2013-01-25 18:12:00,
2013-01-25 12:14:00,79.0,66.7,30.06,South,183,7.0,17.0,66,0.00,,---,0.00,VWS V14.00,2013-01-25 18:14:00,
2013-01-25 12:15:00,79.1,67.2,30.06,South,173,12.0,16.0,67,0.00,,---,0.00,VWS V14.00,2013-01-25 18:15:00,
2013-01-25 12:16:00,79.5,67.2,30.06,South,186,8.0,18.0,66,0.00,,---,0.00,VWS V14.00,2013-01-25 18:16:00,
2013-01-25 12:17:00,79.6,66.8,30.06,South,178,12.0,14.0,65,0.00,,---,0.00,VWS V14.00,2013-01-25 18:17:00,
2013-01-25 12:18:00,79.7,67.3,30.06,South,188,17.0,17.0,66,0.00,,---,0.00,VWS V14.00,2013-01-25 18:18:00,
2013-01-25 12:19:00,79.6,66.8,30.06,SSE,165,11.0,17.0,65,0.00,,---,0.00,VWS V14.00,2013-01-25 18:19:00,
2013-01-25 12:20:00,79.6,66.8,30.06,SSE,168,14.0,15.0,65,0.00,,---,0.00,VWS V14.00,2013-01-25 18:20:00,
2013-01-25 12:22:00,79.9,67.1,30.06,South,176,11.0,17.0,65,0.00,,---,0.00,VWS V14.00,2013-01-25 18:22:00,
2013-01-25 12:23:00,79.8,67.0,30.06,SSW,194,14.0,15.0,65,0.00,,---,0.00,VWS V14.00,2013-01-25 18:23:00,
2013-01-25 12:24:00,79.8,67.0,30.06,South,177,12.0,19.0,65,0.00,,---,0.00,VWS V14.00,2013-01-25 18:24:00,
2013-01-25 12:25:00,79.7,66.9,30.06,SSE,149,12.0,17.0,65,0.00,,---,0.00,VWS V14.00,2013-01-25 18:25:00,
2013-01-25 12:26:00,79.5,66.7,30.06,SSE,167,12.0,17.0,65,0.00,,---,0.00,VWS V14.00,2013-01-25 18:26:00,
2013-01-25 12:27:00,79.7,66.9,30.06,South,175,13.0,15.0,65,0.00,,---,0.00,VWS V14.00,2013-01-25 18:27:00,
2013-01-25 12:28:00,79.6,67.2,30.06,SSW,200,10.0,22.0,66,0.00,,---,0.00,VWS V14.00,2013-01-25 18:28:00,
2013-01-25 12:29:00,79.8,67.0,30.06,South,179,13.0,18.0,65,0.00,,---,0.00,VWS V14.00,2013-01-25 18:29:00,
2013-01-25 12:30:00,79.7,66.9,30.06,SSE,163,13.0,16.0,65,0.00,,---,0.00,VWS V14.00,2013-01-25 18:30:00,
2013-01-25 12:32:00,79.8,67.0,30.05,SSW,198,13.0,15.0,65,0.00,,---,0.00,VWS V14.00,2013-01-25 18:32:00,
2013-01-25 12:33:00,79.5,67.2,30.05,South,183,11.0,15.0,66,0.00,,---,0.00,VWS V14.00,2013-01-25 18:33:00,
2013-01-25 12:35:00,79.8,67.0,30.05,SSW,208,11.0,15.0,65,0.00,,---,0.00,VWS V14.00,2013-01-25 18:35:00,
2013-01-25 12:37:00,79.8,66.6,30.05,SSW,193,9.0,14.0,64,0.00,,---,0.00,VWS V14.00,2013-01-25 18:37:00,
2013-01-25 12:38:00,79.9,66.7,30.05,South,176,17.0,19.0,64,0.00,,---,0.00,VWS V14.00,2013-01-25 18:38:00,
2013-01-25 12:39:00,79.8,66.6,30.05,South,191,11.0,17.0,64,0.00,,---,0.00,VWS V14.00,2013-01-25 18:39:00,
2013-01-25 12:40:00,79.9,67.1,30.05,SSW,200,13.0,16.0,65,0.00,,---,0.00,VWS V14.00,2013-01-25 18:40:00,
2013-01-25 12:41:00,80.0,66.7,30.05,SSE,155,11.0,16.0,64,0.00,,---,0.00,VWS V14.00,2013-01-25 18:41:00,
2013-01-25 12:42:00,80.2,66.9,30.05,South,184,11.0,13.0,64,0.00,,---,0.00,VWS V14.00,2013-01-25 18:42:00,
2013-01-25 12:43:00,80.2,66.9,30.04,SSW,197,14.0,17.0,64,0.00,,---,0.00,VWS V14.00,2013-01-25 18:43:00,
2013-01-25 12:44:00,80.2,66.9,30.05,South,184,12.0,19.0,64,0.00,,---,0.00,VWS V14.00,2013-01-25 18:44:00,
2013-01-25 12:45:00,80.2,66.9,30.05,South,173,14.0,14.0,64,0.00,,---,0.00,VWS V14.00,2013-01-25 18:45:00,
2013-01-25 12:46:00,80.2,66.9,30.04,SSE,167,10.0,16.0,64,0.00,,---,0.00,VWS V14.00,2013-01-25 18:46:00,
2013-01-25 12:47:00,79.9,66.7,30.04,SSE,167,9.0,13.0,64,0.00,,---,0.00,VWS V14.00,2013-01-25 18:47:00,
2013-01-25 12:48:00,80.1,66.8,30.04,SSE,167,12.0,15.0,64,0.00,,---,0.00,VWS V14.00,2013-01-25 18:48:00,
2013-01-25 12:49:00,79.9,66.7,30.04,SSE,165,10.0,14.0,64,0.00,,---,0.00,VWS V14.00,2013-01-25 18:49:00,
2013-01-25 12:50:00,80.0,67.2,30.04,SSE,156,14.0,16.0,65,0.00,,---,0.00,VWS V14.00,2013-01-25 18:50:00,
2013-01-25 12:51:00,80.2,66.9,30.04,SSE,155,12.0,17.0,64,0.00,,---,0.00,VWS V14.00,2013-01-25 18:51:00,
2013-01-25 12:52:00,80.3,67.0,30.03,South,185,16.0,18.0,64,0.00,,---,0.00,VWS V14.00,2013-01-25 18:52:00,
2013-01-25 12:53:00,80.3,67.0,30.04,SSW,202,15.0,16.0,64,0.00,,---,0.00,VWS V14.00,2013-01-25 18:53:00,
2013-01-25 12:54:00,80.2,66.5,30.04,SSE,164,13.0,15.0,63,0.00,,---,0.00,VWS V14.00,2013-01-25 18:54:00,
2013-01-25 12:55:00,80.3,67.0,30.03,SSE,165,13.0,18.0,64,0.00,,---,0.00,VWS V14.00,2013-01-25 18:55:00,
2013-01-25 12:56:00,80.4,66.2,30.03,SSE,153,9.0,15.0,62,0.00,,---,0.00,VWS V14.00,2013-01-25 18:56:00,
2013-01-25 12:57:00,80.6,66.8,30.03,SSW,204,7.0,15.0,63,0.00,,---,0.00,VWS V14.00,2013-01-25 18:57:00,
2013-01-25 12:58:00,80.3,66.6,30.03,SSW,205,11.0,16.0,63,0.00,,---,0.00,VWS V14.00,2013-01-25 18:58:00,
2013-01-25 12:59:00,80.5,66.8,30.03,SSW,211,12.0,12.0,63,0.00,,---,0.00,VWS V14.00,2013-01-25 18:59:00,
2013-01-25 13:00:00,80.7,66.9,30.03,South,182,16.0,18.0,63,0.00,,---,0.00,VWS V14.00,2013-01-25 19:00:00,
2013-01-25 13:01:00,80.8,66.6,30.03,South,184,10.0,17.0,62,0.00,,---,0.00,VWS V14.00,2013-01-25 19:01:00,
2013-01-25 13:02:00,80.3,66.6,30.03,South,180,7.0,12.0,63,0.00,,---,0.00,VWS V14.00,2013-01-25 19:02:00,
2013-01-25 13:03:00,80.4,66.2,30.03,SE,145,11.0,14.0,62,0.00,,---,0.00,VWS V14.00,2013-01-25 19:03:00,
2013-01-25 13:04:00,80.3,66.6,30.03,South,176,7.0,16.0,63,0.00,,---,0.00,VWS V14.00,2013-01-25 19:04:00,
2013-01-25 13:05:00,80.3,66.6,30.03,South,181,13.0,14.0,63,0.00,,---,0.00,VWS V14.00,2013-01-25 19:05:00,
2013-01-25 13:06:00,80.4,66.2,30.03,South,184,11.0,17.0,62,0.00,,---,0.00,VWS V14.00,2013-01-25 19:06:00,
2013-01-25 13:07:00,80.7,66.5,30.03,SSW,192,10.0,15.0,62,0.00,,---,0.00,VWS V14.00,2013-01-25 19:07:00,
2013-01-25 13:08:00,80.6,66.4,30.03,South,188,7.0,15.0,62,0.00,,---,0.00,VWS V14.00,2013-01-25 19:08:00,
2013-01-25 13:09:00,80.7,66.5,30.03,SSW,196,15.0,17.0,62,0.00,,---,0.00,VWS V14.00,2013-01-25 19:09:00,
2013-01-25 13:10:00,80.6,66.4,30.03,SSE,167,8.0,15.0,62,0.00,,---,0.00,VWS V14.00,2013-01-25 19:10:00,
2013-01-25 13:11:00,80.6,66.4,30.03,South,169,12.0,16.0,62,0.00,,---,0.00,VWS V14.00,2013-01-25 19:11:00,
2013-01-25 13:12:00,80.9,67.1,30.02,SSE,159,9.0,15.0,63,0.00,,---,0.00,VWS V14.00,2013-01-25 19:12:00,
2013-01-25 13:13:00,80.9,66.7,30.02,South,176,10.0,20.0,62,0.00,,---,0.00,VWS V14.00,2013-01-25 19:13:00,
2013-01-25 13:14:00,80.9,66.7,30.02,SSE,161,12.0,16.0,62,0.00,,---,0.00,VWS V14.00,2013-01-25 19:14:00,
2013-01-25 13:15:00,81.0,67.2,30.02,SSE,155,14.0,15.0,63,0.00,,---,0.00,VWS V14.00,2013-01-25 19:15:00,
2013-01-25 13:16:00,81.2,67.4,30.02,South,182,5.0,16.0,63,0.00,,---,0.00,VWS V14.00,2013-01-25 19:16:00,
2013-01-25 13:17:00,81.8,67.1,30.02,South,184,10.0,16.0,61,0.00,,---,0.00,VWS V14.00,2013-01-25 19:17:00,
2013-01-25 13:18:00,81.8,66.6,30.02,SSW,209,12.0,16.0,60,0.00,,---,0.00,VWS V14.00,2013-01-25 19:18:00,
2013-01-25 13:19:00,81.8,67.1,30.02,South,185,8.0,21.0,61,0.00,,---,0.00,VWS V14.00,2013-01-25 19:19:00,
2013-01-25 13:20:00,81.7,66.5,30.02,SSE,163,16.0,16.0,60,0.00,,---,0.00,VWS V14.00,2013-01-25 19:20:00,
2013-01-25 13:21:00,81.5,66.3,30.02,SSW,200,10.0,18.0,60,0.00,,---,0.00,VWS V14.00,2013-01-25 19:21:00,
2013-01-25 13:22:00,80.7,66.5,30.02,SSE,155,12.0,17.0,62,0.00,,---,0.00,VWS V14.00,2013-01-25 19:22:00,
2013-01-25 13:23:00,80.9,66.2,30.02,SSE,156,15.0,17.0,61,0.00,,---,0.00,VWS V14.00,2013-01-25 19:23:00,
2013-01-25 13:24:00,80.8,66.6,30.02,SE,144,13.0,16.0,62,0.00,,---,0.00,VWS V14.00,2013-01-25 19:24:00,
2013-01-25 13:25:00,80.7,66.5,30.02,SSE,163,12.0,17.0,62,0.00,,---,0.00,VWS V14.00,2013-01-25 19:25:00,
2013-01-25 13:26:00,80.7,66.5,30.02,South,187,15.0,17.0,62,0.00,,---,0.00,VWS V14.00,2013-01-25 19:26:00,
2013-01-25 13:27:00,81.2,66.5,30.02,South,185,13.0,15.0,61,0.00,,---,0.00,VWS V14.00,2013-01-25 19:27:00,
2013-01-25 13:28:00,81.0,66.3,30.02,South,171,9.0,16.0,61,0.00,,---,0.00,VWS V14.00,2013-01-25 19:28:00,
2013-01-25 13:29:00,81.2,66.9,30.02,South,181,15.0,17.0,62,0.00,,---,0.00,VWS V14.00,2013-01-25 19:29:00,
2013-01-25 13:30:00,81.2,66.5,30.02,South,189,11.0,15.0,61,0.00,,---,0.00,VWS V14.00,2013-01-25 19:30:00,
2013-01-25 13:32:00,81.2,66.9,30.01,South,175,13.0,16.0,62,0.00,,---,0.00,VWS V14.00,2013-01-25 19:32:00,
2013-01-25 13:33:00,81.1,66.9,30.01,SE,142,13.0,18.0,62,0.00,,---,0.00,VWS V14.00,2013-01-25 19:33:00,
2013-01-25 13:34:00,81.1,66.9,30.02,South,174,16.0,17.0,62,0.00,,---,0.00,VWS V14.00,2013-01-25 19:34:00,
2013-01-25 13:35:00,81.3,67.1,30.01,SSE,157,12.0,16.0,62,0.00,,---,0.00,VWS V14.00,2013-01-25 19:35:00,
2013-01-25 13:36:00,81.2,66.5,30.01,SSE,164,14.0,18.0,61,0.00,,---,0.00,VWS V14.00,2013-01-25 19:36:00,
2013-01-25 13:37:00,80.8,66.1,30.01,SSE,147,12.0,16.0,61,0.00,,---,0.00,VWS V14.00,2013-01-25 19:37:00,
2013-01-25 13:38:00,80.9,66.7,30.01,SSE,156,13.0,16.0,62,0.00,,---,0.00,VWS V14.00,2013-01-25 19:38:00,
2013-01-25 13:39:00,80.9,66.2,30.01,SSE,165,16.0,17.0,61,0.00,,---,0.00,VWS V14.00,2013-01-25 19:39:00,
2013-01-25 13:40:00,80.7,66.0,30.01,SE,146,12.0,16.0,61,0.00,,---,0.00,VWS V14.00,2013-01-25 19:40:00,
2013-01-25 13:41:00,80.7,66.5,30.01,South,170,16.0,21.0,62,0.00,,---,0.00,VWS V14.00,2013-01-25 19:41:00,
2013-01-25 13:42:00,81.1,66.4,30.01,SSE,158,14.0,16.0,61,0.00,,---,0.00,VWS V14.00,2013-01-25 19:42:00,
2013-01-25 13:43:00,81.2,66.5,30.01,SSE,161,15.0,16.0,61,0.00,,---,0.00,VWS V14.00,2013-01-25 19:43:00,
2013-01-25 13:44:00,81.1,66.4,30.01,South,186,11.0,19.0,61,0.00,,---,0.00,VWS V14.00,2013-01-25 19:44:00,
2013-01-25 13:45:00,80.9,66.2,30.01,SSE,152,12.0,16.0,61,0.00,,---,0.00,VWS V14.00,2013-01-25 19:45:00,
2013-01-25 13:46:00,80.9,66.7,30.01,SSE,151,11.0,14.0,62,0.00,,---,0.00,VWS V14.00,2013-01-25 19:46:00,
2013-01-25 13:47:00,80.9,66.7,30.01,SSE,163,12.0,16.0,62,0.00,,---,0.00,VWS V14.00,2013-01-25 19:47:00,
2013-01-25 13:48:00,80.9,66.7,30.01,SSE,165,11.0,19.0,62,0.00,,---,0.00,VWS V14.00,2013-01-25 19:48:00,
2013-01-25 13:49:00,80.9,66.7,30.01,SE,146,13.0,17.0,62,0.00,,---,0.00,VWS V14.00,2013-01-25 19:49:00,
2013-01-25 13:50:00,80.9,66.7,30.01,SSE,162,9.0,16.0,62,0.00,,---,0.00,VWS V14.00,2013-01-25 19:50:00,
2013-01-25 13:51:00,81.0,66.8,30.01,SSE,153,14.0,18.0,62,0.00,,---,0.00,VWS V14.00,2013-01-25 19:51:00,
2013-01-25 13:52:00,81.0,66.8,30.01,South,187,9.0,17.0,62,0.00,,---,0.00,VWS V14.00,2013-01-25 19:52:00,
2013-01-25 13:53:00,80.9,66.7,30.01,South,188,13.0,16.0,62,0.00,,---,0.00,VWS V14.00,2013-01-25 19:53:00,
2013-01-25 13:54:00,81.0,66.8,30.01,SSE,168,14.0,19.0,62,0.00,,---,0.00,VWS V14.00,2013-01-25 19:54:00,
2013-01-25 13:55:00,81.1,66.9,30.01,South,191,10.0,17.0,62,0.00,,---,0.00,VWS V14.00,2013-01-25 19:55:00,
2013-01-25 13:56:00,81.1,66.4,30.01,SE,142,15.0,15.0,61,0.00,,---,0.00,VWS V14.00,2013-01-25 19:56:00,
2013-01-25 13:57:00,81.5,66.8,30.01,South,190,8.0,15.0,61,0.00,,---,0.00,VWS V14.00,2013-01-25 19:57:00,
2013-01-25 13:58:00,81.2,66.9,30.00,SSE,165,14.0,14.0,62,0.00,,---,0.00,VWS V14.00,2013-01-25 19:58:00,
2013-01-25 13:59:00,81.5,66.8,30.01,SSE,164,14.0,16.0,61,0.00,,---,0.00,VWS V14.00,2013-01-25 19:59:00,
2013-01-25 14:00:00,81.5,66.8,30.01,South,175,12.0,15.0,61,0.00,,---,0.00,VWS V14.00,2013-01-25 20:00:00,
2013-01-25 14:01:00,81.4,66.7,30.00,South,184,10.0,14.0,61,0.00,,---,0.00,VWS V14.00,2013-01-25 20:01:00,
2013-01-25 14:02:00,81.6,66.9,30.00,SSE,151,15.0,17.0,61,0.00,,---,0.00,VWS V14.00,2013-01-25 20:02:00,
2013-01-25 14:03:00,81.6,66.9,30.00,SSE,160,13.0,15.0,61,0.00,,---,0.00,VWS V14.00,2013-01-25 20:03:00,
2013-01-25 14:04:00,81.7,67.4,30.00,SE,137,15.0,17.0,62,0.00,,---,0.00,VWS V14.00,2013-01-25 20:04:00,
2013-01-25 14:05:00,81.5,66.8,30.00,SE,141,13.0,17.0,61,0.00,,---,0.00,VWS V14.00,2013-01-25 20:05:00,
2013-01-25 14:06:00,81.3,66.6,30.00,SE,142,14.0,16.0,61,0.00,,---,0.00,VWS V14.00,2013-01-25 20:06:00,
2013-01-25 14:07:00,81.3,66.6,30.00,South,186,18.0,18.0,61,0.00,,---,0.00,VWS V14.00,2013-01-25 20:07:00,
2013-01-25 14:08:00,81.4,67.1,30.00,SSE,163,12.0,17.0,62,0.00,,---,0.00,VWS V14.00,2013-01-25 20:08:00,
2013-01-25 14:09:00,81.4,66.7,30.00,South,179,15.0,18.0,61,0.00,,---,0.00,VWS V14.00,2013-01-25 20:09:00,
2013-01-25 14:10:00,81.2,66.5,30.00,South,172,12.0,18.0,61,0.00,,---,0.00,VWS V14.00,2013-01-25 20:10:00,
2013-01-25 14:11:00,81.1,66.9,30.00,South,191,10.0,15.0,62,0.00,,---,0.00,VWS V14.00,2013-01-25 20:11:00,
2013-01-25 14:12:00,80.9,66.7,30.00,South,175,12.0,13.0,62,0.00,,---,0.00,VWS V14.00,2013-01-25 20:12:00,
2013-01-25 14:13:00,81.0,66.8,30.00,South,184,15.0,19.0,62,0.00,,---,0.00,VWS V14.00,2013-01-25 20:13:00,
2013-01-25 14:14:00,80.9,66.7,30.00,SSE,167,12.0,15.0,62,0.00,,---,0.00,VWS V14.00,2013-01-25 20:14:00,
2013-01-25 14:15:00,80.9,66.7,30.00,SSE,162,10.0,14.0,62,0.00,,---,0.00,VWS V14.00,2013-01-25 20:15:00,
2013-01-25 14:16:00,80.8,66.6,30.00,SE,144,15.0,15.0,62,0.00,,---,0.00,VWS V14.00,2013-01-25 20:16:00,
2013-01-25 14:17:00,80.8,66.6,30.00,SSE,162,8.0,15.0,62,0.00,,---,0.00,VWS V14.00,2013-01-25 20:17:00,
2013-01-25 14:18:00,80.8,66.6,30.00,SSE,153,12.0,20.0,62,0.00,,---,0.00,VWS V14.00,2013-01-25 20:18:00,
2013-01-25 14:19:00,80.9,67.1,30.00,SSE,150,15.0,17.0,63,0.00,,---,0.00,VWS V14.00,2013-01-25 20:19:00,
2013-01-25 14:20:00,80.8,66.6,30.00,SSE,166,11.0,15.0,62,0.00,,---,0.00,VWS V14.00,2013-01-25 20:20:00,
2013-01-25 14:21:00,80.7,66.5,30.00,SE,146,13.0,17.0,62,0.00,,---,0.00,VWS V14.00,2013-01-25 20:21:00,
2013-01-25 14:22:00,80.7,66.5,30.00,South,169,12.0,14.0,62,0.00,,---,0.00,VWS V14.00,2013-01-25 20:22:00,
2013-01-25 14:23:00,80.7,66.9,30.00,SSE,161,16.0,17.0,63,0.00,,---,0.00,VWS V14.00,2013-01-25 20:23:00,
2013-01-25 14:24:00,80.7,66.5,30.00,South,169,12.0,19.0,62,0.00,,---,0.00,VWS V14.00,2013-01-25 20:24:00,
2013-01-25 14:25:00,80.8,67.0,30.00,South,173,16.0,17.0,63,0.00,,---,0.00,VWS V14.00,2013-01-25 20:25:00,
2013-01-25 14:26:00,80.9,67.1,30.00,South,178,18.0,18.0,63,0.00,,---,0.00,VWS V14.00,2013-01-25 20:26:00,
2013-01-25 14:27:00,81.1,66.9,30.00,SSE,150,14.0,18.0,62,0.00,,---,0.00,VWS V14.00,2013-01-25 20:27:00,
2013-01-25 14:28:00,80.9,67.1,30.00,SSE,165,10.0,14.0,63,0.00,,---,0.00,VWS V14.00,2013-01-25 20:28:00,
2013-01-25 14:29:00,81.0,66.8,30.00,SE,145,18.0,18.0,62,0.00,,---,0.00,VWS V14.00,2013-01-25 20:29:00,
2013-01-25 14:30:00,81.2,66.9,30.00,South,174,17.0,18.0,62,0.00,,---,0.00,VWS V14.00,2013-01-25 20:30:00,
2013-01-25 14:31:00,81.0,66.8,30.00,SE,144,11.0,18.0,62,0.00,,---,0.00,VWS V14.00,2013-01-25 20:31:00,
2013-01-25 14:32:00,80.6,66.8,30.00,SSE,150,12.0,15.0,63,0.00,,---,0.00,VWS V14.00,2013-01-25 20:32:00,
2013-01-25 14:33:00,80.8,66.6,30.00,SSE,159,15.0,20.0,62,0.00,,---,0.00,VWS V14.00,2013-01-25 20:33:00,
2013-01-25 14:34:00,80.7,66.9,30.00,SSE,160,11.0,17.0,63,0.00,,---,0.00,VWS V14.00,2013-01-25 20:34:00,
2013-01-25 14:35:00,80.7,67.4,30.00,SSE,149,12.0,15.0,64,0.00,,---,0.00,VWS V14.00,2013-01-25 20:35:00,
2013-01-25 14:36:00,80.8,67.0,30.00,South,181,8.0,13.0,63,0.00,,---,0.00,VWS V14.00,2013-01-25 20:36:00,
2013-01-25 14:37:00,81.3,67.5,30.00,SE,138,14.0,15.0,63,0.00,,---,0.00,VWS V14.00,2013-01-25 20:37:00,
2013-01-25 14:38:00,80.9,66.7,30.00,SSW,198,9.0,13.0,62,0.00,,---,0.00,VWS V14.00,2013-01-25 20:38:00,
2013-01-25 14:39:00,81.2,67.4,30.00,SSE,155,15.0,17.0,63,0.00,,---,0.00,VWS V14.00,2013-01-25 20:39:00,
2013-01-25 14:40:00,81.4,67.1,30.00,SE,134,9.0,15.0,62,0.00,,---,0.00,VWS V14.00,2013-01-25 20:40:00,
2013-01-25 14:41:00,81.3,67.1,30.00,SSE,168,16.0,18.0,62,0.00,,---,0.00,VWS V14.00,2013-01-25 20:41:00,
2013-01-25 14:42:00,80.9,66.7,29.99,South,173,16.0,16.0,62,0.00,,---,0.00,VWS V14.00,2013-01-25 20:42:00,
2013-01-25 14:43:00,80.9,66.7,29.99,SSE,150,17.0,17.0,62,0.00,,---,0.00,VWS V14.00,2013-01-25 20:43:00,
2013-01-25 14:44:00,81.0,67.2,29.99,SSE,157,15.0,17.0,63,0.00,,---,0.00,VWS V14.00,2013-01-25 20:44:00,
2013-01-25 14:45:00,80.9,66.7,29.99,South,178,14.0,17.0,62,0.00,,---,0.00,VWS V14.00,2013-01-25 20:45:00,
2013-01-25 14:46:00,80.9,67.1,29.99,SE,136,13.0,17.0,63,0.00,,---,0.00,VWS V14.00,2013-01-25 20:46:00,
2013-01-25 14:47:00,80.8,67.0,29.99,SSE,166,13.0,19.0,63,0.00,,---,0.00,VWS V14.00,2013-01-25 20:47:00,
2013-01-25 14:48:00,80.7,66.9,29.99,SE,133,14.0,17.0,63,0.00,,---,0.00,VWS V14.00,2013-01-25 20:48:00,
2013-01-25 14:49:00,80.7,66.9,29.99,SSE,159,18.0,19.0,63,0.00,,---,0.00,VWS V14.00,2013-01-25 20:49:00,
2013-01-25 14:50:00,80.9,67.1,29.99,SSE,161,15.0,19.0,63,0.00,,---,0.00,VWS V14.00,2013-01-25 20:50:00,
2013-01-25 14:51:00,80.9,67.1,29.99,SSE,155,15.0,18.0,63,0.00,,---,0.00,VWS V14.00,2013-01-25 20:51:00,
2013-01-25 14:52:00,80.7,66.9,29.99,SSE,149,13.0,18.0,63,0.00,,---,0.00,VWS V14.00,2013-01-25 20:52:00,
2013-01-25 14:53:00,80.7,66.9,29.99,SE,136,10.0,15.0,63,0.00,,---,0.00,VWS V14.00,2013-01-25 20:53:00,
2013-01-25 14:54:00,80.6,66.8,29.99,SE,144,15.0,15.0,63,0.00,,---,0.00,VWS V14.00,2013-01-25 20:54:00,
2013-01-25 14:55:00,80.8,67.0,29.99,SE,140,14.0,18.0,63,0.00,,---,0.00,VWS V14.00,2013-01-25 20:55:00,
2013-01-25 14:56:00,80.9,67.1,29.99,SE,146,18.0,20.0,63,0.00,,---,0.00,VWS V14.00,2013-01-25 20:56:00,
2013-01-25 14:57:00,80.7,66.9,29.99,South,169,12.0,17.0,63,0.00,,---,0.00,VWS V14.00,2013-01-25 20:57:00,
2013-01-25 14:58:00,80.9,66.7,29.99,South,173,12.0,17.0,62,0.00,,---,0.00,VWS V14.00,2013-01-25 20:58:00,
2013-01-25 14:59:00,80.8,67.0,29.99,SSE,150,17.0,17.0,63,0.00,,---,0.00,VWS V14.00,2013-01-25 20:59:00,
2013-01-25 15:00:00,80.9,67.1,29.99,SSE,149,15.0,17.0,63,0.00,,---,0.00,VWS V14.00,2013-01-25 21:00:00,
2013-01-25 15:01:00,81.1,67.3,29.99,South,184,10.0,16.0,63,0.00,,---,0.00,VWS V14.00,2013-01-25 21:01:00,
2013-01-25 15:02:00,80.8,66.6,29.99,SSE,148,15.0,18.0,62,0.00,,---,0.00,VWS V14.00,2013-01-25 21:02:00,
2013-01-25 15:03:00,81.1,66.9,29.99,SE,146,17.0,19.0,62,0.00,,---,0.00,VWS V14.00,2013-01-25 21:03:00,
2013-01-25 15:04:00,80.9,66.7,29.99,South,170,13.0,17.0,62,0.00,,---,0.00,VWS V14.00,2013-01-25 21:04:00,
2013-01-25 15:05:00,80.8,67.0,29.99,SE,144,17.0,18.0,63,0.00,,---,0.00,VWS V14.00,2013-01-25 21:05:00,
2013-01-25 15:06:00,80.7,66.9,29.99,SSE,150,12.0,17.0,63,0.00,,---,0.00,VWS V14.00,2013-01-25 21:06:00,
2013-01-25 15:07:00,80.2,66.9,29.98,South,180,12.0,16.0,64,0.00,,---,0.00,VWS V14.00,2013-01-25 21:07:00,
2013-01-25 15:08:00,80.2,66.5,29.99,SSE,155,20.0,20.0,63,0.00,,---,0.00,VWS V14.00,2013-01-25 21:08:00,
2013-01-25 15:09:00,80.2,66.9,29.99,SSE,167,16.0,20.0,64,0.00,,---,0.00,VWS V14.00,2013-01-25 21:09:00,
2013-01-25 15:10:00,80.1,66.8,29.98,South,175,16.0,17.0,64,0.00,,---,0.00,VWS V14.00,2013-01-25 21:10:00,
2013-01-25 15:11:00,80.1,66.4,29.99,SSE,161,9.0,18.0,63,0.00,,---,0.00,VWS V14.00,2013-01-25 21:11:00,
2013-01-25 15:12:00,80.0,66.7,29.98,SE,144,17.0,18.0,64,0.00,,---,0.00,VWS V14.00,2013-01-25 21:12:00,
2013-01-25 15:13:00,80.0,66.7,29.98,SSE,147,12.0,15.0,64,0.00,,---,0.00,VWS V14.00,2013-01-25 21:13:00,
2013-01-25 15:14:00,80.0,66.7,29.98,SSE,152,14.0,18.0,64,0.00,,---,0.00,VWS V14.00,2013-01-25 21:14:00,
2013-01-25 15:15:00,80.0,66.7,29.98,SE,134,16.0,19.0,64,0.00,,---,0.00,VWS V14.00,2013-01-25 21:15:00,
2013-01-25 15:16:00,79.9,66.7,29.98,SSE,163,21.0,21.0,64,0.00,,---,0.00,VWS V14.00,2013-01-25 21:16:00,
2013-01-25 15:17:00,80.0,66.7,29.98,SE,132,16.0,16.0,64,0.00,,---,0.00,VWS V14.00,2013-01-25 21:17:00,
2013-01-25 15:18:00,80.0,67.2,29.98,SSE,151,16.0,19.0,65,0.00,,---,0.00,VWS V14.00,2013-01-25 21:18:00,
2013-01-25 15:19:00,80.0,66.7,29.98,SE,146,14.0,21.0,64,0.00,,---,0.00,VWS V14.00,2013-01-25 21:19:00,
2013-01-25 15:20:00,80.0,66.7,29.98,ESE,115,14.0,18.0,64,0.00,,---,0.00,VWS V14.00,2013-01-25 21:20:00,
2013-01-25 15:21:00,80.0,66.7,29.98,SSE,155,14.0,18.0,64,0.00,,---,0.00,VWS V14.00,2013-01-25 21:21:00,
2013-01-25 15:22:00,80.0,66.7,29.98,SSE,156,11.0,15.0,64,0.00,,---,0.00,VWS V14.00,2013-01-25 21:22:00,
2013-01-25 15:23:00,80.0,66.7,29.98,SE,138,15.0,17.0,64,0.00,,---,0.00,VWS V14.00,2013-01-25 21:23:00,
2013-01-25 15:24:00,80.0,66.7,29.98,SSE,152,14.0,19.0,64,0.00,,---,0.00,VWS V14.00,2013-01-25 21:24:00,
2013-01-25 15:25:00,80.0,66.7,29.98,SE,131,13.0,17.0,64,0.00,,---,0.00,VWS V14.00,2013-01-25 21:25:00,
2013-01-25 15:26:00,80.1,66.8,29.98,SSE,158,15.0,17.0,64,0.00,,---,0.00,VWS V14.00,2013-01-25 21:26:00,
2013-01-25 15:27:00,80.0,66.7,29.98,SSE,156,13.0,18.0,64,0.00,,---,0.00,VWS V14.00,2013-01-25 21:27:00,
2013-01-25 15:28:00,80.1,66.8,29.98,SE,139,12.0,16.0,64,0.00,,---,0.00,VWS V14.00,2013-01-25 21:28:00,
2013-01-25 15:29:00,80.0,66.7,29.98,SE,146,13.0,18.0,64,0.00,,---,0.00,VWS V14.00,2013-01-25 21:29:00,
2013-01-25 15:30:00,79.9,66.7,29.98,South,169,11.0,18.0,64,0.00,,---,0.00,VWS V14.00,2013-01-25 21:30:00,
2013-01-25 15:31:00,79.9,66.7,29.98,SSE,147,13.0,15.0,64,0.00,,---,0.00,VWS V14.00,2013-01-25 21:31:00,
2013-01-25 15:32:00,80.0,66.7,29.98,SE,135,12.0,14.0,64,0.00,,---,0.00,VWS V14.00,2013-01-25 21:32:00,
2013-01-25 15:33:00,80.0,66.7,29.98,SSE,168,14.0,18.0,64,0.00,,---,0.00,VWS V14.00,2013-01-25 21:33:00,
2013-01-25 15:34:00,80.0,66.7,29.98,SE,142,11.0,15.0,64,0.00,,---,0.00,VWS V14.00,2013-01-25 21:34:00,
2013-01-25 15:35:00,80.1,66.8,29.98,SE,143,17.0,19.0,64,0.00,,---,0.00,VWS V14.00,2013-01-25 21:35:00,
2013-01-25 15:36:00,80.1,66.8,29.98,SSE,161,12.0,19.0,64,0.00,,---,0.00,VWS V14.00,2013-01-25 21:36:00,
2013-01-25 15:37:00,80.0,66.7,29.98,SSE,159,12.0,18.0,64,0.00,,---,0.00,VWS V14.00,2013-01-25 21:37:00,
2013-01-25 15:38:00,80.1,66.8,29.98,SE,146,17.0,19.0,64,0.00,,---,0.00,VWS V14.00,2013-01-25 21:38:00,
2013-01-25 15:39:00,80.0,66.7,29.98,SE,143,18.0,18.0,64,0.00,,---,0.00,VWS V14.00,2013-01-25 21:39:00,
2013-01-25 15:40:00,80.0,66.7,29.98,SSE,163,16.0,18.0,64,0.00,,---,0.00,VWS V14.00,2013-01-25 21:40:00,
2013-01-25 15:41:00,79.9,66.7,29.98,SSE,166,10.0,17.0,64,0.00,,---,0.00,VWS V14.00,2013-01-25 21:41:00,
2013-01-25 15:42:00,79.9,66.7,29.98,SE,138,13.0,14.0,64,0.00,,---,0.00,VWS V14.00,2013-01-25 21:42:00,
2013-01-25 15:43:00,79.9,67.1,29.98,South,182,9.0,17.0,65,0.00,,---,0.00,VWS V14.00,2013-01-25 21:43:00,
2013-01-25 15:44:00,79.9,66.7,29.98,SSE,162,13.0,16.0,64,0.00,,---,0.00,VWS V14.00,2013-01-25 21:44:00,
2013-01-25 15:45:00,79.8,66.6,29.98,SSE,163,16.0,17.0,64,0.00,,---,0.00,VWS V14.00,2013-01-25 21:45:00,
2013-01-25 15:46:00,79.8,66.6,29.98,SE,142,12.0,18.0,64,0.00,,---,0.00,VWS V14.00,2013-01-25 21:46:00,
2013-01-25 15:47:00,79.6,66.8,29.97,South,169,16.0,17.0,65,0.00,,---,0.00,VWS V14.00,2013-01-25 21:47:00,
2013-01-25 15:48:00,79.7,66.5,29.98,SSE,161,17.0,19.0,64,0.00,,---,0.00,VWS V14.00,2013-01-25 21:48:00,
2013-01-25 15:49:00,79.6,66.4,29.97,SSE,157,12.0,18.0,64,0.00,,---,0.00,VWS V14.00,2013-01-25 21:49:00,
2013-01-25 15:50:00,79.6,66.8,29.97,SSE,148,10.0,17.0,65,0.00,,---,0.00,VWS V14.00,2013-01-25 21:50:00,
2013-01-25 15:51:00,79.7,66.9,29.97,SSE,148,14.0,17.0,65,0.00,,---,0.00,VWS V14.00,2013-01-25 21:51:00,
2013-01-25 15:52:00,79.7,66.5,29.97,SSE,166,17.0,18.0,64,0.00,,---,0.00,VWS V14.00,2013-01-25 21:52:00,
2013-01-25 15:53:00,80.0,66.7,29.97,SSE,150,14.0,18.0,64,0.00,,---,0.00,VWS V14.00,2013-01-25 21:53:00,
2013-01-25 15:54:00,79.8,66.6,29.97,South,171,16.0,18.0,64,0.00,,---,0.00,VWS V14.00,2013-01-25 21:54:00,
2013-01-25 15:55:00,79.5,66.3,29.97,South,178,15.0,18.0,64,0.00,,---,0.00,VWS V14.00,2013-01-25 21:55:00,
2013-01-25 15:56:00,79.5,66.7,29.97,SSE,157,16.0,16.0,65,0.00,,---,0.00,VWS V14.00,2013-01-25 21:56:00,
2013-01-25 15:57:00,79.3,66.5,29.97,South,174,16.0,18.0,65,0.00,,---,0.00,VWS V14.00,2013-01-25 21:57:00,
2013-01-25 15:58:00,79.4,66.6,29.97,SE,142,15.0,19.0,65,0.00,,---,0.00,VWS V14.00,2013-01-25 21:58:00,
2013-01-25 15:59:00,79.4,66.6,29.97,SSE,168,15.0,19.0,65,0.00,,---,0.00,VWS V14.00,2013-01-25 21:59:00,
2013-01-25 16:00:00,79.2,66.4,29.97,SSE,159,14.0,18.0,65,0.00,,---,0.00,VWS V14.00,2013-01-25 22:00:00,
2013-01-25 16:01:00,79.2,66.4,29.97,South,171,16.0,17.0,65,0.00,,---,0.00,VWS V14.00,2013-01-25 22:01:00,
2013-01-25 16:02:00,79.2,66.9,29.97,SE,146,11.0,16.0,66,0.00,,---,0.00,VWS V14.00,2013-01-25 22:02:00,
2013-01-25 16:03:00,79.2,66.9,29.97,SSE,155,16.0,16.0,66,0.00,,---,0.00,VWS V14.00,2013-01-25 22:03:00,
2013-01-25 16:04:00,79.2,66.9,29.97,SSW,192,16.0,18.0,66,0.00,,---,0.00,VWS V14.00,2013-01-25 22:04:00,
2013-01-25 16:05:00,79.2,66.9,29.97,SE,145,14.0,16.0,66,0.00,,---,0.00,VWS V14.00,2013-01-25 22:05:00,
2013-01-25 16:06:00,79.2,66.9,29.97,SSE,163,14.0,18.0,66,0.00,,---,0.00,VWS V14.00,2013-01-25 22:06:00,
2013-01-25 16:07:00,79.1,66.8,29.97,SSE,165,11.0,14.0,66,0.00,,---,0.00,VWS V14.00,2013-01-25 22:07:00,
2013-01-25 16:08:00,79.1,66.3,29.97,SSE,153,12.0,15.0,65,0.00,,---,0.00,VWS V14.00,2013-01-25 22:08:00,
2013-01-25 16:09:00,79.1,66.8,29.97,South,169,14.0,17.0,66,0.00,,---,0.00,VWS V14.00,2013-01-25 22:09:00,
2013-01-25 16:10:00,79.0,66.7,29.97,South,169,12.0,16.0,66,0.00,,---,0.00,VWS V14.00,2013-01-25 22:10:00,
2013-01-25 16:11:00,79.0,66.7,29.97,SSE,165,17.0,17.0,66,0.00,,---,0.00,VWS V14.00,2013-01-25 22:11:00,
2013-01-25 16:12:00,78.9,66.6,29.97,SSE,154,13.0,17.0,66,0.00,,---,0.00,VWS V14.00,2013-01-25 22:12:00,
2013-01-25 16:13:00,78.9,66.6,29.97,SSE,147,11.0,17.0,66,0.00,,---,0.00,VWS V14.00,2013-01-25 22:13:00,
2013-01-25 16:14:00,78.8,66.5,29.97,SSE,165,14.0,18.0,66,0.00,,---,0.00,VWS V14.00,2013-01-25 22:14:00,
2013-01-25 16:15:00,78.8,66.5,29.97,SE,143,13.0,17.0,66,0.00,,---,0.00,VWS V14.00,2013-01-25 22:15:00,
2013-01-25 16:16:00,78.8,66.5,29.97,SE,142,17.0,17.0,66,0.00,,---,0.00,VWS V14.00,2013-01-25 22:16:00,
2013-01-25 16:17:00,78.8,66.5,29.97,South,169,15.0,16.0,66,0.00,,---,0.00,VWS V14.00,2013-01-25 22:17:00,
2013-01-25 16:18:00,78.8,66.5,29.97,SSE,160,17.0,18.0,66,0.00,,---,0.00,VWS V14.00,2013-01-25 22:18:00,
2013-01-25 16:19:00,78.7,66.4,29.97,SSE,167,15.0,17.0,66,0.00,,---,0.00,VWS V14.00,2013-01-25 22:19:00,
2013-01-25 16:20:00,78.8,66.5,29.97,South,173,10.0,18.0,66,0.00,,---,0.00,VWS V14.00,2013-01-25 22:20:00,
2013-01-25 16:21:00,78.8,66.5,29.97,SSE,167,17.0,17.0,66,0.00,,---,0.00,VWS V14.00,2013-01-25 22:21:00,
2013-01-25 16:22:00,78.8,66.5,29.97,South,184,15.0,19.0,66,0.00,,---,0.00,VWS V14.00,2013-01-25 22:22:00,
2013-01-25 16:23:00,78.7,66.4,29.97,SSE,163,14.0,17.0,66,0.00,,---,0.00,VWS V14.00,2013-01-25 22:23:00,
2013-01-25 16:24:00,78.7,66.4,29.97,South,189,9.0,16.0,66,0.00,,---,0.00,VWS V14.00,2013-01-25 22:24:00,
2013-01-25 16:25:00,78.8,66.5,29.97,South,173,14.0,19.0,66,0.00,,---,0.00,VWS V14.00,2013-01-25 22:25:00,
2013-01-25 16:26:00,78.6,66.3,29.98,South,183,12.0,14.0,66,0.00,,---,0.00,VWS V14.00,2013-01-25 22:26:00,
2013-01-25 16:27:00,78.7,66.4,29.98,SSE,160,14.0,15.0,66,0.00,,---,0.00,VWS V14.00,2013-01-25 22:27:00,
2013-01-25 16:28:00,78.8,66.5,29.98,SSE,161,16.0,18.0,66,0.00,,---,0.00,VWS V14.00,2013-01-25 22:28:00,
2013-01-25 16:29:00,78.7,66.4,29.98,SE,143,11.0,17.0,66,0.00,,---,0.00,VWS V14.00,2013-01-25 22:29:00,
2013-01-25 16:30:00,78.6,66.3,29.98,South,175,14.0,16.0,66,0.00,,---,0.00,VWS V14.00,2013-01-25 22:30:00,
2013-01-25 16:31:00,78.5,66.2,29.98,SSE,165,15.0,17.0,66,0.00,,---,0.00,VWS V14.00,2013-01-25 22:31:00,
2013-01-25 16:32:00,78.2,66.4,29.98,South,171,10.0,14.0,67,0.00,,---,0.00,VWS V14.00,2013-01-25 22:32:00,
2013-01-25 16:33:00,78.2,65.9,29.98,SSE,150,15.0,19.0,66,0.00,,---,0.00,VWS V14.00,2013-01-25 22:33:00,
2013-01-25 16:34:00,78.1,66.3,29.98,South,175,15.0,15.0,67,0.00,,---,0.00,VWS V14.00,2013-01-25 22:34:00,
2013-01-25 16:35:00,78.2,66.4,29.98,SSE,165,16.0,17.0,67,0.00,,---,0.00,VWS V14.00,2013-01-25 22:35:00,
2013-01-25 16:36:00,78.2,66.4,29.98,SSE,148,11.0,18.0,67,0.00,,---,0.00,VWS V14.00,2013-01-25 22:36:00,
2013-01-25 16:37:00,78.2,66.4,29.98,SSE,147,13.0,13.0,67,0.00,,---,0.00,VWS V14.00,2013-01-25 22:37:00,
2013-01-25 16:38:00,78.1,66.3,29.98,South,169,13.0,14.0,67,0.00,,---,0.00,VWS V14.00,2013-01-25 22:38:00,
2013-01-25 16:39:00,78.2,66.4,29.98,South,180,12.0,15.0,67,0.00,,---,0.00,VWS V14.00,2013-01-25 22:39:00,
2013-01-25 16:40:00,78.3,66.4,29.98,SSE,161,19.0,19.0,67,0.00,,---,0.00,VWS V14.00,2013-01-25 22:40:00,
2013-01-25 16:41:00,78.2,66.4,29.98,South,175,14.0,20.0,67,0.00,,---,0.00,VWS V14.00,2013-01-25 22:41:00,
2013-01-25 16:42:00,77.9,66.1,29.98,South,170,15.0,15.0,67,0.00,,---,0.00,VWS V14.00,2013-01-25 22:42:00,
2013-01-25 16:43:00,77.9,66.1,29.98,SSE,151,13.0,17.0,67,0.00,,---,0.00,VWS V14.00,2013-01-25 22:43:00,
2013-01-25 16:44:00,77.9,66.1,29.98,South,177,15.0,17.0,67,0.00,,---,0.00,VWS V14.00,2013-01-25 22:44:00,
2013-01-25 16:45:00,77.8,66.0,29.98,South,171,13.0,18.0,67,0.00,,---,0.00,VWS V14.00,2013-01-25 22:45:00,
2013-01-25 16:46:00,77.6,65.8,29.98,South,190,9.0,15.0,67,0.00,,---,0.00,VWS V14.00,2013-01-25 22:46:00,
2013-01-25 16:47:00,77.7,66.3,29.98,South,183,15.0,15.0,68,0.00,,---,0.00,VWS V14.00,2013-01-25 22:47:00,
2013-01-25 16:48:00,77.5,66.1,29.98,SSE,165,9.0,14.0,68,0.00,,---,0.00,VWS V14.00,2013-01-25 22:48:00,
2013-01-25 16:49:00,77.6,66.2,29.98,South,178,12.0,17.0,68,0.00,,---,0.00,VWS V14.00,2013-01-25 22:49:00,
2013-01-25 16:50:00,77.6,66.2,29.98,South,175,13.0,16.0,68,0.00,,---,0.00,VWS V14.00,2013-01-25 22:50:00,
2013-01-25 16:51:00,77.6,66.2,29.98,South,170,13.0,18.0,68,0.00,,---,0.00,VWS V14.00,2013-01-25 22:51:00,
2013-01-25 16:52:00,77.3,65.9,29.98,South,180,11.0,16.0,68,0.00,,---,0.00,VWS V14.00,2013-01-25 22:52:00,
2013-01-25 16:53:00,77.4,66.0,29.98,South,179,17.0,18.0,68,0.00,,---,0.00,VWS V14.00,2013-01-25 22:53:00,
2013-01-25 16:54:00,77.3,65.9,29.98,South,174,15.0,17.0,68,0.00,,---,0.00,VWS V14.00,2013-01-25 22:54:00,
2013-01-25 16:55:00,77.2,65.8,29.98,South,187,17.0,17.0,68,0.00,,---,0.00,VWS V14.00,2013-01-25 22:55:00,
2013-01-25 16:56:00,77.1,66.2,29.98,South,183,14.0,17.0,69,0.00,,---,0.00,VWS V14.00,2013-01-25 22:56:00,
2013-01-25 16:57:00,77.0,66.1,29.98,South,175,14.0,15.0,69,0.00,,---,0.00,VWS V14.00,2013-01-25 22:57:00,
2013-01-25 16:58:00,77.1,66.2,29.98,South,177,12.0,15.0,69,0.00,,---,0.00,VWS V14.00,2013-01-25 22:58:00,
2013-01-25 16:59:00,77.0,66.1,29.98,South,188,13.0,15.0,69,0.00,,---,0.00,VWS V14.00,2013-01-25 22:59:00,
2013-01-25 17:00:00,76.9,66.0,29.98,SSW,196,13.0,15.0,69,0.00,,---,0.00,VWS V14.00,2013-01-25 23:00:00,
2013-01-25 17:01:00,76.9,66.0,29.98,South,175,14.0,17.0,69,0.00,,---,0.00,VWS V14.00,2013-01-25 23:01:00,
2013-01-25 17:02:00,76.7,65.8,29.98,SSE,161,16.0,20.0,69,0.00,,---,0.00,VWS V14.00,2013-01-25 23:02:00,
2013-01-25 17:03:00,76.7,66.2,29.98,South,183,12.0,14.0,70,0.00,,---,0.00,VWS V14.00,2013-01-25 23:03:00,
2013-01-25 17:04:00,76.8,66.3,29.98,SSE,161,13.0,16.0,70,0.00,,---,0.00,VWS V14.00,2013-01-25 23:04:00,
2013-01-25 17:05:00,76.7,65.8,29.98,South,180,12.0,20.0,69,0.00,,---,0.00,VWS V14.00,2013-01-25 23:05:00,
2013-01-25 17:06:00,76.5,66.0,29.98,South,183,12.0,17.0,70,0.00,,---,0.00,VWS V14.00,2013-01-25 23:06:00,
2013-01-25 17:07:00,76.5,66.0,29.98,South,185,10.0,14.0,70,0.00,,---,0.00,VWS V14.00,2013-01-25 23:07:00,
2013-01-25 17:08:00,76.5,66.0,29.98,South,181,11.0,15.0,70,0.00,,---,0.00,VWS V14.00,2013-01-25 23:08:00,
2013-01-25 17:09:00,76.5,66.0,29.98,South,177,12.0,15.0,70,0.00,,---,0.00,VWS V14.00,2013-01-25 23:09:00,
2013-01-25 17:10:00,76.4,65.9,29.98,South,182,12.0,15.0,70,0.00,,---,0.00,VWS V14.00,2013-01-25 23:10:00,
2013-01-25 17:11:00,76.4,65.9,29.98,South,189,10.0,14.0,70,0.00,,---,0.00,VWS V14.00,2013-01-25 23:11:00,
2013-01-25 17:12:00,76.4,65.9,29.99,SSE,159,13.0,13.0,70,0.00,,---,0.00,VWS V14.00,2013-01-25 23:12:00,
2013-01-25 17:13:00,76.4,65.9,29.99,South,171,14.0,15.0,70,0.00,,---,0.00,VWS V14.00,2013-01-25 23:13:00,
2013-01-25 17:14:00,76.4,65.9,29.99,SSW,192,12.0,15.0,70,0.00,,---,0.00,VWS V14.00,2013-01-25 23:14:00,
2013-01-25 17:15:00,76.3,65.8,29.99,SSE,167,12.0,15.0,70,0.00,,---,0.00,VWS V14.00,2013-01-25 23:15:00,
2013-01-25 17:16:00,76.2,65.7,29.99,South,169,13.0,16.0,70,0.00,,---,0.00,VWS V14.00,2013-01-25 23:16:00,
2013-01-25 17:17:00,76.0,65.9,29.99,South,169,14.0,15.0,71,0.00,,---,0.00,VWS V14.00,2013-01-25 23:17:00,
2013-01-25 17:18:00,76.0,65.9,29.99,South,176,15.0,15.0,71,0.00,,---,0.00,VWS V14.00,2013-01-25 23:18:00,
2013-01-25 17:19:00,76.0,65.9,29.99,SSE,156,12.0,16.0,71,0.00,,---,0.00,VWS V14.00,2013-01-25 23:19:00,
2013-01-25 17:20:00,76.0,65.9,29.99,SSE,151,11.0,15.0,71,0.00,,---,0.00,VWS V14.00,2013-01-25 23:20:00,
2013-01-25 17:21:00,76.0,65.9,29.99,South,179,13.0,16.0,71,0.00,,---,0.00,VWS V14.00,2013-01-25 23:21:00,
2013-01-25 17:22:00,75.7,65.6,29.99,SSE,168,15.0,15.0,71,0.00,,---,0.00,VWS V14.00,2013-01-25 23:22:00,
2013-01-25 17:23:00,75.8,65.7,29.99,South,175,15.0,16.0,71,0.00,,---,0.00,VWS V14.00,2013-01-25 23:23:00,
2013-01-25 17:24:00,75.7,65.6,29.99,SSE,168,12.0,16.0,71,0.00,,---,0.00,VWS V14.00,2013-01-25 23:24:00,
2013-01-25 17:25:00,75.6,65.5,29.99,South,171,15.0,17.0,71,0.00,,---,0.00,VWS V14.00,2013-01-25 23:25:00,
2013-01-25 17:26:00,75.6,65.5,29.99,SSE,166,11.0,15.0,71,0.00,,---,0.00,VWS V14.00,2013-01-25 23:26:00,
2013-01-25 17:27:00,75.3,65.7,29.99,SSE,165,13.0,13.0,72,0.00,,---,0.00,VWS V14.00,2013-01-25 23:27:00,
2013-01-25 17:28:00,75.4,65.8,29.99,South,176,13.0,14.0,72,0.00,,---,0.00,VWS V14.00,2013-01-25 23:28:00,
2013-01-25 17:29:00,75.4,65.8,29.99,South,173,12.0,14.0,72,0.00,,---,0.00,VWS V14.00,2013-01-25 23:29:00,
2013-01-25 17:30:00,75.3,65.7,29.99,SSE,161,11.0,14.0,72,0.00,,---,0.00,VWS V14.00,2013-01-25 23:30:00,
2013-01-25 17:31:00,75.3,65.7,29.99,SSE,167,13.0,14.0,72,0.00,,---,0.00,VWS V14.00,2013-01-25 23:31:00,
2013-01-25 17:32:00,75.0,65.4,29.99,SSE,157,10.0,10.0,72,0.00,,---,0.00,VWS V14.00,2013-01-25 23:32:00,
2013-01-25 17:33:00,75.1,65.5,29.99,South,171,17.0,19.0,72,0.00,,---,0.00,VWS V14.00,2013-01-25 23:33:00,
2013-01-25 17:34:00,75.0,65.4,29.99,South,188,8.0,17.0,72,0.00,,---,0.00,VWS V14.00,2013-01-25 23:34:00,
2013-01-25 17:35:00,75.0,65.4,29.99,SSE,153,13.0,14.0,72,0.00,,---,0.00,VWS V14.00,2013-01-25 23:35:00,
2013-01-25 17:36:00,74.9,65.7,29.99,SSE,153,11.0,13.0,73,0.00,,---,0.00,VWS V14.00,2013-01-25 23:36:00,
2013-01-25 17:37:00,74.7,65.5,29.99,South,176,10.0,15.0,73,0.00,,---,0.00,VWS V14.00,2013-01-25 23:37:00,
2013-01-25 17:38:00,74.8,65.6,29.99,SSE,168,11.0,16.0,73,0.00,,---,0.00,VWS V14.00,2013-01-25 23:38:00,
2013-01-25 17:39:00,74.8,65.6,29.99,SSE,156,15.0,15.0,73,0.00,,---,0.00,VWS V14.00,2013-01-25 23:39:00,
2013-01-25 17:40:00,74.7,65.5,29.99,South,183,12.0,15.0,73,0.00,,---,0.00,VWS V14.00,2013-01-25 23:40:00,
2013-01-25 17:41:00,74.6,65.4,29.99,South,173,14.0,16.0,73,0.00,,---,0.00,VWS V14.00,2013-01-25 23:41:00,
2013-01-25 17:42:00,74.4,65.2,29.99,SSE,161,12.0,13.0,73,0.00,,---,0.00,VWS V14.00,2013-01-25 23:42:00,
2013-01-25 17:43:00,74.5,65.3,29.99,South,171,15.0,18.0,73,0.00,,---,0.00,VWS V14.00,2013-01-25 23:43:00,
2013-01-25 17:44:00,74.4,65.2,29.99,SSE,157,12.0,16.0,73,0.00,,---,0.00,VWS V14.00,2013-01-25 23:44:00,
2013-01-25 17:45:00,74.3,65.1,29.99,South,179,16.0,17.0,73,0.00,,---,0.00,VWS V14.00,2013-01-25 23:45:00,
2013-01-25 17:46:00,74.3,65.5,29.99,SSE,167,12.0,18.0,74,0.00,,---,0.00,VWS V14.00,2013-01-25 23:46:00,
2013-01-25 17:47:00,74.0,65.2,29.99,South,181,13.0,15.0,74,0.00,,---,0.00,VWS V14.00,2013-01-25 23:47:00,
2013-01-25 17:48:00,74.1,65.3,29.99,South,178,14.0,16.0,74,0.00,,---,0.00,VWS V14.00,2013-01-25 23:48:00,
2013-01-25 17:49:00,74.1,65.3,29.99,South,187,12.0,18.0,74,0.00,,---,0.00,VWS V14.00,2013-01-25 23:49:00,
2013-01-25 17:50:00,74.0,65.2,29.99,SSE,166,12.0,15.0,74,0.00,,---,0.00,VWS V14.00,2013-01-25 23:50:00,
2013-01-25 17:51:00,74.0,65.2,29.99,SSE,165,10.0,12.0,74,0.00,,---,0.00,VWS V14.00,2013-01-25 23:51:00,
2013-01-25 17:52:00,73.8,65.0,29.99,SSE,161,11.0,12.0,74,0.00,,---,0.00,VWS V14.00,2013-01-25 23:52:00,
2013-01-25 17:53:00,73.9,65.1,29.99,SSE,165,10.0,15.0,74,0.00,,---,0.00,VWS V14.00,2013-01-25 23:53:00,
2013-01-25 17:54:00,73.9,65.1,29.99,South,178,12.0,14.0,74,0.00,,---,0.00,VWS V14.00,2013-01-25 23:54:00,
2013-01-25 17:55:00,73.8,65.0,29.99,South,171,9.0,12.0,74,0.00,,---,0.00,VWS V14.00,2013-01-25 23:55:00,
2013-01-25 17:56:00,73.7,64.9,29.99,South,173,16.0,16.0,74,0.00,,---,0.00,VWS V14.00,2013-01-25 23:56:00,
2013-01-25 17:57:00,73.5,65.1,29.99,SSE,155,13.0,13.0,75,0.00,,---,0.00,VWS V14.00,2013-01-25 23:57:00,
2013-01-25 17:58:00,73.6,65.2,29.99,SSE,150,10.0,17.0,75,0.00,,---,0.00,VWS V14.00,2013-01-25 23:58:00,
2013-01-25 17:59:00,73.5,65.1,29.99,SSE,157,12.0,13.0,75,0.00,,---,0.00,VWS V14.00,2013-01-25 23:59:00,
2013-01-25 18:00:00,73.4,65.0,29.99,SSE,161,17.0,17.0,75,0.00,,---,0.00,VWS V14.00,2013-01-26 00:00:00,
2013-01-25 18:01:00,73.4,65.0,29.99,SSE,161,18.0,18.0,75,0.00,,---,0.00,VWS V14.00,2013-01-26 00:01:00,
2013-01-25 18:02:00,73.1,64.7,30.00,South,181,8.0,15.0,75,0.00,,---,0.00,VWS V14.00,2013-01-26 00:02:00,
2013-01-25 18:03:00,73.2,64.8,30.00,South,181,14.0,18.0,75,0.00,,---,0.00,VWS V14.00,2013-01-26 00:03:00,
2013-01-25 18:04:00,73.1,64.7,29.99,South,170,15.0,18.0,75,0.00,,---,0.00,VWS V14.00,2013-01-26 00:04:00,
2013-01-25 18:05:00,73.1,64.7,30.00,SSE,150,12.0,16.0,75,0.00,,---,0.00,VWS V14.00,2013-01-26 00:05:00,
2013-01-25 18:06:00,73.0,65.0,30.00,South,172,13.0,16.0,76,0.00,,---,0.00,VWS V14.00,2013-01-26 00:06:00,
2013-01-25 18:07:00,72.9,64.9,30.00,South,170,17.0,17.0,76,0.00,,---,0.00,VWS V14.00,2013-01-26 00:07:00,
2013-01-25 18:08:00,73.0,65.0,30.00,South,176,9.0,17.0,76,0.00,,---,0.00,VWS V14.00,2013-01-26 00:08:00,
2013-01-25 18:09:00,72.9,64.9,30.00,SSE,158,14.0,14.0,76,0.00,,---,0.00,VWS V14.00,2013-01-26 00:09:00,
2013-01-25 18:10:00,72.9,64.9,30.00,SSE,159,12.0,17.0,76,0.00,,---,0.00,VWS V14.00,2013-01-26 00:10:00,
2013-01-25 18:11:00,72.8,64.8,30.00,SSE,168,13.0,16.0,76,0.00,,---,0.00,VWS V14.00,2013-01-26 00:11:00,
2013-01-25 18:12:00,72.6,65.0,30.00,SSE,162,15.0,16.0,77,0.00,,---,0.00,VWS V14.00,2013-01-26 00:12:00,
2013-01-25 18:13:00,72.7,64.7,30.00,SSE,162,14.0,17.0,76,0.00,,---,0.00,VWS V14.00,2013-01-26 00:13:00,
2013-01-25 18:14:00,72.7,65.1,30.00,SSE,150,12.0,15.0,77,0.00,,---,0.00,VWS V14.00,2013-01-26 00:14:00,
2013-01-25 18:15:00,72.6,65.0,30.00,SSE,159,11.0,16.0,77,0.00,,---,0.00,VWS V14.00,2013-01-26 00:15:00,
2013-01-25 18:16:00,72.5,64.9,30.00,SSE,150,14.0,14.0,77,0.00,,---,0.00,VWS V14.00,2013-01-26 00:16:00,
2013-01-25 18:17:00,72.4,64.8,30.00,SSE,153,12.0,15.0,77,0.00,,---,0.00,VWS V14.00,2013-01-26 00:17:00,
2013-01-25 18:18:00,72.4,64.8,30.00,SSE,153,10.0,16.0,77,0.00,,---,0.00,VWS V14.00,2013-01-26 00:18:00,
2013-01-25 18:19:00,72.3,64.7,30.00,SE,141,15.0,15.0,77,0.00,,---,0.00,VWS V14.00,2013-01-26 00:19:00,
2013-01-25 18:20:00,72.3,64.7,30.00,SSE,164,11.0,15.0,77,0.00,,---,0.00,VWS V14.00,2013-01-26 00:20:00,
2013-01-25 18:21:00,72.3,64.7,30.00,SSE,159,13.0,14.0,77,0.00,,---,0.00,VWS V14.00,2013-01-26 00:21:00,
2013-01-25 18:22:00,72.1,64.9,30.00,South,180,12.0,16.0,78,0.00,,---,0.00,VWS V14.00,2013-01-26 00:22:00,
2013-01-25 18:23:00,72.2,65.0,30.00,SSE,162,17.0,18.0,78,0.00,,---,0.00,VWS V14.00,2013-01-26 00:23:00,
2013-01-25 18:24:00,72.2,65.0,30.00,South,170,10.0,16.0,78,0.00,,---,0.00,VWS V14.00,2013-01-26 00:24:00,
2013-01-25 18:25:00,72.1,64.9,30.00,SE,144,14.0,16.0,78,0.00,,---,0.00,VWS V14.00,2013-01-26 00:25:00,
2013-01-25 18:26:00,72.1,64.9,30.00,SSE,164,13.0,16.0,78,0.00,,---,0.00,VWS V14.00,2013-01-26 00:26:00,
2013-01-25 18:27:00,71.9,65.0,30.00,South,174,10.0,14.0,79,0.00,,---,0.00,VWS V14.00,2013-01-26 00:27:00,
2013-01-25 18:28:00,72.0,65.1,30.00,SSE,161,12.0,16.0,79,0.00,,---,0.00,VWS V14.00,2013-01-26 00:28:00,
2013-01-25 18:29:00,71.9,65.0,30.00,SSE,158,12.0,15.0,79,0.00,,---,0.00,VWS V14.00,2013-01-26 00:29:00,
2013-01-25 18:30:00,71.9,65.0,30.00,SSE,155,11.0,14.0,79,0.00,,---,0.00,VWS V14.00,2013-01-26 00:30:00,
2013-01-25 18:31:00,71.8,64.9,30.00,South,174,7.0,14.0,79,0.00,,---,0.00,VWS V14.00,2013-01-26 00:31:00,
2013-01-25 18:32:00,71.7,64.8,30.00,South,172,12.0,12.0,79,0.00,,---,0.00,VWS V14.00,2013-01-26 00:32:00,
2013-01-25 18:33:00,71.8,64.9,30.00,SSE,157,9.0,12.0,79,0.00,,---,0.00,VWS V14.00,2013-01-26 00:33:00,
2013-01-25 18:34:00,71.7,64.8,30.00,SSE,157,11.0,17.0,79,0.00,,---,0.00,VWS V14.00,2013-01-26 00:34:00,
2013-01-25 18:35:00,71.7,64.8,30.00,SSE,161,10.0,14.0,79,0.00,,---,0.00,VWS V14.00,2013-01-26 00:35:00,
2013-01-25 18:36:00,71.7,64.8,30.00,SSE,168,12.0,15.0,79,0.00,,---,0.00,VWS V14.00,2013-01-26 00:36:00,
2013-01-25 18:37:00,71.5,65.0,30.00,SSE,157,12.0,12.0,80,0.00,,---,0.00,VWS V14.00,2013-01-26 00:37:00,
2013-01-25 18:38:00,71.6,65.1,30.00,South,175,14.0,14.0,80,0.00,,---,0.00,VWS V14.00,2013-01-26 00:38:00,
2013-01-25 18:39:00,71.5,65.0,30.00,SSE,163,14.0,15.0,80,0.00,,---,0.00,VWS V14.00,2013-01-26 00:39:00,
2013-01-25 18:40:00,71.5,65.0,30.00,SSE,155,12.0,15.0,80,0.00,,---,0.00,VWS V14.00,2013-01-26 00:40:00,
2013-01-25 18:41:00,71.5,65.0,30.00,SSE,159,10.0,15.0,80,0.00,,---,0.00,VWS V14.00,2013-01-26 00:41:00,
2013-01-25 18:42:00,71.4,65.3,30.00,SSE,159,11.0,11.0,81,0.00,,---,0.00,VWS V14.00,2013-01-26 00:42:00,
2013-01-25 18:43:00,71.4,64.9,30.00,SSE,165,13.0,14.0,80,0.00,,---,0.00,VWS V14.00,2013-01-26 00:43:00,
2013-01-25 18:44:00,71.4,65.3,30.00,SSE,166,11.0,13.0,81,0.00,,---,0.00,VWS V14.00,2013-01-26 00:44:00,
2013-01-25 18:45:00,71.4,65.3,30.00,SE,144,10.0,14.0,81,0.00,,---,0.00,VWS V14.00,2013-01-26 00:45:00,
2013-01-25 18:46:00,71.3,65.2,30.00,SSE,153,14.0,16.0,81,0.00,,---,0.00,VWS V14.00,2013-01-26 00:46:00,
2013-01-25 18:47:00,71.3,65.2,30.00,South,177,12.0,14.0,81,0.00,,---,0.00,VWS V14.00,2013-01-26 00:47:00,
2013-01-25 18:48:00,71.3,65.2,30.00,SSE,162,16.0,17.0,81,0.00,,---,0.00,VWS V14.00,2013-01-26 00:48:00,
2013-01-25 18:49:00,71.3,65.2,30.00,SSE,159,13.0,16.0,81,0.00,,---,0.00,VWS V14.00,2013-01-26 00:49:00,
2013-01-25 18:50:00,71.3,65.2,30.00,South,170,12.0,15.0,81,0.00,,---,0.00,VWS V14.00,2013-01-26 00:50:00,
2013-01-25 18:51:00,71.2,65.1,30.00,SSE,157,9.0,13.0,81,0.00,,---,0.00,VWS V14.00,2013-01-26 00:51:00,
2013-01-25 18:52:00,71.2,65.1,30.00,SSE,165,16.0,17.0,81,0.00,,---,0.00,VWS V14.00,2013-01-26 00:52:00,
2013-01-25 18:53:00,71.2,65.1,30.00,SSE,151,9.0,17.0,81,0.00,,---,0.00,VWS V14.00,2013-01-26 00:53:00,
2013-01-25 18:54:00,71.2,65.1,30.00,South,175,12.0,15.0,81,0.00,,---,0.00,VWS V14.00,2013-01-26 00:54:00,
2013-01-25 18:55:00,71.2,65.1,30.00,SSE,155,12.0,17.0,81,0.00,,---,0.00,VWS V14.00,2013-01-26 00:55:00,
2013-01-25 18:56:00,71.1,65.0,30.00,SSE,150,12.0,17.0,81,0.00,,---,0.00,VWS V14.00,2013-01-26 00:56:00,
2013-01-25 18:57:00,71.1,65.3,30.00,SSE,166,10.0,12.0,82,0.00,,---,0.00,VWS V14.00,2013-01-26 00:57:00,
2013-01-25 18:58:00,71.1,65.3,30.00,South,177,16.0,16.0,82,0.00,,---,0.00,VWS V14.00,2013-01-26 00:58:00,
2013-01-25 18:59:00,71.1,65.3,30.00,SSE,165,8.0,16.0,82,0.00,,---,0.00,VWS V14.00,2013-01-26 00:59:00,
2013-01-25 19:00:00,71.1,65.3,30.00,SE,145,10.0,13.0,82,0.00,,---,0.00,VWS V14.00,2013-01-26 01:00:00,
2013-01-25 19:01:00,71.0,65.2,30.00,SSE,168,15.0,17.0,82,0.00,,---,0.00,VWS V14.00,2013-01-26 01:01:00,
2013-01-25 19:02:00,70.9,65.1,30.00,SSE,164,14.0,15.0,82,0.00,,---,0.00,VWS V14.00,2013-01-26 01:02:00,
2013-01-25 19:03:00,71.0,65.2,30.00,South,172,13.0,16.0,82,0.00,,---,0.00,VWS V14.00,2013-01-26 01:03:00,
2013-01-25 19:04:00,71.0,65.2,30.00,South,169,13.0,16.0,82,0.00,,---,0.00,VWS V14.00,2013-01-26 01:04:00,
2013-01-25 19:05:00,70.9,65.1,30.00,SSE,153,12.0,15.0,82,0.00,,---,0.00,VWS V14.00,2013-01-26 01:05:00,
2013-01-25 19:06:00,70.9,65.1,30.00,SSE,147,14.0,15.0,82,0.00,,---,0.00,VWS V14.00,2013-01-26 01:06:00,
2013-01-25 19:07:00,70.8,65.4,30.00,SSE,157,9.0,12.0,83,0.00,,---,0.00,VWS V14.00,2013-01-26 01:07:00,
2013-01-25 19:08:00,70.9,65.1,30.00,SSE,163,14.0,21.0,82,0.00,,---,0.00,VWS V14.00,2013-01-26 01:08:00,
2013-01-25 19:09:00,70.8,65.4,30.00,SSE,165,12.0,17.0,83,0.00,,---,0.00,VWS V14.00,2013-01-26 01:09:00,
2013-01-25 19:10:00,70.8,65.0,30.00,SSE,153,14.0,15.0,82,0.00,,---,0.00,VWS V14.00,2013-01-26 01:10:00,
2013-01-25 19:11:00,70.8,65.4,30.00,South,178,10.0,15.0,83,0.00,,---,0.00,VWS V14.00,2013-01-26 01:11:00,
2013-01-25 19:12:00,70.7,65.3,30.00,South,169,12.0,14.0,83,0.00,,---,0.00,VWS V14.00,2013-01-26 01:12:00,
2013-01-25 19:13:00,70.7,65.3,30.00,SSE,161,13.0,14.0,83,0.00,,---,0.00,VWS V14.00,2013-01-26 01:13:00,
2013-01-25 19:14:00,70.7,65.3,30.00,SSE,157,14.0,15.0,83,0.00,,---,0.00,VWS V14.00,2013-01-26 01:14:00,
2013-01-25 19:15:00,70.7,65.3,30.00,SSE,153,9.0,14.0,83,0.00,,---,0.00,VWS V14.00,2013-01-26 01:15:00,
2013-01-25 19:16:00,70.6,65.2,30.00,South,169,12.0,14.0,83,0.00,,---,0.00,VWS V14.00,2013-01-26 01:16:00,
2013-01-25 19:17:00,70.6,65.2,30.00,SSE,155,15.0,15.0,83,0.00,,---,0.00,VWS V14.00,2013-01-26 01:17:00,
2013-01-25 19:18:00,70.6,65.2,30.00,South,177,13.0,13.0,83,0.00,,---,0.00,VWS V14.00,2013-01-26 01:18:00,
2013-01-25 19:19:00,70.5,65.1,30.00,South,180,9.0,16.0,83,0.00,,---,0.00,VWS V14.00,2013-01-26 01:19:00,
2013-01-25 19:20:00,70.6,65.2,30.00,SSE,161,11.0,17.0,83,0.00,,---,0.00,VWS V14.00,2013-01-26 01:20:00,
2013-01-25 19:21:00,70.5,65.1,30.00,SSE,160,11.0,15.0,83,0.00,,---,0.00,VWS V14.00,2013-01-26 01:21:00,
2013-01-25 19:22:00,70.4,65.0,30.01,SSE,158,10.0,13.0,83,0.00,,---,0.00,VWS V14.00,2013-01-26 01:22:00,
2013-01-25 19:23:00,70.5,65.1,30.00,SSE,154,12.0,15.0,83,0.00,,---,0.00,VWS V14.00,2013-01-26 01:23:00,
2013-01-25 19:24:00,70.4,65.0,30.00,SSE,161,9.0,15.0,83,0.00,,---,0.00,VWS V14.00,2013-01-26 01:24:00,
2013-01-25 19:25:00,70.4,65.0,30.01,SSE,157,13.0,16.0,83,0.00,,---,0.00,VWS V14.00,2013-01-26 01:25:00,
2013-01-25 19:26:00,70.4,65.0,30.00,SSE,159,15.0,18.0,83,0.00,,---,0.00,VWS V14.00,2013-01-26 01:26:00,
2013-01-25 19:27:00,70.3,65.2,30.01,SSE,157,13.0,13.0,84,0.00,,---,0.00,VWS V14.00,2013-01-26 01:27:00,
2013-01-25 19:28:00,70.4,65.0,30.00,SSE,167,18.0,18.0,83,0.00,,---,0.00,VWS V14.00,2013-01-26 01:28:00,
2013-01-25 19:29:00,70.4,65.3,30.00,SE,146,12.0,18.0,84,0.00,,---,0.00,VWS V14.00,2013-01-26 01:29:00,
2013-01-25 19:30:00,70.3,65.2,30.01,SSE,155,13.0,16.0,84,0.00,,---,0.00,VWS V14.00,2013-01-26 01:30:00,
2013-01-25 19:31:00,70.3,65.2,30.00,SSE,163,11.0,14.0,84,0.00,,---,0.00,VWS V14.00,2013-01-26 01:31:00,
2013-01-25 19:32:00,70.3,65.2,30.00,SSE,159,15.0,17.0,84,0.00,,---,0.00,VWS V14.00,2013-01-26 01:32:00,
2013-01-25 19:33:00,70.3,65.2,30.00,SSE,167,8.0,15.0,84,0.00,,---,0.00,VWS V14.00,2013-01-26 01:33:00,
2013-01-25 19:34:00,70.3,65.2,30.00,SSE,159,16.0,16.0,84,0.00,,---,0.00,VWS V14.00,2013-01-26 01:34:00,
2013-01-25 19:35:00,70.3,65.2,30.00,SE,146,15.0,17.0,84,0.00,,---,0.00,VWS V14.00,2013-01-26 01:35:00,
2013-01-25 19:36:00,70.3,65.2,30.00,SSE,163,12.0,16.0,84,0.00,,---,0.00,VWS V14.00,2013-01-26 01:36:00,
2013-01-25 19:37:00,70.3,65.2,30.00,SSE,164,14.0,15.0,84,0.00,,---,0.00,VWS V14.00,2013-01-26 01:37:00,
2013-01-25 19:38:00,70.3,65.2,30.00,SSE,163,10.0,17.0,84,0.00,,---,0.00,VWS V14.00,2013-01-26 01:38:00,
2013-01-25 19:39:00,70.3,65.2,30.00,SSE,167,14.0,18.0,84,0.00,,---,0.00,VWS V14.00,2013-01-26 01:39:00,
2013-01-25 19:40:00,70.2,65.1,30.00,SE,145,13.0,15.0,84,0.00,,---,0.00,VWS V14.00,2013-01-26 01:40:00,
2013-01-25 19:41:00,70.3,65.2,30.00,SSE,163,12.0,17.0,84,0.00,,---,0.00,VWS V14.00,2013-01-26 01:41:00,
2013-01-25 19:42:00,70.2,65.5,30.00,SSE,160,15.0,15.0,85,0.00,,---,0.00,VWS V14.00,2013-01-26 01:42:00,
2013-01-25 19:43:00,70.2,65.5,30.00,SSE,158,15.0,16.0,85,0.00,,---,0.00,VWS V14.00,2013-01-26 01:43:00,
2013-01-25 19:44:00,70.2,65.5,30.00,SSE,157,10.0,17.0,85,0.00,,---,0.00,VWS V14.00,2013-01-26 01:44:00,
2013-01-25 19:45:00,70.2,65.5,30.00,SSE,150,15.0,16.0,85,0.00,,---,0.00,VWS V14.00,2013-01-26 01:45:00,
2013-01-25 19:46:00,70.2,65.5,30.00,SSE,159,15.0,17.0,85,0.00,,---,0.00,VWS V14.00,2013-01-26 01:46:00,
2013-01-25 19:47:00,70.2,65.5,30.00,South,170,12.0,14.0,85,0.00,,---,0.00,VWS V14.00,2013-01-26 01:47:00,
2013-01-25 19:48:00,70.2,65.5,30.00,SSE,165,13.0,17.0,85,0.00,,---,0.00,VWS V14.00,2013-01-26 01:48:00,
2013-01-25 19:49:00,70.2,65.5,30.00,South,179,14.0,15.0,85,0.00,,---,0.00,VWS V14.00,2013-01-26 01:49:00,
2013-01-25 19:50:00,70.1,65.4,30.00,SSE,159,15.0,16.0,85,0.00,,---,0.00,VWS V14.00,2013-01-26 01:50:00,
2013-01-25 19:51:00,70.2,65.5,30.00,SSE,156,12.0,20.0,85,0.00,,---,0.00,VWS V14.00,2013-01-26 01:51:00,
2013-01-25 19:52:00,70.1,65.4,30.01,SSE,163,8.0,13.0,85,0.00,,---,0.00,VWS V14.00,2013-01-26 01:52:00,
2013-01-25 19:53:00,70.1,65.4,30.00,SSE,162,11.0,16.0,85,0.00,,---,0.00,VWS V14.00,2013-01-26 01:53:00,
2013-01-25 19:54:00,70.1,65.4,30.00,South,169,13.0,16.0,85,0.00,,---,0.00,VWS V14.00,2013-01-26 01:54:00,
2013-01-25 19:55:00,70.1,65.4,30.01,South,175,13.0,16.0,85,0.00,,---,0.00,VWS V14.00,2013-01-26 01:55:00,
2013-01-25 19:56:00,70.1,65.4,30.01,SSE,149,11.0,18.0,85,0.00,,---,0.00,VWS V14.00,2013-01-26 01:56:00,
2013-01-25 19:57:00,70.0,65.3,30.00,South,170,15.0,17.0,85,0.00,,---,0.00,VWS V14.00,2013-01-26 01:57:00,
2013-01-25 19:58:00,70.0,65.3,30.01,SSE,154,14.0,14.0,85,0.00,,---,0.00,VWS V14.00,2013-01-26 01:58:00,
2013-01-25 19:59:00,70.0,65.3,30.01,South,175,17.0,17.0,85,0.00,,---,0.00,VWS V14.00,2013-01-26 01:59:00,
2013-01-25 20:00:00,70.0,65.3,30.00,SSE,157,12.0,17.0,85,0.00,,---,0.00,VWS V14.00,2013-01-26 02:00:00,
2013-01-25 20:01:00,70.0,65.3,30.01,SSE,161,11.0,16.0,85,0.00,,---,0.00,VWS V14.00,2013-01-26 02:01:00,
2013-01-25 20:02:00,69.9,65.2,30.01,SE,146,10.0,13.0,85,0.00,,---,0.00,VWS V14.00,2013-01-26 02:02:00,
2013-01-25 20:03:00,69.9,65.2,30.01,SE,146,12.0,18.0,85,0.00,,---,0.00,VWS V14.00,2013-01-26 02:03:00,
2013-01-25 20:04:00,70.0,65.3,30.01,SSE,167,13.0,17.0,85,0.00,,---,0.00,VWS V14.00,2013-01-26 02:04:00,
2013-01-25 20:05:00,70.0,65.6,30.01,SSE,161,20.0,20.0,86,0.00,,---,0.00,VWS V14.00,2013-01-26 02:05:00,
2013-01-25 20:06:00,70.0,65.6,30.01,SSE,159,10.0,20.0,86,0.00,,---,0.00,VWS V14.00,2013-01-26 02:06:00,
2013-01-25 20:07:00,69.9,65.5,30.01,SSE,158,14.0,14.0,86,0.00,,---,0.00,VWS V14.00,2013-01-26 02:07:00,
2013-01-25 20:08:00,69.9,65.2,30.01,SSE,167,9.0,14.0,85,0.00,,---,0.00,VWS V14.00,2013-01-26 02:08:00,
2013-01-25 20:09:00,69.9,65.5,30.01,SSE,155,14.0,18.0,86,0.00,,---,0.00,VWS V14.00,2013-01-26 02:09:00,
2013-01-25 20:10:00,69.9,65.5,30.01,SSE,157,12.0,17.0,86,0.00,,---,0.00,VWS V14.00,2013-01-26 02:10:00,
2013-01-25 20:11:00,69.9,65.5,30.01,SSE,159,12.0,15.0,86,0.00,,---,0.00,VWS V14.00,2013-01-26 02:11:00,
2013-01-25 20:12:00,69.9,65.5,30.01,SSE,150,9.0,17.0,86,0.00,,---,0.00,VWS V14.00,2013-01-26 02:12:00,
2013-01-25 20:13:00,69.9,65.5,30.01,SSE,158,11.0,15.0,86,0.00,,---,0.00,VWS V14.00,2013-01-26 02:13:00,
2013-01-25 20:14:00,69.9,65.5,30.01,South,173,15.0,16.0,86,0.00,,---,0.00,VWS V14.00,2013-01-26 02:14:00,
2013-01-25 20:15:00,69.9,65.5,30.01,SSE,148,13.0,15.0,86,0.00,,---,0.00,VWS V14.00,2013-01-26 02:15:00,
2013-01-25 20:16:00,69.8,65.4,30.01,SSE,150,12.0,14.0,86,0.00,,---,0.00,VWS V14.00,2013-01-26 02:16:00,
2013-01-25 20:17:00,69.8,65.4,30.01,South,175,17.0,17.0,86,0.00,,---,0.00,VWS V14.00,2013-01-26 02:17:00,
2013-01-25 20:18:00,69.8,65.4,30.01,SSE,161,15.0,19.0,86,0.00,,---,0.00,VWS V14.00,2013-01-26 02:18:00,
2013-01-25 20:19:00,69.8,65.4,30.01,SSE,159,12.0,19.0,86,0.00,,---,0.00,VWS V14.00,2013-01-26 02:19:00,
2013-01-25 20:20:00,69.8,65.4,30.01,South,175,13.0,18.0,86,0.00,,---,0.00,VWS V14.00,2013-01-26 02:20:00,
2013-01-25 20:21:00,69.8,65.4,30.01,SSE,153,15.0,15.0,86,0.00,,---,0.00,VWS V14.00,2013-01-26 02:21:00,
2013-01-25 20:22:00,69.8,65.4,30.01,SSE,157,16.0,16.0,86,0.00,,---,0.00,VWS V14.00,2013-01-26 02:22:00,
2013-01-25 20:23:00,69.9,65.5,30.01,South,170,9.0,18.0,86,0.00,,---,0.00,VWS V14.00,2013-01-26 02:23:00,
2013-01-25 20:24:00,69.8,65.4,30.01,SSE,163,14.0,15.0,86,0.00,,---,0.00,VWS V14.00,2013-01-26 02:24:00,
2013-01-25 20:25:00,69.8,65.4,30.01,SSE,161,12.0,17.0,86,0.00,,---,0.00,VWS V14.00,2013-01-26 02:25:00,
2013-01-25 20:26:00,69.9,65.5,30.01,South,171,16.0,20.0,86,0.00,,---,0.00,VWS V14.00,2013-01-26 02:26:00,
2013-01-25 20:27:00,69.8,65.4,30.01,SSE,159,12.0,14.0,86,0.00,,---,0.00,VWS V14.00,2013-01-26 02:27:00,
2013-01-25 20:28:00,69.9,65.5,30.01,SSE,153,13.0,17.0,86,0.00,,---,0.00,VWS V14.00,2013-01-26 02:28:00,
2013-01-25 20:29:00,69.8,65.4,30.01,SSE,164,14.0,16.0,86,0.00,,---,0.00,VWS V14.00,2013-01-26 02:29:00,
2013-01-25 20:30:00,69.8,65.4,30.01,SSE,155,13.0,15.0,86,0.00,,---,0.00,VWS V14.00,2013-01-26 02:30:00,
2013-01-25 20:31:00,69.8,65.4,30.01,SSE,161,12.0,16.0,86,0.00,,---,0.00,VWS V14.00,2013-01-26 02:31:00,
2013-01-25 20:32:00,69.7,65.3,30.01,SSE,157,11.0,13.0,86,0.00,,---,0.00,VWS V14.00,2013-01-26 02:32:00,
2013-01-25 20:33:00,69.7,65.3,30.01,SSE,155,10.0,16.0,86,0.00,,---,0.00,VWS V14.00,2013-01-26 02:33:00,
2013-01-25 20:34:00,69.7,65.3,30.01,SSE,157,11.0,14.0,86,0.00,,---,0.00,VWS V14.00,2013-01-26 02:34:00,
2013-01-25 20:35:00,69.7,65.3,30.01,SSE,147,11.0,14.0,86,0.00,,---,0.00,VWS V14.00,2013-01-26 02:35:00,
2013-01-25 20:36:00,69.7,65.3,30.01,SSE,152,11.0,15.0,86,0.00,,---,0.00,VWS V14.00,2013-01-26 02:36:00,
2013-01-25 20:37:00,69.6,65.2,30.01,SSE,158,15.0,15.0,86,0.00,,---,0.00,VWS V14.00,2013-01-26 02:37:00,
2013-01-25 20:38:00,69.6,65.2,30.01,South,170,11.0,14.0,86,0.00,,---,0.00,VWS V14.00,2013-01-26 02:38:00,
2013-01-25 20:39:00,69.6,65.2,30.01,South,169,13.0,17.0,86,0.00,,---,0.00,VWS V14.00,2013-01-26 02:39:00,
2013-01-25 20:40:00,69.6,65.2,30.01,SSE,161,12.0,15.0,86,0.00,,---,0.00,VWS V14.00,2013-01-26 02:40:00,
2013-01-25 20:41:00,69.6,65.2,30.01,SSE,164,16.0,17.0,86,0.00,,---,0.00,VWS V14.00,2013-01-26 02:41:00,
2013-01-25 20:42:00,69.7,65.3,30.01,SSE,162,15.0,19.0,86,0.00,,---,0.00,VWS V14.00,2013-01-26 02:42:00,
2013-01-25 20:43:00,69.7,65.3,30.01,SE,144,10.0,17.0,86,0.00,,---,0.00,VWS V14.00,2013-01-26 02:43:00,
2013-01-25 20:44:00,69.7,65.3,30.01,SSE,151,16.0,19.0,86,0.00,,---,0.00,VWS V14.00,2013-01-26 02:44:00,
2013-01-25 20:45:00,69.7,65.3,30.01,SSE,166,13.0,19.0,86,0.00,,---,0.00,VWS V14.00,2013-01-26 02:45:00,
2013-01-25 20:46:00,69.7,65.3,30.01,SSE,165,10.0,15.0,86,0.00,,---,0.00,VWS V14.00,2013-01-26 02:46:00,
2013-01-25 20:47:00,69.6,65.2,30.01,SSE,152,11.0,11.0,86,0.00,,---,0.00,VWS V14.00,2013-01-26 02:47:00,
2013-01-25 20:48:00,69.6,65.2,30.01,South,171,11.0,15.0,86,0.00,,---,0.00,VWS V14.00,2013-01-26 02:48:00,
2013-01-25 20:49:00,69.6,65.2,30.01,South,171,11.0,13.0,86,0.00,,---,0.00,VWS V14.00,2013-01-26 02:49:00,
2013-01-25 20:50:00,69.6,65.2,30.01,SSE,164,12.0,15.0,86,0.00,,---,0.00,VWS V14.00,2013-01-26 02:50:00,
2013-01-25 20:51:00,69.6,65.2,30.01,SSE,160,11.0,15.0,86,0.00,,---,0.00,VWS V14.00,2013-01-26 02:51:00,
2013-01-25 20:52:00,69.5,65.1,30.01,SSE,162,8.0,10.0,86,0.00,,---,0.00,VWS V14.00,2013-01-26 02:52:00,
2013-01-25 20:53:00,69.6,65.2,30.01,SSE,168,12.0,13.0,86,0.00,,---,0.00,VWS V14.00,2013-01-26 02:53:00,
2013-01-25 20:54:00,69.5,65.1,30.01,South,171,12.0,16.0,86,0.00,,---,0.00,VWS V14.00,2013-01-26 02:54:00,
2013-01-25 20:55:00,69.5,65.1,30.01,SSE,159,13.0,17.0,86,0.00,,---,0.00,VWS V14.00,2013-01-26 02:55:00,
2013-01-25 20:56:00,69.5,65.1,30.01,SSE,161,15.0,16.0,86,0.00,,---,0.00,VWS V14.00,2013-01-26 02:56:00,
2013-01-25 20:57:00,69.5,65.1,30.01,South,169,14.0,15.0,86,0.00,,---,0.00,VWS V14.00,2013-01-26 02:57:00,
2013-01-25 20:58:00,69.5,65.1,30.01,SE,134,12.0,15.0,86,0.00,,---,0.00,VWS V14.00,2013-01-26 02:58:00,
2013-01-25 20:59:00,69.5,65.1,30.01,SSE,166,14.0,15.0,86,0.00,,---,0.00,VWS V14.00,2013-01-26 02:59:00,
2013-01-25 21:00:00,69.5,65.1,30.01,South,176,11.0,16.0,86,0.00,,---,0.00,VWS V14.00,2013-01-26 03:00:00,
2013-01-25 21:01:00,69.5,65.1,30.01,South,176,7.0,15.0,86,0.00,,---,0.00,VWS V14.00,2013-01-26 03:01:00,
2013-01-25 21:02:00,69.5,65.1,30.01,SSE,167,9.0,11.0,86,0.00,,---,0.00,VWS V14.00,2013-01-26 03:02:00,
2013-01-25 21:03:00,69.5,65.5,30.01,South,172,13.0,19.0,87,0.00,,---,0.00,VWS V14.00,2013-01-26 03:03:00,
2013-01-25 21:04:00,69.5,65.1,30.01,South,171,11.0,17.0,86,0.00,,---,0.00,VWS V14.00,2013-01-26 03:04:00,
2013-01-25 21:05:00,69.5,65.1,30.01,South,179,13.0,16.0,86,0.00,,---,0.00,VWS V14.00,2013-01-26 03:05:00,
2013-01-25 21:06:00,69.5,65.1,30.01,SSE,167,15.0,17.0,86,0.00,,---,0.00,VWS V14.00,2013-01-26 03:06:00,
2013-01-25 21:07:00,69.5,65.5,30.01,SSE,168,14.0,15.0,87,0.00,,---,0.00,VWS V14.00,2013-01-26 03:07:00,
2013-01-25 21:08:00,69.5,65.5,30.01,South,175,16.0,19.0,87,0.00,,---,0.00,VWS V14.00,2013-01-26 03:08:00,
2013-01-25 21:09:00,69.5,65.5,30.01,SSE,163,13.0,16.0,87,0.00,,---,0.00,VWS V14.00,2013-01-26 03:09:00,
2013-01-25 21:10:00,69.4,65.0,30.01,SSE,161,15.0,17.0,86,0.00,,---,0.00,VWS V14.00,2013-01-26 03:10:00,
2013-01-25 21:11:00,69.5,65.1,30.01,South,173,13.0,17.0,86,0.00,,---,0.00,VWS V14.00,2013-01-26 03:11:00,
2013-01-25 21:12:00,69.4,65.0,30.01,South,170,13.0,15.0,86,0.00,,---,0.00,VWS V14.00,2013-01-26 03:12:00,
2013-01-25 21:13:00,69.4,65.4,30.01,SSE,167,13.0,14.0,87,0.00,,---,0.00,VWS V14.00,2013-01-26 03:13:00,
2013-01-25 21:14:00,69.4,65.0,30.01,SSE,163,10.0,14.0,86,0.00,,---,0.00,VWS V14.00,2013-01-26 03:14:00,
2013-01-25 21:15:00,69.4,65.0,30.01,South,184,12.0,15.0,86,0.00,,---,0.00,VWS V14.00,2013-01-26 03:15:00,
2013-01-25 21:16:00,69.4,65.4,30.01,SSE,162,13.0,18.0,87,0.00,,---,0.00,VWS V14.00,2013-01-26 03:16:00,
2013-01-25 21:17:00,69.4,65.4,30.01,South,171,14.0,16.0,87,0.00,,---,0.00,VWS V14.00,2013-01-26 03:17:00,
2013-01-25 21:18:00,69.4,65.4,30.01,South,188,9.0,15.0,87,0.00,,---,0.00,VWS V14.00,2013-01-26 03:18:00,
2013-01-25 21:19:00,69.4,65.4,30.01,South,173,14.0,18.0,87,0.00,,---,0.00,VWS V14.00,2013-01-26 03:19:00,
2013-01-25 21:20:00,69.5,65.5,30.01,SSE,163,12.0,16.0,87,0.00,,---,0.00,VWS V14.00,2013-01-26 03:20:00,
2013-01-25 21:21:00,69.4,65.0,30.01,South,175,11.0,16.0,86,0.00,,---,0.00,VWS V14.00,2013-01-26 03:21:00,
2013-01-25 21:22:00,69.5,65.5,30.01,South,171,14.0,16.0,87,0.00,,---,0.00,VWS V14.00,2013-01-26 03:22:00,
2013-01-25 21:23:00,69.4,65.0,30.01,South,180,15.0,17.0,86,0.00,,---,0.00,VWS V14.00,2013-01-26 03:23:00,
2013-01-25 21:24:00,69.5,65.5,30.01,SSE,164,16.0,18.0,87,0.00,,---,0.00,VWS V14.00,2013-01-26 03:24:00,
2013-01-25 21:25:00,69.5,65.1,30.01,South,179,14.0,16.0,86,0.00,,---,0.00,VWS V14.00,2013-01-26 03:25:00,
2013-01-25 21:26:00,69.5,65.1,30.01,SSE,159,10.0,17.0,86,0.00,,---,0.00,VWS V14.00,2013-01-26 03:26:00,
2013-01-25 21:27:00,69.4,65.4,30.02,South,182,12.0,13.0,87,0.00,,---,0.00,VWS V14.00,2013-01-26 03:27:00,
2013-01-25 21:28:00,69.5,65.1,30.01,South,176,14.0,15.0,86,0.00,,---,0.00,VWS V14.00,2013-01-26 03:28:00,
2013-01-25 21:29:00,69.4,65.0,30.02,South,182,13.0,17.0,86,0.00,,---,0.00,VWS V14.00,2013-01-26 03:29:00,
2013-01-25 21:30:00,69.5,65.5,30.02,SSE,168,12.0,17.0,87,0.00,,---,0.00,VWS V14.00,2013-01-26 03:30:00,
2013-01-25 21:31:00,69.4,65.0,30.02,South,187,11.0,14.0,86,0.00,,---,0.00,VWS V14.00,2013-01-26 03:31:00,
2013-01-25 21:32:00,69.3,65.3,30.02,South,171,10.0,13.0,87,0.00,,---,0.00,VWS V14.00,2013-01-26 03:32:00,
2013-01-25 21:33:00,69.4,65.0,30.02,South,181,12.0,16.0,86,0.00,,---,0.00,VWS V14.00,2013-01-26 03:33:00,
2013-01-25 21:34:00,69.4,65.4,30.02,South,172,13.0,14.0,87,0.00,,---,0.00,VWS V14.00,2013-01-26 03:34:00,
2013-01-25 21:35:00,69.4,65.4,30.02,SSE,168,9.0,16.0,87,0.00,,---,0.00,VWS V14.00,2013-01-26 03:35:00,
2013-01-25 21:36:00,69.4,65.4,30.02,South,180,11.0,15.0,87,0.00,,---,0.00,VWS V14.00,2013-01-26 03:36:00,
2013-01-25 21:37:00,69.3,65.3,30.02,SSW,195,9.0,9.0,87,0.00,,---,0.00,VWS V14.00,2013-01-26 03:37:00,
2013-01-25 21:38:00,69.4,65.4,30.02,South,183,11.0,16.0,87,0.00,,---,0.00,VWS V14.00,2013-01-26 03:38:00,
2013-01-25 21:39:00,69.3,65.3,30.02,South,171,7.0,13.0,87,0.00,,---,0.00,VWS V14.00,2013-01-26 03:39:00,
2013-01-25 21:40:00,69.3,65.3,30.02,South,170,10.0,13.0,87,0.00,,---,0.00,VWS V14.00,2013-01-26 03:40:00,
2013-01-25 21:41:00,69.3,64.9,30.02,South,171,12.0,13.0,86,0.00,,---,0.00,VWS V14.00,2013-01-26 03:41:00,
2013-01-25 21:42:00,69.3,65.3,30.02,North,360,16.0,16.0,87,0.00,,---,0.00,VWS V14.00,2013-01-26 03:42:00,
2013-01-25 21:43:00,69.2,65.2,30.02,SSE,167,11.0,16.0,87,0.00,,---,0.00,VWS V14.00,2013-01-26 03:43:00,
2013-01-25 21:44:00,69.3,65.3,30.02,South,177,15.0,16.0,87,0.00,,---,0.00,VWS V14.00,2013-01-26 03:44:00,
2013-01-25 21:45:00,69.3,65.3,30.02,South,176,9.0,16.0,87,0.00,,---,0.00,VWS V14.00,2013-01-26 03:45:00,
2013-01-25 21:46:00,69.3,65.3,30.02,South,169,10.0,16.0,87,0.00,,---,0.00,VWS V14.00,2013-01-26 03:46:00,
2013-01-25 21:47:00,69.2,65.2,30.02,SSE,167,7.0,10.0,87,0.00,,---,0.00,VWS V14.00,2013-01-26 03:47:00,
2013-01-25 21:48:00,69.3,65.3,30.02,South,169,10.0,13.0,87,0.00,,---,0.00,VWS V14.00,2013-01-26 03:48:00,
2013-01-25 21:49:00,69.2,65.2,30.02,South,184,9.0,13.0,87,0.00,,---,0.00,VWS V14.00,2013-01-26 03:49:00,
2013-01-25 21:50:00,69.2,65.2,30.02,South,184,8.0,11.0,87,0.00,,---,0.00,VWS V14.00,2013-01-26 03:50:00,
2013-01-25 21:51:00,69.2,65.2,30.02,South,184,15.0,18.0,87,0.00,,---,0.00,VWS V14.00,2013-01-26 03:51:00,
2013-01-25 21:52:00,69.3,65.3,30.02,South,178,14.0,14.0,87,0.00,,---,0.00,VWS V14.00,2013-01-26 03:52:00,
2013-01-25 21:53:00,69.3,65.3,30.02,South,181,9.0,14.0,87,0.00,,---,0.00,VWS V14.00,2013-01-26 03:53:00,
2013-01-25 21:54:00,69.3,65.3,30.02,South,191,13.0,13.0,87,0.00,,---,0.00,VWS V14.00,2013-01-26 03:54:00,
2013-01-25 21:55:00,69.3,65.3,30.02,South,178,9.0,15.0,87,0.00,,---,0.00,VWS V14.00,2013-01-26 03:55:00,
2013-01-25 21:56:00,69.3,65.3,30.02,SSE,168,10.0,17.0,87,0.00,,---,0.00,VWS V14.00,2013-01-26 03:56:00,
2013-01-25 21:57:00,69.2,65.2,30.02,SSE,168,9.0,11.0,87,0.00,,---,0.00,VWS V14.00,2013-01-26 03:57:00,
2013-01-25 21:58:00,69.3,65.3,30.02,South,174,14.0,14.0,87,0.00,,---,0.00,VWS V14.00,2013-01-26 03:58:00,
2013-01-25 21:59:00,69.2,65.2,30.02,South,173,11.0,15.0,87,0.00,,---,0.00,VWS V14.00,2013-01-26 03:59:00,
2013-01-25 22:00:00,69.3,65.3,30.02,SSW,192,14.0,16.0,87,0.00,,---,0.00,VWS V14.00,2013-01-26 04:00:00,
2013-01-25 22:01:00,69.3,65.3,30.02,South,188,7.0,13.0,87,0.00,,---,0.00,VWS V14.00,2013-01-26 04:01:00,
2013-01-25 22:02:00,69.2,65.2,30.02,South,182,10.0,13.0,87,0.00,,---,0.00,VWS V14.00,2013-01-26 04:02:00,
2013-01-25 22:03:00,69.2,65.2,30.02,South,177,11.0,12.0,87,0.00,,---,0.00,VWS V14.00,2013-01-26 04:03:00,
2013-01-25 22:04:00,69.2,65.2,30.02,South,185,12.0,12.0,87,0.00,,---,0.00,VWS V14.00,2013-01-26 04:04:00,
2013-01-25 22:05:00,69.2,65.2,30.02,South,173,9.0,13.0,87,0.00,,---,0.00,VWS V14.00,2013-01-26 04:05:00,
2013-01-25 22:06:00,69.2,65.2,30.02,South,170,12.0,13.0,87,0.00,,---,0.00,VWS V14.00,2013-01-26 04:06:00,
2013-01-25 22:07:00,69.2,65.2,30.03,South,190,10.0,12.0,87,0.00,,---,0.00,VWS V14.00,2013-01-26 04:07:00,
2013-01-25 22:08:00,69.2,65.2,30.02,SSE,165,13.0,15.0,87,0.00,,---,0.00,VWS V14.00,2013-01-26 04:08:00,
2013-01-25 22:09:00,69.2,65.2,30.03,South,184,12.0,15.0,87,0.00,,---,0.00,VWS V14.00,2013-01-26 04:09:00,
2013-01-25 22:10:00,69.2,65.2,30.03,South,173,12.0,13.0,87,0.00,,---,0.00,VWS V14.00,2013-01-26 04:10:00,
2013-01-25 22:11:00,69.2,65.2,30.03,South,182,7.0,14.0,87,0.00,,---,0.00,VWS V14.00,2013-01-26 04:11:00,
2013-01-25 22:12:00,69.2,65.2,30.03,South,177,14.0,15.0,87,0.00,,---,0.00,VWS V14.00,2013-01-26 04:12:00,
2013-01-25 22:13:00,69.2,65.2,30.03,SSW,196,10.0,19.0,87,0.00,,---,0.00,VWS V14.00,2013-01-26 04:13:00,
2013-01-25 22:14:00,69.2,65.2,30.03,South,180,13.0,17.0,87,0.00,,---,0.00,VWS V14.00,2013-01-26 04:14:00,
2013-01-25 22:15:00,69.2,65.2,30.03,South,174,9.0,15.0,87,0.00,,---,0.00,VWS V14.00,2013-01-26 04:15:00,
2013-01-25 22:16:00,69.2,65.2,30.03,South,169,11.0,14.0,87,0.00,,---,0.00,VWS V14.00,2013-01-26 04:16:00,
2013-01-25 22:17:00,69.1,65.1,30.03,South,184,10.0,11.0,87,0.00,,---,0.00,VWS V14.00,2013-01-26 04:17:00,
2013-01-25 22:18:00,69.1,65.1,30.03,South,175,10.0,12.0,87,0.00,,---,0.00,VWS V14.00,2013-01-26 04:18:00,
2013-01-25 22:19:00,69.1,65.1,30.03,South,186,11.0,15.0,87,0.00,,---,0.00,VWS V14.00,2013-01-26 04:19:00,
2013-01-25 22:20:00,69.1,65.1,30.03,South,171,12.0,12.0,87,0.00,,---,0.00,VWS V14.00,2013-01-26 04:20:00,
2013-01-25 22:21:00,69.1,65.1,30.03,South,175,10.0,13.0,87,0.00,,---,0.00,VWS V14.00,2013-01-26 04:21:00,
2013-01-25 22:22:00,69.1,65.1,30.03,South,188,10.0,13.0,87,0.00,,---,0.00,VWS V14.00,2013-01-26 04:22:00,
2013-01-25 22:23:00,69.1,65.1,30.03,SSW,194,12.0,13.0,87,0.00,,---,0.00,VWS V14.00,2013-01-26 04:23:00,
2013-01-25 22:24:00,69.0,65.0,30.03,South,183,13.0,13.0,87,0.00,,---,0.00,VWS V14.00,2013-01-26 04:24:00,
2013-01-25 22:26:00,69.1,65.4,30.04,South,170,12.0,14.0,88,0.00,,---,0.00,VWS V14.00,2013-01-26 04:26:00,
2013-01-25 22:27:00,69.1,65.4,30.04,South,186,10.0,13.0,88,0.00,,---,0.00,VWS V14.00,2013-01-26 04:27:00,
2013-01-25 22:28:00,69.1,65.4,30.04,South,188,11.0,14.0,88,0.00,,---,0.00,VWS V14.00,2013-01-26 04:28:00,
2013-01-25 22:29:00,69.1,65.4,30.04,South,175,13.0,14.0,88,0.00,,---,0.00,VWS V14.00,2013-01-26 04:29:00,
2013-01-25 22:30:00,69.1,65.4,30.04,SSW,192,12.0,15.0,88,0.00,,---,0.00,VWS V14.00,2013-01-26 04:30:00,
2013-01-25 22:31:00,69.1,65.4,30.04,South,175,11.0,15.0,88,0.00,,---,0.00,VWS V14.00,2013-01-26 04:31:00,
2013-01-25 22:32:00,69.1,65.4,30.04,SSW,192,15.0,15.0,88,0.00,,---,0.00,VWS V14.00,2013-01-26 04:32:00,
2013-01-25 22:33:00,69.1,65.4,30.04,South,180,12.0,14.0,88,0.00,,---,0.00,VWS V14.00,2013-01-26 04:33:00,
2013-01-25 22:34:00,69.1,65.4,30.04,South,188,13.0,15.0,88,0.00,,---,0.00,VWS V14.00,2013-01-26 04:34:00,
2013-01-25 22:36:00,69.1,65.4,30.04,South,188,4.0,12.0,88,0.00,,---,0.00,VWS V14.00,2013-01-26 04:36:00,
2013-01-25 22:37:00,69.0,65.3,30.04,South,178,12.0,14.0,88,0.00,,---,0.00,VWS V14.00,2013-01-26 04:37:00,
2013-01-25 22:38:00,69.1,65.4,30.04,South,188,7.0,12.0,88,0.00,,---,0.00,VWS V14.00,2013-01-26 04:38:00,
2013-01-25 22:39:00,69.0,65.3,30.04,South,175,14.0,14.0,88,0.00,,---,0.00,VWS V14.00,2013-01-26 04:39:00,
2013-01-25 22:40:00,69.0,65.3,30.04,SSW,193,11.0,14.0,88,0.00,,---,0.00,VWS V14.00,2013-01-26 04:40:00,
2013-01-25 22:41:00,69.0,65.3,30.04,SSW,193,8.0,14.0,88,0.00,,---,0.00,VWS V14.00,2013-01-26 04:41:00,
2013-01-25 22:42:00,69.0,65.3,30.04,South,180,11.0,12.0,88,0.00,,---,0.00,VWS V14.00,2013-01-26 04:42:00,
2013-01-25 22:43:00,69.0,65.3,30.04,South,173,12.0,15.0,88,0.00,,---,0.00,VWS V14.00,2013-01-26 04:43:00,
2013-01-25 22:44:00,69.0,65.3,30.04,South,180,11.0,14.0,88,0.00,,---,0.00,VWS V14.00,2013-01-26 04:44:00,
2013-01-25 22:45:00,69.0,65.3,30.04,South,181,11.0,15.0,88,0.00,,---,0.00,VWS V14.00,2013-01-26 04:45:00,
2013-01-25 22:46:00,68.9,65.2,30.04,SSW,194,9.0,12.0,88,0.00,,---,0.00,VWS V14.00,2013-01-26 04:46:00,
2013-01-25 22:47:00,68.8,65.1,30.04,South,178,9.0,9.0,88,0.00,,---,0.00,VWS V14.00,2013-01-26 04:47:00,
2013-01-25 22:48:00,68.9,65.2,30.05,South,183,11.0,15.0,88,0.00,,---,0.00,VWS V14.00,2013-01-26 04:48:00,
2013-01-25 22:49:00,68.9,65.2,30.04,SSW,197,8.0,12.0,88,0.00,,---,0.00,VWS V14.00,2013-01-26 04:49:00,
2013-01-25 22:50:00,68.8,65.1,30.04,South,178,15.0,15.0,88,0.00,,---,0.00,VWS V14.00,2013-01-26 04:50:00,
2013-01-25 22:51:00,68.8,65.1,30.04,South,187,10.0,12.0,88,0.00,,---,0.00,VWS V14.00,2013-01-26 04:51:00,
2013-01-25 22:52:00,68.8,65.1,30.04,SSW,200,13.0,14.0,88,0.00,,---,0.00,VWS V14.00,2013-01-26 04:52:00,
2013-01-25 22:53:00,68.8,65.1,30.04,South,179,11.0,13.0,88,0.00,,---,0.00,VWS V14.00,2013-01-26 04:53:00,
2013-01-25 22:54:00,68.8,65.1,30.04,South,184,11.0,12.0,88,0.00,,---,0.00,VWS V14.00,2013-01-26 04:54:00,
2013-01-25 22:55:00,68.8,65.1,30.04,South,179,14.0,14.0,88,0.00,,---,0.00,VWS V14.00,2013-01-26 04:55:00,
2013-01-25 22:56:00,68.7,65.3,30.04,South,177,11.0,11.0,89,0.00,,---,0.00,VWS V14.00,2013-01-26 04:56:00,
2013-01-25 22:57:00,68.7,65.0,30.04,South,185,7.0,12.0,88,0.00,,---,0.00,VWS V14.00,2013-01-26 04:57:00,
2013-01-25 22:58:00,68.7,65.0,30.04,South,186,10.0,13.0,88,0.00,,---,0.00,VWS V14.00,2013-01-26 04:58:00,
2013-01-25 22:59:00,68.7,65.3,30.04,SSW,192,10.0,15.0,89,0.00,,---,0.00,VWS V14.00,2013-01-26 04:59:00,
2013-01-25 23:00:00,68.5,65.1,30.05,SSW,193,8.0,12.0,89,0.00,,---,0.00,VWS V14.00,2013-01-26 05:00:00,
2013-01-25 23:01:00,68.7,65.3,30.05,SSW,192,9.0,14.0,89,0.00,,---,0.00,VWS V14.00,2013-01-26 05:01:00,
2013-01-25 23:03:00,68.5,65.1,30.05,SSW,194,9.0,13.0,89,0.00,,---,0.00,VWS V14.00,2013-01-26 05:03:00,
2013-01-25 23:04:00,68.5,65.1,30.05,South,184,6.0,12.0,89,0.00,,---,0.00,VWS V14.00,2013-01-26 05:04:00,
2013-01-25 23:05:00,68.4,65.0,30.05,South,188,9.0,9.0,89,0.00,,---,0.00,VWS V14.00,2013-01-26 05:05:00,
2013-01-25 23:06:00,68.5,65.1,30.05,SSW,194,10.0,11.0,89,0.00,,---,0.00,VWS V14.00,2013-01-26 05:06:00,
2013-01-25 23:07:00,68.4,65.0,30.05,SSW,198,9.0,11.0,89,0.00,,---,0.00,VWS V14.00,2013-01-26 05:07:00,
2013-01-25 23:08:00,68.4,65.0,30.05,South,188,9.0,12.0,89,0.00,,---,0.00,VWS V14.00,2013-01-26 05:08:00,
2013-01-25 23:09:00,68.3,64.9,30.05,SSW,197,11.0,11.0,89,0.00,,---,0.00,VWS V14.00,2013-01-26 05:09:00,
2013-01-25 23:10:00,68.2,64.8,30.05,SSW,197,9.0,12.0,89,0.00,,---,0.00,VWS V14.00,2013-01-26 05:10:00,
2013-01-25 23:11:00,68.3,64.9,30.05,SSW,196,8.0,12.0,89,0.00,,---,0.00,VWS V14.00,2013-01-26 05:11:00,
2013-01-25 23:12:00,68.3,64.9,30.05,South,189,10.0,11.0,89,0.00,,---,0.00,VWS V14.00,2013-01-26 05:12:00,
2013-01-25 23:13:00,68.2,64.8,30.05,South,184,12.0,12.0,89,0.00,,---,0.00,VWS V14.00,2013-01-26 05:13:00,
2013-01-25 23:14:00,68.2,64.8,30.05,South,191,7.0,12.0,89,0.00,,---,0.00,VWS V14.00,2013-01-26 05:14:00,
2013-01-25 23:15:00,68.0,64.6,30.05,SSW,194,8.0,8.0,89,0.00,,---,0.00,VWS V14.00,2013-01-26 05:15:00,
2013-01-25 23:16:00,68.1,64.7,30.05,SSW,196,8.0,11.0,89,0.00,,---,0.00,VWS V14.00,2013-01-26 05:16:00,
2013-01-25 23:17:00,68.1,64.7,30.05,SSW,192,8.0,10.0,89,0.00,,---,0.00,VWS V14.00,2013-01-26 05:17:00,
2013-01-25 23:18:00,68.0,64.6,30.05,South,190,7.0,10.0,89,0.00,,---,0.00,VWS V14.00,2013-01-26 05:18:00,
2013-01-25 23:19:00,68.0,64.6,30.05,South,182,6.0,8.0,89,0.00,,---,0.00,VWS V14.00,2013-01-26 05:19:00,
2013-01-25 23:20:00,67.7,64.3,30.05,SSW,197,8.0,8.0,89,0.00,,---,0.00,VWS V14.00,2013-01-26 05:20:00,
2013-01-25 23:21:00,67.8,64.4,30.05,SSW,200,7.0,8.0,89,0.00,,---,0.00,VWS V14.00,2013-01-26 05:21:00,
2013-01-25 23:22:00,67.8,64.4,30.05,SSW,196,6.0,7.0,89,0.00,,---,0.00,VWS V14.00,2013-01-26 05:22:00,
2013-01-25 23:23:00,67.7,64.3,30.05,SSW,197,7.0,8.0,89,0.00,,---,0.00,VWS V14.00,2013-01-26 05:23:00,
2013-01-25 23:24:00,67.6,64.6,30.05,SSW,194,9.0,9.0,90,0.00,,---,0.00,VWS V14.00,2013-01-26 05:24:00,
2013-01-25 23:25:00,67.5,64.5,30.05,SSW,193,10.0,10.0,90,0.00,,---,0.00,VWS V14.00,2013-01-26 05:25:00,
2013-01-25 23:26:00,67.6,64.6,30.05,SSW,194,5.0,9.0,90,0.00,,---,0.00,VWS V14.00,2013-01-26 05:26:00,
2013-01-25 23:27:00,67.5,64.5,30.05,SSW,199,8.0,11.0,90,0.00,,---,0.00,VWS V14.00,2013-01-26 05:27:00,
2013-01-25 23:28:00,67.5,64.5,30.05,SSW,193,10.0,10.0,90,0.00,,---,0.00,VWS V14.00,2013-01-26 05:28:00,
2013-01-25 23:29:00,67.5,64.5,30.05,SSW,198,8.0,11.0,90,0.00,,---,0.00,VWS V14.00,2013-01-26 05:29:00,
2013-01-25 23:30:00,67.5,64.5,30.05,SSW,197,8.0,11.0,90,0.00,,---,0.00,VWS V14.00,2013-01-26 05:30:00,
2013-01-25 23:31:00,67.5,64.5,30.05,SSW,192,7.0,9.0,90,0.00,,---,0.00,VWS V14.00,2013-01-26 05:31:00,
2013-01-25 23:32:00,67.5,64.5,30.05,SSW,198,8.0,9.0,90,0.00,,---,0.00,VWS V14.00,2013-01-26 05:32:00,
2013-01-25 23:33:00,67.5,64.5,30.05,SSW,196,9.0,11.0,90,0.00,,---,0.00,VWS V14.00,2013-01-26 05:33:00,
2013-01-25 23:34:00,67.5,64.5,30.05,SSW,194,7.0,11.0,90,0.00,,---,0.00,VWS V14.00,2013-01-26 05:34:00,
2013-01-25 23:35:00,67.4,64.4,30.04,SSW,196,9.0,10.0,90,0.00,,---,0.00,VWS V14.00,2013-01-26 05:35:00,
2013-01-25 23:36:00,67.4,64.4,30.05,SSW,196,6.0,11.0,90,0.00,,---,0.00,VWS V14.00,2013-01-26 05:36:00,
2013-01-25 23:37:00,67.4,64.4,30.04,SSW,196,8.0,10.0,90,0.00,,---,0.00,VWS V14.00,2013-01-26 05:37:00,
2013-01-25 23:38:00,67.4,64.4,30.04,SSW,198,10.0,10.0,90,0.00,,---,0.00,VWS V14.00,2013-01-26 05:38:00,
2013-01-25 23:39:00,67.4,64.4,30.04,SSW,195,9.0,10.0,90,0.00,,---,0.00,VWS V14.00,2013-01-26 05:39:00,
2013-01-25 23:40:00,67.2,64.2,30.04,South,190,7.0,7.0,90,0.00,,---,0.00,VWS V14.00,2013-01-26 05:40:00,
2013-01-25 23:41:00,67.3,64.3,30.04,South,190,12.0,12.0,90,0.00,,---,0.00,VWS V14.00,2013-01-26 05:41:00,
2013-01-25 23:42:00,67.3,64.6,30.04,South,188,5.0,12.0,91,0.00,,---,0.00,VWS V14.00,2013-01-26 05:42:00,
2013-01-25 23:43:00,67.2,64.2,30.04,South,190,6.0,9.0,90,0.00,,---,0.00,VWS V14.00,2013-01-26 05:43:00,
2013-01-25 23:44:00,67.2,64.2,30.04,SSW,194,11.0,11.0,90,0.00,,---,0.00,VWS V14.00,2013-01-26 05:44:00,
2013-01-25 23:45:00,67.1,64.4,30.04,South,191,7.0,9.0,91,0.00,,---,0.00,VWS V14.00,2013-01-26 05:45:00,
2013-01-25 23:46:00,67.2,64.5,30.04,South,191,10.0,11.0,91,0.00,,---,0.00,VWS V14.00,2013-01-26 05:46:00,
2013-01-25 23:47:00,67.1,64.4,30.04,SSW,194,9.0,11.0,91,0.00,,---,0.00,VWS V14.00,2013-01-26 05:47:00,
2013-01-25 23:48:00,67.1,64.4,30.04,South,191,8.0,9.0,91,0.00,,---,0.00,VWS V14.00,2013-01-26 05:48:00,
2013-01-25 23:49:00,67.1,64.4,30.04,SSW,199,7.0,10.0,91,0.00,,---,0.00,VWS V14.00,2013-01-26 05:49:00,
2013-01-25 23:50:00,67.1,64.4,30.04,South,187,7.0,7.0,91,0.00,,---,0.00,VWS V14.00,2013-01-26 05:50:00,
2013-01-25 23:51:00,67.1,64.4,30.04,South,177,6.0,12.0,91,0.00,,---,0.00,VWS V14.00,2013-01-26 05:51:00,
2013-01-25 23:52:00,67.1,64.4,30.04,SSW,196,7.0,10.0,91,0.00,,---,0.00,VWS V14.00,2013-01-26 05:52:00,
2013-01-25 23:53:00,67.1,64.4,30.04,South,187,7.0,9.0,91,0.00,,---,0.00,VWS V14.00,2013-01-26 05:53:00,
2013-01-25 23:54:00,67.0,64.3,30.04,SSW,194,9.0,10.0,91,0.00,,---,0.00,VWS V14.00,2013-01-26 05:54:00,
2013-01-25 23:55:00,67.0,64.3,30.04,SSW,196,13.0,13.0,91,0.00,,---,0.00,VWS V14.00,2013-01-26 05:55:00,
2013-01-25 23:56:00,67.0,64.3,30.04,SSW,192,6.0,8.0,91,0.00,,---,0.00,VWS V14.00,2013-01-26 05:56:00,
2013-01-25 23:57:00,67.0,64.3,30.04,SSW,192,8.0,8.0,91,0.00,,---,0.00,VWS V14.00,2013-01-26 05:57:00,
2013-01-25 23:58:00,67.0,64.3,30.04,SSW,195,6.0,9.0,91,0.00,,---,0.00,VWS V14.00,2013-01-26 05:58:00,
2013-01-25 23:59:00,67.0,64.3,30.04,South,184,8.0,13.0,91,0.00,,---,0.00,VWS V14.00,2013-01-26 05:59:00,